Provisional Data: Trout Brook near McGraw, NY


Please select a monitoring station.
Please select start date.
Please select start date.

Toggle Unit: C/F Toggle Unit: C/F
Sample Time Temperature (C) Temperature (F) Specific Conductivity (mS/cm) pH   Turbidity (NTU+) DO (mg/L)
5/4/2021 9:15:00 AM -99999.99 -179968 -99999.99 -99999.99 -99999.99 -99999.99
5/4/2021 9:30:00 AM 10.32 50.576 0.12 7.77 6.57 10.6
5/4/2021 9:45:00 AM 10.36 50.648 0.12 7.82 6.66 10.62
5/4/2021 10:00:00 AM 10.4 50.72 0.12 7.83 7.05 10.61
5/4/2021 10:15:00 AM 10.45 50.81 0.12 7.84 8.05 10.62
5/4/2021 10:30:00 AM 10.57 51.026 0.121 7.87 8.99 10.66
5/4/2021 10:45:00 AM 10.71 51.278 0.121 7.88 7.9 10.7
5/4/2021 11:00:00 AM 10.85 51.53 0.121 7.93 7.02 10.71
5/4/2021 11:15:00 AM 10.95 51.71 0.121 7.95 6.67 10.67
5/4/2021 11:30:00 AM 11.16 52.088 0.121 7.97 6.94 10.67
5/4/2021 11:45:00 AM 11.44 52.592 0.121 8.01 8.85 10.67
5/4/2021 12:00:00 PM 11.62 52.916 0.121 8.03 9.38 10.64
5/4/2021 12:15:00 PM 11.82 53.276 0.122 8.06 9.74 10.6
5/4/2021 12:30:00 PM 12.08 53.744 0.122 8.08 9.5 10.57
5/4/2021 12:45:00 PM 12.25 54.05 0.122 8.11 9.9 10.52
5/4/2021 1:00:00 PM 12.41 54.338 0.122 8.09 11.03 10.47
5/4/2021 1:15:00 PM 12.54 54.572 0.122 8.11 11.9 10.44
5/4/2021 1:30:00 PM 12.48 54.464 0.123 8.11 7.93 10.37
5/4/2021 1:45:00 PM 12.51 54.518 0.123 8.09 7.44 10.34
5/4/2021 2:00:00 PM 12.58 54.644 0.123 8.09 7.23 10.35
5/4/2021 2:15:00 PM 12.63 54.734 0.123 8.11 7.5 10.35
5/4/2021 2:30:00 PM 12.74 54.932 0.123 8.13 8.08 10.33
5/4/2021 2:45:00 PM 13.01 55.418 0.123 8.15 7.2 10.33
5/4/2021 3:00:00 PM 13.19 55.742 0.124 8.19 6.87 10.31
5/4/2021 3:15:00 PM 13.29 55.922 0.124 8.2 8.94 10.24
5/4/2021 3:30:00 PM 13.34 56.012 0.124 8.16 11.64 10.15
5/4/2021 3:45:00 PM 13.34 56.012 0.124 8.14 10.03 10.08
5/4/2021 4:00:00 PM 13.29 55.922 0.125 8.09 9.63 9.97
5/4/2021 4:15:00 PM 13.28 55.904 0.125 8.07 9.16 9.95
5/4/2021 4:30:00 PM 13.23 55.814 0.125 8.03 7.44 9.91
5/4/2021 4:45:00 PM 13.2 55.76 0.125 7.98 8 9.87
5/4/2021 5:00:00 PM 13.18 55.724 0.125 7.97 8.71 9.85
5/4/2021 5:15:00 PM 13.17 55.706 0.125 7.96 8.92 9.87
5/4/2021 5:30:00 PM 13.17 55.706 0.126 7.96 8.44 9.87
5/4/2021 5:45:00 PM 13.15 55.67 0.126 7.94 6.32 9.83
5/4/2021 6:00:00 PM 13.15 55.67 0.126 7.94 5.67 9.84
5/4/2021 6:15:00 PM 13.13 55.634 0.126 7.92 5.55 9.82
5/4/2021 6:30:00 PM 13.1 55.58 0.126 7.9 5.55 9.75
5/4/2021 6:45:00 PM 13.07 55.526 0.127 7.88 5.56 9.69
5/4/2021 7:00:00 PM 13.03 55.454 0.127 7.85 6.68 9.64
5/4/2021 7:15:00 PM 12.98 55.364 0.127 7.83 8.14 9.6
5/4/2021 7:30:00 PM 12.93 55.274 0.128 7.79 7.23 9.58
5/4/2021 7:45:00 PM 12.96 55.328 0.127 7.79 6.56 9.57
5/4/2021 8:00:00 PM 12.91 55.238 0.127 7.8 9.03 9.56
5/4/2021 8:15:00 PM 12.97 55.346 0.128 7.83 16.17 9.53
5/4/2021 8:30:00 PM 12.86 55.148 0.128 7.8 9.05 9.56
5/4/2021 8:45:00 PM 12.78 55.004 0.139 7.79 547.36 9.68
5/4/2021 9:00:00 PM 13.13 55.634 0.109 7.66 792.81 9.68
5/4/2021 9:15:00 PM 13.1 55.58 0.107 7.66 725.9 9.72
5/4/2021 9:30:00 PM 13 55.4 0.106 7.71 462.66 9.71
5/4/2021 9:45:00 PM 12.86 55.148 0.107 7.77 404.08 9.75
5/4/2021 10:00:00 PM 12.85 55.13 0.104 7.84 404.76 9.75
5/4/2021 10:15:00 PM 12.93 55.274 0.101 7.86 444.1 9.73
5/4/2021 10:30:00 PM 12.94 55.292 0.101 7.85 283.54 9.72
5/4/2021 10:45:00 PM 12.91 55.238 0.101 7.83 273.25 9.72
5/4/2021 11:00:00 PM 12.85 55.13 0.102 7.87 182.55 9.73
5/4/2021 11:15:00 PM 12.78 55.004 0.103 7.82 176.03 9.73
5/4/2021 11:30:00 PM 12.7 54.86 0.103 7.81 166.5 9.74
5/4/2021 11:45:00 PM 12.62 54.716 0.104 7.81 115.89 9.75
5/5/2021 12:00:00 AM 12.54 54.572 0.104 7.83 97.95 9.76
5/5/2021 12:15:00 AM 12.48 54.464 0.104 7.7 67.73 9.77
5/5/2021 12:30:00 AM 12.42 54.356 0.105 7.69 69.97 9.78
5/5/2021 12:45:00 AM 12.37 54.266 0.105 7.67 60 9.79
5/5/2021 1:00:00 AM 12.3 54.14 0.105 7.67 53.21 9.8
5/5/2021 1:15:00 AM 12.23 54.014 0.106 7.68 44.97 9.81
5/5/2021 1:30:00 AM 12.17 53.906 0.106 7.66 39.06 9.82
5/5/2021 1:45:00 AM 12.12 53.816 0.106 7.66 41.79 9.84
5/5/2021 2:00:00 AM 12.08 53.744 0.106 7.66 37.65 9.85
5/5/2021 2:15:00 AM 12.03 53.654 0.106 7.68 38.87 9.85
5/5/2021 2:30:00 AM 11.99 53.582 0.106 7.67 37.69 9.86
5/5/2021 2:45:00 AM 11.96 53.528 0.106 7.67 27.89 9.87
5/5/2021 3:00:00 AM 11.93 53.474 0.106 7.67 32.04 9.87
5/5/2021 3:15:00 AM 11.89 53.402 0.106 7.69 42.71 9.88
5/5/2021 3:30:00 AM 11.86 53.348 0.106 7.72 37.7 9.89
5/5/2021 3:45:00 AM 11.84 53.312 0.106 7.63 40.11 9.89
5/5/2021 4:00:00 AM 11.81 53.258 0.106 7.63 34.87 9.89
5/5/2021 4:15:00 AM 11.78 53.204 0.106 7.62 31.11 9.9
5/5/2021 4:30:00 AM 11.75 53.15 0.106 7.63 28.66 9.9
5/5/2021 4:45:00 AM 11.72 53.096 0.106 7.62 26.86 9.91
5/5/2021 5:00:00 AM 11.69 53.042 0.106 7.62 27.62 9.92
5/5/2021 5:15:00 AM 11.66 52.988 0.106 7.62 24.49 9.92
5/5/2021 5:30:00 AM 11.64 52.952 0.106 7.64 24.14 9.93
5/5/2021 5:45:00 AM 11.62 52.916 0.106 7.64 24.58 9.94
5/5/2021 6:00:00 AM 11.59 52.862 0.107 7.66 21.38 9.95
5/5/2021 6:15:00 AM 11.57 52.826 0.107 7.71 20.5 9.97
5/5/2021 6:30:00 AM 11.55 52.79 0.108 7.71 19.01 9.97
5/5/2021 6:45:00 AM 11.53 52.754 0.108 7.71 18.09 9.98
5/5/2021 7:00:00 AM 11.5 52.7 0.109 7.73 17.65 10
5/5/2021 7:15:00 AM 11.48 52.664 0.109 7.72 16.18 10.01
5/5/2021 7:30:00 AM 11.46 52.628 0.109 7.72 15.65 10.03
5/5/2021 7:45:00 AM 11.45 52.61 0.11 7.7 14.91 10.06
5/5/2021 8:00:00 AM 11.44 52.592 0.11 7.72 14.57 10.08
5/5/2021 8:15:00 AM 11.42 52.556 0.111 7.74 13.93 10.1
5/5/2021 8:30:00 AM 11.42 52.556 0.111 7.78 13.46 10.12
5/5/2021 8:45:00 AM 11.42 52.556 0.112 7.81 13.19 10.15
5/5/2021 9:00:00 AM 11.41 52.538 0.112 7.82 12.78 10.17
5/5/2021 9:15:00 AM 11.41 52.538 0.112 7.83 12.39 10.17
5/5/2021 9:30:00 AM 11.39 52.502 0.113 7.82 12.84 10.17
5/5/2021 9:45:00 AM 11.38 52.484 0.113 7.81 12.22 10.18
5/5/2021 10:00:00 AM 11.37 52.466 0.113 7.83 12.41 10.19
5/5/2021 10:15:00 AM 11.36 52.448 0.113 7.84 15.5 10.19
5/5/2021 10:30:00 AM 11.34 52.412 0.114 7.84 15.25 10.19
5/5/2021 10:45:00 AM 11.33 52.394 0.114 7.85 12.89 10.22
5/5/2021 11:00:00 AM 11.32 52.376 0.114 7.85 11.73 10.25
5/5/2021 11:15:00 AM 11.31 52.358 0.114 7.86 11.16 10.27
5/5/2021 11:30:00 AM 11.31 52.358 0.115 7.87 10.59 10.29
5/5/2021 11:45:00 AM 11.32 52.376 0.115 7.88 10.5 10.31
5/5/2021 12:00:00 PM 11.32 52.376 0.115 7.86 9.75 10.31
5/5/2021 12:15:00 PM 11.3 52.34 0.115 7.87 10.37 10.31
5/5/2021 12:30:00 PM 11.27 52.286 0.116 7.86 9.92 10.31
5/5/2021 12:45:00 PM 11.25 52.25 0.116 7.86 9.63 10.32
5/5/2021 1:00:00 PM 11.27 52.286 0.116 7.88 9.52 10.35
5/5/2021 1:15:00 PM 11.26 52.268 0.116 7.88 9.45 10.36
5/5/2021 1:30:00 PM 11.27 52.286 0.116 7.91 8.99 10.36
5/5/2021 1:45:00 PM 11.27 52.286 0.117 7.91 9.48 10.36
5/5/2021 2:00:00 PM 11.23 52.214 0.117 7.9 8.83 10.35
5/5/2021 2:15:00 PM 11.19 52.142 0.117 7.91 8.95 10.35
5/5/2021 2:30:00 PM 11.14 52.052 0.117 7.9 9.28 10.35
5/5/2021 2:45:00 PM 11.12 52.016 0.117 7.89 8.72 10.37
5/5/2021 3:00:00 PM 11.12 52.016 0.117 7.9 9.58 10.39
5/5/2021 3:15:00 PM 11.11 51.998 0.117 7.9 9.52 10.39
5/5/2021 3:30:00 PM 11.12 52.016 0.116 7.91 9.62 10.39
5/5/2021 3:45:00 PM 11.12 52.016 0.113 7.87 13.7 10.35
5/5/2021 4:00:00 PM 11.12 52.016 0.117 7.9 10.05 10.38
5/5/2021 4:15:00 PM 11.13 52.034 0.116 7.9 9.92 10.4
5/5/2021 4:30:00 PM 11.12 52.016 0.116 7.89 9.51 10.41
5/5/2021 4:45:00 PM 11.1 51.98 0.116 7.88 9.18 10.4
5/5/2021 5:00:00 PM 11.04 51.872 0.116 7.88 9.02 10.36
5/5/2021 5:15:00 PM 10.99 51.782 0.116 7.86 8.84 10.35
5/5/2021 5:30:00 PM 10.92 51.656 0.116 7.81 8.74 10.33
5/5/2021 5:45:00 PM 10.85 51.53 0.116 7.8 8.87 10.31
5/5/2021 6:00:00 PM 10.79 51.422 0.116 7.79 8.59 10.32
5/5/2021 6:15:00 PM 10.71 51.278 0.116 7.77 8.59 10.32
5/5/2021 6:30:00 PM 10.64 51.152 0.117 7.74 8.88 10.32
5/5/2021 6:45:00 PM 10.58 51.044 0.116 7.73 8.31 10.31
5/5/2021 7:00:00 PM 10.52 50.936 0.117 7.71 8.42 10.31
5/5/2021 7:15:00 PM 10.46 50.828 0.117 7.7 8.61 10.31
5/5/2021 7:30:00 PM 10.4 50.72 0.117 7.67 8.46 10.31
5/5/2021 7:45:00 PM 10.34 50.612 0.117 7.67 8.74 10.31
5/5/2021 8:00:00 PM 10.29 50.522 0.117 7.66 8.87 10.32
5/5/2021 8:15:00 PM 10.23 50.414 0.118 7.65 8.5 10.33
5/5/2021 8:30:00 PM 10.18 50.324 0.118 7.64 8.64 10.34
5/5/2021 8:45:00 PM 10.13 50.234 0.118 7.64 8.59 10.35
5/5/2021 9:00:00 PM 10.08 50.144 0.118 7.64 8.46 10.37
5/5/2021 9:15:00 PM 10.03 50.054 0.118 7.63 8.73 10.38
5/5/2021 9:30:00 PM 9.98 49.964 0.118 7.62 8.76 10.39
5/5/2021 9:45:00 PM 9.92 49.856 0.119 7.62 8.4 10.41
5/5/2021 10:00:00 PM 9.87 49.766 0.119 7.62 8.08 10.42
5/5/2021 10:15:00 PM 9.82 49.676 0.119 7.62 8.13 10.43
5/5/2021 10:30:00 PM 9.77 49.586 0.119 7.62 8.01 10.45
5/5/2021 10:45:00 PM 9.72 49.496 0.119 7.61 7.87 10.46
5/5/2021 11:00:00 PM 9.66 49.388 0.12 7.61 7.73 10.47
5/5/2021 11:15:00 PM 9.61 49.298 0.12 7.6 7.96 10.48
5/5/2021 11:30:00 PM 9.56 49.208 0.12 7.6 7.96 10.5
5/5/2021 11:45:00 PM 9.51 49.118 0.12 7.61 7.64 10.51
5/6/2021 12:00:00 AM 9.46 49.028 0.12 7.61 7.62 10.52
5/6/2021 12:15:00 AM 9.42 48.956 0.121 7.61 7.38 10.53
5/6/2021 12:30:00 AM 9.38 48.884 0.121 7.61 7.28 10.54
5/6/2021 12:45:00 AM 9.33 48.794 0.121 7.61 7.1 10.55
5/6/2021 1:00:00 AM 9.29 48.722 0.121 7.6 7.03 10.57
5/6/2021 1:15:00 AM 9.26 48.668 0.121 7.6 7.11 10.58
5/6/2021 1:30:00 AM 9.22 48.596 0.121 7.61 6.98 10.59
5/6/2021 1:45:00 AM 9.18 48.524 0.121 7.6 7 10.6
5/6/2021 2:00:00 AM 9.14 48.452 0.121 7.6 7.1 10.61
5/6/2021 2:15:00 AM 9.11 48.398 0.122 7.6 7.21 10.62
5/6/2021 2:30:00 AM 9.07 48.326 0.122 7.6 6.97 10.63
5/6/2021 2:45:00 AM 9.03 48.254 0.122 7.6 6.83 10.64
5/6/2021 3:00:00 AM 8.99 48.182 0.122 7.6 6.87 10.65
5/6/2021 3:15:00 AM 8.94 48.092 0.122 7.59 6.86 10.67
5/6/2021 3:30:00 AM 8.89 48.002 0.122 7.59 6.72 10.68
5/6/2021 3:45:00 AM 8.85 47.93 0.122 7.59 6.87 10.69
5/6/2021 4:00:00 AM 8.81 47.858 0.122 7.59 6.82 10.71
5/6/2021 4:15:00 AM 8.77 47.786 0.122 7.59 6.45 10.72
5/6/2021 4:30:00 AM 8.72 47.696 0.122 7.58 6.92 10.73
5/6/2021 4:45:00 AM 8.68 47.624 0.122 7.58 6.61 10.75
5/6/2021 5:00:00 AM 8.63 47.534 0.122 7.58 6.74 10.77
5/6/2021 5:15:00 AM 8.6 47.48 0.122 7.59 6.5 10.79
5/6/2021 5:30:00 AM 8.56 47.408 0.122 7.59 6.38 10.83
5/6/2021 5:45:00 AM 8.51 47.318 0.122 7.59 6.46 10.87
5/6/2021 6:00:00 AM 8.49 47.282 0.122 7.61 6.56 10.92
5/6/2021 6:15:00 AM 8.48 47.264 0.122 7.63 6.14 10.97
5/6/2021 6:30:00 AM 8.47 47.246 0.122 7.64 6.26 11.01
5/6/2021 6:45:00 AM 8.49 47.282 0.122 7.67 6.12 11.06
5/6/2021 7:00:00 AM 8.53 47.354 0.122 7.69 5.87 11.1
5/6/2021 7:15:00 AM 8.55 47.39 0.122 7.71 5.95 11.12
5/6/2021 7:30:00 AM 8.57 47.426 0.122 7.71 6.1 11.13
5/6/2021 7:45:00 AM 8.57 47.426 0.122 7.71 5.77 11.14
5/6/2021 8:00:00 AM 8.57 47.426 0.122 7.7 5.67 11.14
5/6/2021 8:15:00 AM 8.66 47.588 0.122 7.72 5.48 11.15
5/6/2021 8:30:00 AM 8.74 47.732 0.122 7.75 5.61 11.15
5/6/2021 8:45:00 AM 8.87 47.966 0.122 7.77 5.49 11.14
5/6/2021 9:00:00 AM 9.06 48.308 0.122 7.79 5.55 11.11
5/6/2021 9:15:00 AM 9.22 48.596 0.122 7.81 5.35 11.09
5/6/2021 9:30:00 AM 9.37 48.866 0.122 7.83 5.27 11.06
5/6/2021 9:45:00 AM 9.57 49.226 0.123 7.84 5.26 11.03
5/6/2021 10:00:00 AM 9.8 49.64 0.123 7.86 5.52 11
5/6/2021 10:15:00 AM 10.02 50.036 0.123 7.88 7.06 10.96
5/6/2021 10:30:00 AM 10.22 50.396 0.123 7.89 7.2 10.91
5/6/2021 10:45:00 AM 10.36 50.648 0.123 7.89 9.02 10.86
5/6/2021 11:00:00 AM 10.62 51.116 0.123 7.92 8.93 10.82
5/6/2021 11:15:00 AM 10.95 51.71 0.123 7.94 9.61 10.77
5/6/2021 11:30:00 AM 11.22 52.196 0.123 7.97 7.28 10.71
5/6/2021 11:45:00 AM 11.41 52.538 0.123 7.98 7.8 10.65
5/6/2021 12:00:00 PM 11.6 52.88 0.124 7.99 8.76 10.59
5/6/2021 12:15:00 PM 11.88 53.384 0.124 8 9.36 10.55
5/6/2021 12:30:00 PM 12.16 53.888 0.124 8.02 7.95 10.5
5/6/2021 12:45:00 PM 12.41 54.338 0.124 8.05 7.15 10.44
5/6/2021 1:00:00 PM 12.63 54.734 0.124 8.06 7.67 10.39
5/6/2021 1:15:00 PM 12.79 55.022 0.124 8.07 6.62 10.34
5/6/2021 1:30:00 PM 12.94 55.292 0.124 8.08 5.65 10.3
5/6/2021 1:45:00 PM 13.05 55.49 0.124 8.08 5.45 10.26
5/6/2021 2:00:00 PM 13.18 55.724 0.124 8.09 5.35 10.23
5/6/2021 2:15:00 PM 13.27 55.886 0.125 8.1 5.54 10.2
5/6/2021 2:30:00 PM 13.36 56.048 0.125 8.1 5.58 10.17
5/6/2021 2:45:00 PM 13.42 56.156 0.125 8.11 6.62 10.16
5/6/2021 3:00:00 PM 13.38 56.084 0.125 8.1 6.96 10.15
5/6/2021 3:15:00 PM 13.35 56.03 0.125 8.09 6.94 10.14
5/6/2021 3:30:00 PM 13.31 55.958 0.125 8.08 8.18 10.14
5/6/2021 3:45:00 PM 13.22 55.796 0.125 8.07 8.98 10.14
5/6/2021 4:00:00 PM 13.08 55.544 0.125 8.05 14.7 10.12
5/6/2021 4:15:00 PM 12.95 55.31 0.125 8.02 18.93 10.1
5/6/2021 4:30:00 PM 12.8 55.04 0.125 8.02 11.63 10.14
5/6/2021 4:45:00 PM 12.68 54.824 0.125 8 6.88 10.17
5/6/2021 5:00:00 PM 12.54 54.572 0.125 7.99 5.78 10.19
5/6/2021 5:15:00 PM 12.41 54.338 0.126 7.97 5.85 10.19
5/6/2021 5:30:00 PM 12.28 54.104 0.126 7.94 5.46 10.19
5/6/2021 5:45:00 PM 12.16 53.888 0.126 7.91 5.41 10.21
5/6/2021 6:00:00 PM 12.01 53.618 0.126 7.85 5.42 10.19
5/6/2021 6:15:00 PM 11.86 53.348 0.126 7.82 5.42 10.18
5/6/2021 6:30:00 PM 11.72 53.096 0.126 7.79 5.23 10.16
5/6/2021 6:45:00 PM 11.58 52.844 0.126 7.77 5.3 10.15
5/6/2021 7:00:00 PM 11.42 52.556 0.127 7.74 5.22 10.14
5/6/2021 7:15:00 PM 11.27 52.286 0.127 7.71 5.09 10.14
5/6/2021 7:30:00 PM 11.13 52.034 0.127 7.69 5.36 10.15
5/6/2021 7:45:00 PM 10.98 51.764 0.127 7.66 5.17 10.15
5/6/2021 8:00:00 PM 10.84 51.512 0.127 7.65 5.5 10.17
5/6/2021 8:15:00 PM 10.69 51.242 0.127 7.64 5.63 10.19
5/6/2021 8:30:00 PM 10.55 50.99 0.127 7.62 5.43 10.22
5/6/2021 8:45:00 PM 10.4 50.72 0.127 7.61 5.46 10.25
5/6/2021 9:00:00 PM 10.26 50.468 0.127 7.6 5.5 10.28
5/6/2021 9:15:00 PM 10.12 50.216 0.128 7.59 5.45 10.32
5/6/2021 9:30:00 PM 9.99 49.982 0.128 7.59 5.42 10.35
5/6/2021 9:45:00 PM 9.85 49.73 0.128 7.58 5.29 10.39
5/6/2021 10:00:00 PM 9.72 49.496 0.128 7.58 5.31 10.42
5/6/2021 10:15:00 PM 9.59 49.262 0.128 7.57 5.4 10.46
5/6/2021 10:30:00 PM 9.47 49.046 0.128 7.56 5.16 10.49
5/6/2021 10:45:00 PM 9.34 48.812 0.128 7.56 5.06 10.52
5/6/2021 11:00:00 PM 9.23 48.614 0.128 7.55 5.22 10.55
5/6/2021 11:15:00 PM 9.11 48.398 0.128 7.55 5.13 10.58
5/6/2021 11:30:00 PM 8.99 48.182 0.129 7.55 5.09 10.61
5/6/2021 11:45:00 PM 8.88 47.984 0.129 7.55 5.1 10.64
5/7/2021 12:00:00 AM 8.78 47.804 0.129 7.54 5.24 10.67
5/7/2021 12:15:00 AM 8.67 47.606 0.129 7.54 5.12 10.7
5/7/2021 12:30:00 AM 8.57 47.426 0.129 7.54 5.19 10.73
5/7/2021 12:45:00 AM 8.47 47.246 0.129 7.54 5.1 10.76
5/7/2021 1:00:00 AM 8.37 47.066 0.129 7.54 4.9 10.79
5/7/2021 1:15:00 AM 8.28 46.904 0.129 7.54 5.03 10.81
5/7/2021 1:30:00 AM 8.19 46.742 0.129 7.54 4.94 10.83
5/7/2021 1:45:00 AM 8.1 46.58 0.129 7.54 4.85 10.85
5/7/2021 2:00:00 AM 8.02 46.436 0.13 7.54 4.94 10.88
5/7/2021 2:15:00 AM 7.94 46.292 0.13 7.54 4.78 10.9
5/7/2021 2:30:00 AM 7.86 46.148 0.13 7.54 4.91 10.92
5/7/2021 2:45:00 AM 7.78 46.004 0.13 7.53 4.99 10.95
5/7/2021 3:00:00 AM 7.7 45.86 0.13 7.53 4.97 10.97
5/7/2021 3:15:00 AM 7.63 45.734 0.13 7.53 4.65 10.99
5/7/2021 3:30:00 AM 7.56 45.608 0.13 7.53 4.7 11.02
5/7/2021 3:45:00 AM 7.5 45.5 0.13 7.53 4.66 11.04
5/7/2021 4:00:00 AM 7.44 45.392 0.13 7.53 4.77 11.05
5/7/2021 4:15:00 AM 7.38 45.284 0.13 7.53 4.69 11.07
5/7/2021 4:30:00 AM 7.32 45.176 0.13 7.53 4.55 11.09
5/7/2021 4:45:00 AM 7.26 45.068 0.13 7.53 4.56 11.11
5/7/2021 5:00:00 AM 7.2 44.96 0.13 7.53 4.47 11.13
5/7/2021 5:15:00 AM 7.14 44.852 0.13 7.54 4.58 11.17
5/7/2021 5:30:00 AM 7.09 44.762 0.13 7.54 4.34 11.21
5/7/2021 5:45:00 AM 7.05 44.69 0.131 7.55 4.31 11.26
5/7/2021 6:00:00 AM 7.04 44.672 0.131 7.57 4.32 11.32
5/7/2021 6:15:00 AM 7.06 44.708 0.131 7.59 4.15 11.39
5/7/2021 6:30:00 AM 7.1 44.78 0.13 7.62 4.32 11.43
5/7/2021 6:45:00 AM 7.15 44.87 0.131 7.65 4.17 11.47
5/7/2021 7:00:00 AM 7.23 45.014 0.131 7.68 4.1 11.48
5/7/2021 7:15:00 AM 7.32 45.176 0.131 7.7 4.17 11.49
5/7/2021 7:30:00 AM 7.43 45.374 0.131 7.72 3.98 11.48
5/7/2021 7:45:00 AM 7.57 45.626 0.13 7.74 4.01 11.48
5/7/2021 8:00:00 AM 7.67 45.806 0.13 7.77 3.97 11.45
5/7/2021 8:15:00 AM 7.82 46.076 0.13 7.79 3.89 11.43
5/7/2021 8:30:00 AM 8.02 46.436 0.13 7.81 3.73 11.42
5/7/2021 8:45:00 AM 8.25 46.85 0.13 7.82 3.88 11.37
5/7/2021 9:00:00 AM 8.47 47.246 0.13 7.84 3.9 11.35
5/7/2021 9:15:00 AM 8.66 47.588 0.13 7.86 3.83 11.31
5/7/2021 9:30:00 AM 8.81 47.858 0.13 7.88 3.83 11.28
5/7/2021 9:45:00 AM 8.99 48.182 0.13 7.89 3.72 11.23
5/7/2021 10:00:00 AM 9.26 48.668 0.13 7.91 3.75 11.18
5/7/2021 10:15:00 AM 9.52 49.136 0.13 7.93 3.71 11.14
5/7/2021 10:30:00 AM 9.78 49.604 0.13 7.95 3.79 11.09
5/7/2021 10:45:00 AM 10.07 50.126 0.13 7.97 3.65 11.03
5/7/2021 11:00:00 AM 10.33 50.594 0.13 7.99 3.77 10.97
5/7/2021 11:15:00 AM 10.63 51.134 0.13 8.02 3.51 10.9
5/7/2021 11:30:00 AM 10.67 51.206 0.13 8.03 4.13 10.83
5/7/2021 11:45:00 AM 10.66 51.188 0.13 8.01 5.64 10.77
5/7/2021 12:00:00 PM 10.62 51.116 0.13 7.99 7.17 10.74
5/7/2021 12:15:00 PM 10.56 51.008 0.13 7.97 7.66 10.71
5/7/2021 12:30:00 PM 10.51 50.918 0.13 7.96 6.31 10.71
5/7/2021 12:45:00 PM 10.48 50.864 0.13 7.95 4.82 10.71
5/7/2021 1:00:00 PM 10.48 50.864 0.13 7.95 4.47 10.71
5/7/2021 1:15:00 PM 10.51 50.918 0.13 7.95 4.1 10.73
5/7/2021 1:30:00 PM 10.53 50.954 0.13 7.95 4.09 10.74
5/7/2021 1:45:00 PM 10.55 50.99 0.13 7.96 3.89 10.74
5/7/2021 2:00:00 PM 10.58 51.044 0.13 7.96 4.37 10.74
5/7/2021 2:15:00 PM 10.63 51.134 0.13 7.96 6.37 10.73
5/7/2021 2:30:00 PM 10.69 51.242 0.13 7.97 6.85 10.72
5/7/2021 2:45:00 PM 10.72 51.296 0.13 7.97 5.42 10.71
5/7/2021 3:00:00 PM 10.76 51.368 0.13 7.98 4.63 10.7
5/7/2021 3:15:00 PM 10.75 51.35 0.13 7.97 4.19 10.67
5/7/2021 3:30:00 PM 10.74 51.332 0.131 7.95 4.05 10.63
5/7/2021 3:45:00 PM 10.71 51.278 0.131 7.94 4.05 10.61
5/7/2021 4:00:00 PM 10.68 51.224 0.131 7.92 3.97 10.59
5/7/2021 4:15:00 PM 10.63 51.134 0.131 7.91 4.09 10.58
5/7/2021 4:30:00 PM 10.57 51.026 0.131 7.89 5.6 10.54
5/7/2021 4:45:00 PM 10.51 50.918 0.131 7.86 6.53 10.5
5/7/2021 5:00:00 PM 10.45 50.81 0.131 7.84 5.55 10.48
5/7/2021 5:15:00 PM 10.37 50.666 0.131 7.83 4.74 10.48
5/7/2021 5:30:00 PM 10.31 50.558 0.131 7.81 4.2 10.48
5/7/2021 5:45:00 PM 10.25 50.45 0.131 7.8 3.99 10.48
5/7/2021 6:00:00 PM 10.18 50.324 0.131 7.78 3.85 10.48
5/7/2021 6:15:00 PM 10.12 50.216 0.131 7.77 3.97 10.47
5/7/2021 6:30:00 PM 10.05 50.09 0.131 7.75 4 10.46
5/7/2021 6:45:00 PM 9.98 49.964 0.132 7.73 5.36 10.44
5/7/2021 7:00:00 PM 9.91 49.838 0.132 7.71 6.82 10.42
5/7/2021 7:15:00 PM 9.85 49.73 0.132 7.69 6.08 10.42
5/7/2021 7:30:00 PM 9.78 49.604 0.132 7.68 5.21 10.42
5/7/2021 7:45:00 PM 9.72 49.496 0.132 7.67 4.62 10.42
5/7/2021 8:00:00 PM 9.66 49.388 0.132 7.66 4.45 10.43
5/7/2021 8:15:00 PM 9.61 49.298 0.132 7.65 4.43 10.44
5/7/2021 8:30:00 PM 9.56 49.208 0.132 7.65 4.35 10.44
5/7/2021 8:45:00 PM 9.51 49.118 0.132 7.65 4.2 10.46
5/7/2021 9:00:00 PM 9.46 49.028 0.132 7.64 4.2 10.47
5/7/2021 9:15:00 PM 9.41 48.938 0.132 7.64 4.24 10.49
5/7/2021 9:30:00 PM 9.36 48.848 0.131 7.64 4.37 10.49
5/7/2021 9:45:00 PM 9.31 48.758 0.131 7.63 4.13 10.5
5/7/2021 10:00:00 PM 9.27 48.686 0.131 7.63 4.34 10.51
5/7/2021 10:15:00 PM 9.22 48.596 0.131 7.63 4.22 10.52
5/7/2021 10:30:00 PM 9.18 48.524 0.131 7.63 4.25 10.54
5/7/2021 10:45:00 PM 9.14 48.452 0.131 7.62 4.1 10.55
5/7/2021 11:00:00 PM 9.1 48.38 0.131 7.62 4.24 10.56
5/7/2021 11:15:00 PM 9.06 48.308 0.131 7.62 4.34 10.57
5/7/2021 11:30:00 PM 9.02 48.236 0.131 7.62 4.23 10.58
5/7/2021 11:45:00 PM 8.98 48.164 0.131 7.62 4.31 10.59
5/8/2021 12:00:00 AM 8.94 48.092 0.131 7.62 4.2 10.6
5/8/2021 12:15:00 AM 8.9 48.02 0.131 7.62 4.54 10.61
5/8/2021 12:30:00 AM 8.86 47.948 0.131 7.62 4.44 10.62
5/8/2021 12:45:00 AM 8.83 47.894 0.131 7.62 4.51 10.63
5/8/2021 1:00:00 AM 8.79 47.822 0.13 7.61 4.46 10.64
5/8/2021 1:15:00 AM 8.75 47.75 0.13 7.61 4.55 10.65
5/8/2021 1:30:00 AM 8.71 47.678 0.13 7.61 4.69 10.66
5/8/2021 1:45:00 AM 8.67 47.606 0.13 7.61 4.58 10.67
5/8/2021 2:00:00 AM 8.63 47.534 0.13 7.6 5.11 10.69
5/8/2021 2:15:00 AM 8.58 47.444 0.129 7.6 5.29 10.7
5/8/2021 2:30:00 AM 8.53 47.354 0.129 7.6 6.08 10.72
5/8/2021 2:45:00 AM 8.48 47.264 0.129 7.6 6.59 10.73
5/8/2021 3:00:00 AM 8.43 47.174 0.13 7.59 6.9 10.75
5/8/2021 3:15:00 AM 8.39 47.102 0.13 7.6 8.03 10.76
5/8/2021 3:30:00 AM 8.34 47.012 0.13 7.6 8.96 10.78
5/8/2021 3:45:00 AM 8.27 46.886 0.129 7.6 9.53 10.8
5/8/2021 4:00:00 AM 8.21 46.778 0.128 7.59 10.3 10.82
5/8/2021 4:15:00 AM 8.14 46.652 0.127 7.58 10.96 10.84
5/8/2021 4:30:00 AM 8.07 46.526 0.126 7.6 11.99 10.88
5/8/2021 4:45:00 AM 7.99 46.382 0.125 7.61 13.7 10.9
5/8/2021 5:00:00 AM 7.89 46.202 0.124 7.59 15.4 10.93
5/8/2021 5:15:00 AM 7.81 46.058 0.124 7.58 17.09 10.96
5/8/2021 5:30:00 AM 7.71 45.878 0.123 7.59 19.3 11.01
5/8/2021 5:45:00 AM 7.63 45.734 0.121 7.6 18.95 11.04
5/8/2021 6:00:00 AM 7.58 45.644 0.12 7.6 14.72 11.08
5/8/2021 6:15:00 AM 7.53 45.554 0.118 7.62 24.03 11.13
5/8/2021 6:30:00 AM 7.49 45.482 0.117 7.63 24.32 11.16
5/8/2021 6:45:00 AM 7.47 45.446 0.116 7.63 24.85 11.19
5/8/2021 7:00:00 AM 7.46 45.428 0.116 7.64 22.49 11.22
5/8/2021 7:15:00 AM 7.47 45.446 0.115 7.65 22.58 11.25
5/8/2021 7:30:00 AM 7.48 45.464 0.114 7.67 20.79 11.27
5/8/2021 7:45:00 AM 7.49 45.482 0.114 7.69 18.84 11.28
5/8/2021 8:00:00 AM 7.53 45.554 0.113 7.7 16.98 11.3
5/8/2021 8:15:00 AM 7.58 45.644 0.113 7.7 14.18 11.32
5/8/2021 8:30:00 AM 7.63 45.734 0.113 7.72 16.06 11.32
5/8/2021 8:45:00 AM 7.68 45.824 0.112 7.73 15.16 11.31
5/8/2021 9:00:00 AM 7.74 45.932 0.112 7.74 14.65 11.3
5/8/2021 9:15:00 AM 7.8 46.04 0.111 7.76 14.08 11.31
5/8/2021 9:30:00 AM 7.84 46.112 0.111 7.77 14.05 11.3
5/8/2021 9:45:00 AM 7.9 46.22 0.111 7.78 13.07 11.28
5/8/2021 10:00:00 AM 7.97 46.346 0.11 7.76 12.32 11.26
5/8/2021 10:15:00 AM 8.01 46.418 0.11 7.71 12.09 11.24
5/8/2021 10:30:00 AM 8.05 46.49 0.11 7.71 11.39 11.23
5/8/2021 10:45:00 AM 8.13 46.634 0.11 7.71 10.73 11.24
5/8/2021 11:00:00 AM 8.18 46.724 0.11 7.72 11.2 11.24
5/8/2021 11:15:00 AM 8.22 46.796 0.11 7.73 10.34 11.2
5/8/2021 11:30:00 AM 8.29 46.922 0.11 7.72 10.11 11.19
5/8/2021 11:45:00 AM 8.33 46.994 0.11 7.73 10 11.19
5/8/2021 12:00:00 PM 8.34 47.012 0.111 7.73 9.39 11.17
5/8/2021 12:15:00 PM 8.39 47.102 0.111 7.76 9.61 11.17
5/8/2021 12:30:00 PM 8.43 47.174 0.111 7.78 9.22 11.16
5/8/2021 12:45:00 PM 8.47 47.246 0.111 7.79 8.69 11.15
5/8/2021 1:00:00 PM 8.52 47.336 0.111 7.75 8.85 11.14
5/8/2021 1:15:00 PM 8.57 47.426 0.111 7.77 8.42 11.14
5/8/2021 1:30:00 PM 8.64 47.552 0.112 7.78 8.58 11.15
5/8/2021 1:45:00 PM 8.7 47.66 0.112 7.78 7.9 11.14
5/8/2021 2:00:00 PM 8.7 47.66 0.112 7.77 7.59 11.11
5/8/2021 2:15:00 PM 8.77 47.786 0.113 7.78 7.58 11.12
5/8/2021 2:30:00 PM 8.81 47.858 0.113 7.78 7.61 11.1
5/8/2021 2:45:00 PM 8.85 47.93 0.113 7.79 7.17 11.1
5/8/2021 3:00:00 PM 8.88 47.984 0.113 7.79 6.87 11.1
5/8/2021 3:15:00 PM 8.91 48.038 0.114 7.79 6.85 11.07
5/8/2021 3:30:00 PM 8.98 48.164 0.114 7.83 6.67 11.07
5/8/2021 3:45:00 PM 8.99 48.182 0.114 7.84 6.93 11.02
5/8/2021 4:00:00 PM 9.01 48.218 0.115 7.82 6.5 11
5/8/2021 4:15:00 PM 9.03 48.254 0.115 7.84 6.44 10.98
5/8/2021 4:30:00 PM 9.05 48.29 0.115 7.83 6.35 10.99
5/8/2021 4:45:00 PM 9 48.2 0.116 7.83 6.29 10.98
5/8/2021 5:00:00 PM 8.97 48.146 0.116 7.81 6.02 10.94
5/8/2021 5:15:00 PM 8.95 48.11 0.116 7.81 6.12 10.96
5/8/2021 5:30:00 PM 8.91 48.038 0.117 7.82 5.82 10.95
5/8/2021 5:45:00 PM 8.86 47.948 0.117 7.8 5.57 10.94
5/8/2021 6:00:00 PM 8.82 47.876 0.117 7.78 5.96 10.93
5/8/2021 6:15:00 PM 8.77 47.786 0.118 7.76 5.58 10.92
5/8/2021 6:30:00 PM 8.74 47.732 0.118 7.75 5.88 10.92
5/8/2021 6:45:00 PM 8.71 47.678 0.118 7.73 5.4 10.91
5/8/2021 7:00:00 PM 8.67 47.606 0.118 7.71 5.5 10.88
5/8/2021 7:15:00 PM 8.64 47.552 0.119 7.7 5.65 10.86
5/8/2021 7:30:00 PM 8.61 47.498 0.119 7.67 5.48 10.83
5/8/2021 7:45:00 PM 8.58 47.444 0.119 7.66 5.68 10.82
5/8/2021 8:00:00 PM 8.54 47.372 0.12 7.65 5.65 10.82
5/8/2021 8:15:00 PM 8.5 47.3 0.12 7.65 5.56 10.82
5/8/2021 8:30:00 PM 8.44 47.192 0.12 7.64 5.49 10.83
5/8/2021 8:45:00 PM 8.4 47.12 0.12 7.63 5.48 10.84
5/8/2021 9:00:00 PM 8.36 47.048 0.121 7.62 5.43 10.84
5/8/2021 9:15:00 PM 8.31 46.958 0.121 7.62 5.55 10.86
5/8/2021 9:30:00 PM 8.26 46.868 0.121 7.62 5.2 10.87
5/8/2021 9:45:00 PM 8.21 46.778 0.121 7.62 5.32 10.88
5/8/2021 10:00:00 PM 8.18 46.724 0.122 7.62 5.2 10.89
5/8/2021 10:15:00 PM 8.14 46.652 0.122 7.61 4.88 10.9
5/8/2021 10:30:00 PM 8.11 46.598 0.122 7.61 5.13 10.91
5/8/2021 10:45:00 PM 8.09 46.562 0.122 7.61 5.1 10.92
5/8/2021 11:00:00 PM 8.06 46.508 0.122 7.61 5.04 10.93
5/8/2021 11:15:00 PM 8.03 46.454 0.123 7.6 5.05 10.94
5/8/2021 11:30:00 PM 8 46.4 0.123 7.61 4.78 10.95
5/8/2021 11:45:00 PM 7.97 46.346 0.123 7.62 4.8 10.95
5/9/2021 12:00:00 AM 7.93 46.274 0.123 7.62 4.84 10.96
5/9/2021 12:15:00 AM 7.88 46.184 0.123 7.61 4.89 10.97
5/9/2021 12:30:00 AM 7.83 46.094 0.124 7.61 4.8 10.98
5/9/2021 12:45:00 AM 7.78 46.004 0.124 7.61 4.68 11
5/9/2021 1:00:00 AM 7.71 45.878 0.124 7.6 4.64 11.02
5/9/2021 1:15:00 AM 7.64 45.752 0.124 7.59 4.81 11.03
5/9/2021 1:30:00 AM 7.58 45.644 0.124 7.59 4.82 11.06
5/9/2021 1:45:00 AM 7.51 45.518 0.124 7.59 4.6 11.07
5/9/2021 2:00:00 AM 7.45 45.41 0.125 7.59 4.7 11.09
5/9/2021 3:15:00 AM 7.38 45.284 0.125 7.58 4.62 11.11
5/9/2021 3:30:00 AM 7.32 45.176 0.125 7.57 4.57 11.13
5/9/2021 3:45:00 AM 7.26 45.068 0.125 7.58 4.5 11.14
5/9/2021 4:00:00 AM 7.2 44.96 0.125 7.57 4.63 11.16
5/9/2021 4:15:00 AM 7.13 44.834 0.125 7.57 4.36 11.18
5/9/2021 4:30:00 AM 7.07 44.726 0.125 7.57 4.37 11.2
5/9/2021 4:45:00 AM 7.02 44.636 0.126 7.56 4.42 11.22
5/9/2021 5:00:00 AM 6.96 44.528 0.126 7.57 4.54 11.23
5/9/2021 5:15:00 AM 6.9 44.42 0.126 7.57 4.65 11.25
5/9/2021 5:30:00 AM 6.85 44.33 0.126 7.58 4.47 11.26
5/9/2021 5:45:00 AM 6.79 44.222 0.126 7.58 4.44 11.29
5/9/2021 6:00:00 AM 6.74 44.132 0.126 7.57 4.41 11.31
5/9/2021 6:15:00 AM 6.69 44.042 0.126 7.58 4.33 11.35
5/9/2021 6:30:00 AM 6.65 43.97 0.127 7.59 4.22 11.39
5/9/2021 6:45:00 AM 6.62 43.916 0.127 7.6 4.15 11.44
5/9/2021 7:00:00 AM 6.6 43.88 0.126 7.6 4.1 11.49
5/9/2021 7:15:00 AM 6.6 43.88 0.127 7.62 4.05 11.54
5/9/2021 7:30:00 AM 6.62 43.916 0.127 7.63 3.91 11.58
5/9/2021 7:45:00 AM 6.67 44.006 0.127 7.66 3.96 11.62
5/9/2021 8:00:00 AM 6.73 44.114 0.127 7.69 3.81 11.65
5/9/2021 8:15:00 AM 6.81 44.258 0.127 7.71 3.79 11.66
5/9/2021 8:30:00 AM 6.92 44.456 0.127 7.74 3.62 11.67
5/9/2021 8:45:00 AM 7.06 44.708 0.127 7.75 3.85 11.67
5/9/2021 9:00:00 AM 7.23 45.014 0.127 7.78 3.74 11.66
5/9/2021 9:15:00 AM 7.4 45.32 0.127 7.8 3.65 11.64
5/9/2021 9:30:00 AM 7.58 45.644 0.127 7.83 3.75 11.61
5/9/2021 9:45:00 AM 7.8 46.04 0.127 7.85 3.74 11.57
5/9/2021 10:00:00 AM 8.02 46.436 0.127 7.87 3.68 11.53
5/9/2021 10:15:00 AM 8.24 46.832 0.127 7.89 3.61 11.49
5/9/2021 10:30:00 AM 8.47 47.246 0.127 7.91 3.59 11.44
5/9/2021 10:45:00 AM 8.7 47.66 0.127 7.93 3.64 11.4
5/9/2021 11:00:00 AM 8.94 48.092 0.127 7.96 3.53 11.35
5/9/2021 11:15:00 AM 9.15 48.47 0.127 7.99 3.58 11.29
5/9/2021 11:30:00 AM 9.27 48.686 0.127 7.99 3.53 11.24
5/9/2021 11:45:00 AM 9.38 48.884 0.127 8 3.56 11.2
5/9/2021 12:00:00 PM 9.51 49.118 0.128 8.01 3.62 11.17
5/9/2021 12:15:00 PM 9.62 49.316 0.127 8.03 3.6 11.15
5/9/2021 12:30:00 PM 9.64 49.352 0.128 8.03 3.7 11.12
5/9/2021 12:45:00 PM 9.66 49.388 0.128 8.02 3.63 11.08
5/9/2021 1:00:00 PM 9.75 49.55 0.128 8.01 3.58 11.07
5/9/2021 1:15:00 PM 9.79 49.622 0.128 8.02 3.64 11.05
5/9/2021 1:30:00 PM 9.82 49.676 0.128 8.02 3.55 11.02
5/9/2021 1:45:00 PM 9.89 49.802 0.128 8.02 3.79 11.01
5/9/2021 2:00:00 PM 9.96 49.928 0.128 8.03 3.72 11
5/9/2021 2:15:00 PM 10.01 50.018 0.128 8.03 3.64 10.99
5/9/2021 2:30:00 PM 10.04 50.072 0.128 8.03 3.71 10.97
5/9/2021 2:45:00 PM 10.04 50.072 0.128 8.02 3.55 10.94
5/9/2021 3:00:00 PM 10.07 50.126 0.128 8.03 3.67 10.93
5/9/2021 3:15:00 PM 10.07 50.126 0.128 8.02 3.86 10.93
5/9/2021 3:30:00 PM 10.03 50.054 0.128 8.01 3.73 10.88
5/9/2021 3:45:00 PM 10 50 0.128 7.99 3.85 10.85
5/9/2021 4:00:00 PM 9.96 49.928 0.128 7.97 4.15 10.83
5/9/2021 4:15:00 PM 9.91 49.838 0.128 7.96 3.98 10.81
5/9/2021 4:30:00 PM 9.87 49.766 0.128 7.95 3.98 10.81
5/9/2021 4:45:00 PM 9.82 49.676 0.128 7.94 3.75 10.8
5/9/2021 5:00:00 PM 9.77 49.586 0.128 7.9 3.73 10.76
5/9/2021 5:15:00 PM 9.72 49.496 0.129 7.89 3.83 10.76
5/9/2021 5:30:00 PM 9.66 49.388 0.129 7.88 3.75 10.75
5/9/2021 5:45:00 PM 9.6 49.28 0.129 7.86 3.95 10.74
5/9/2021 6:00:00 PM 9.53 49.154 0.129 7.85 3.75 10.74
5/9/2021 6:15:00 PM 9.47 49.046 0.129 7.84 3.78 10.75
5/9/2021 6:30:00 PM 9.41 48.938 0.129 7.82 3.75 10.73
5/9/2021 6:45:00 PM 9.34 48.812 0.129 7.8 3.78 10.71
5/9/2021 7:00:00 PM 9.27 48.686 0.129 7.78 3.92 10.7
5/9/2021 7:15:00 PM 9.21 48.578 0.129 7.76 3.87 10.7
5/9/2021 7:30:00 PM 9.14 48.452 0.129 7.75 4.24 10.7
5/9/2021 7:45:00 PM 9.07 48.326 0.129 7.74 4.83 10.69
5/9/2021 8:00:00 PM 9 48.2 0.129 7.73 4.58 10.69
5/9/2021 8:15:00 PM 8.93 48.074 0.129 7.71 4.56 10.68
5/9/2021 8:30:00 PM 8.87 47.966 0.128 7.7 4.68 10.69
5/9/2021 8:45:00 PM 8.8 47.84 0.128 7.68 4.84 10.7
5/9/2021 9:00:00 PM 8.74 47.732 0.128 7.68 4.98 10.71
5/9/2021 9:15:00 PM 8.68 47.624 0.127 7.67 5.06 10.72
5/9/2021 9:30:00 PM 8.62 47.516 0.127 7.68 5.32 10.73
5/9/2021 9:45:00 PM 8.57 47.426 0.126 7.67 5.55 10.75
5/9/2021 10:00:00 PM 8.52 47.336 0.126 7.66 5.85 10.76
5/9/2021 10:15:00 PM 8.47 47.246 0.125 7.66 6.08 10.77
5/9/2021 10:30:00 PM 8.42 47.156 0.125 7.65 6.43 10.79
5/9/2021 10:45:00 PM 8.37 47.066 0.124 7.64 6.72 10.8
5/9/2021 11:00:00 PM 8.33 46.994 0.124 7.64 7.29 10.81
5/9/2021 11:15:00 PM 8.28 46.904 0.123 7.64 7.71 10.83
5/9/2021 11:30:00 PM 8.24 46.832 0.123 7.65 8.54 10.84
5/9/2021 11:45:00 PM 8.2 46.76 0.122 7.66 8.98 10.85
5/10/2021 12:00:00 AM 8.16 46.688 0.121 7.66 9.74 10.87
5/10/2021 12:15:00 AM 8.12 46.616 0.12 7.67 10.89 10.88
5/10/2021 12:30:00 AM 8.09 46.562 0.12 7.66 11.73 10.89
5/10/2021 12:45:00 AM 8.05 46.49 0.118 7.66 13.06 10.91
5/10/2021 1:00:00 AM 8.02 46.436 0.118 7.67 14.18 10.92
5/10/2021 1:15:00 AM 7.99 46.382 0.117 7.62 15.31 10.94
5/10/2021 1:30:00 AM 7.96 46.328 0.116 7.59 17.28 10.94
5/10/2021 1:45:00 AM 7.94 46.292 0.115 7.58 18.68 10.95
5/10/2021 2:00:00 AM 7.91 46.238 0.114 7.57 21.24 10.96
5/10/2021 2:15:00 AM 7.89 46.202 0.113 7.6 25.34 10.96
5/10/2021 2:30:00 AM 7.87 46.166 0.112 7.57 24.53 10.98
5/10/2021 2:45:00 AM 7.85 46.13 0.111 7.57 28.94 10.98
5/10/2021 3:00:00 AM 7.83 46.094 0.11 7.55 30.35 10.99
5/10/2021 3:15:00 AM 7.81 46.058 0.109 7.57 25.96 10.99
5/10/2021 3:30:00 AM 7.8 46.04 0.108 7.56 32.74 10.99
5/10/2021 3:45:00 AM 7.78 46.004 0.108 7.56 28.52 11
5/10/2021 4:00:00 AM 7.76 45.968 0.107 7.55 22.2 11.01
5/10/2021 4:15:00 AM 7.75 45.95 0.106 7.56 20.15 11.01
5/10/2021 4:30:00 AM 7.73 45.914 0.106 7.55 19.14 11.01
5/10/2021 4:45:00 AM 7.72 45.896 0.106 7.55 20.19 11.02
5/10/2021 5:00:00 AM 7.71 45.878 0.106 7.54 20.06 11.01
5/10/2021 5:15:00 AM 7.69 45.842 0.105 7.54 18.12 11.02
5/10/2021 5:30:00 AM 7.67 45.806 0.105 7.56 16.3 11.03
5/10/2021 5:45:00 AM 7.66 45.788 0.106 7.55 15.19 11.03
5/10/2021 6:00:00 AM 7.65 45.77 0.106 7.55 15.95 11.04
5/10/2021 6:15:00 AM 7.64 45.752 0.106 7.55 14.79 11.05
5/10/2021 6:30:00 AM 7.63 45.734 0.106 7.54 14.07 11.06
5/10/2021 6:45:00 AM 7.62 45.716 0.107 7.55 13.4 11.07
5/10/2021 7:00:00 AM 7.61 45.698 0.107 7.55 12.57 11.08
5/10/2021 7:15:00 AM 7.61 45.698 0.107 7.56 12.16 11.1
5/10/2021 7:30:00 AM 7.6 45.68 0.108 7.56 11.79 11.11
5/10/2021 7:45:00 AM 7.61 45.698 0.108 7.57 10.97 11.13
5/10/2021 8:00:00 AM 7.62 45.716 0.109 7.58 10.25 11.16
5/10/2021 8:15:00 AM 7.63 45.734 0.109 7.59 9.86 11.18
5/10/2021 8:30:00 AM 7.63 45.734 0.109 7.6 9.81 11.19
5/10/2021 8:45:00 AM 7.65 45.77 0.11 7.61 9.66 11.2
5/10/2021 9:00:00 AM 7.66 45.788 0.11 7.62 9.28 11.2
5/10/2021 9:15:00 AM 7.67 45.806 0.111 7.61 8.53 11.21
5/10/2021 9:30:00 AM 7.7 45.86 0.111 7.63 8.54 11.23
5/10/2021 9:45:00 AM 7.73 45.914 0.111 7.64 8.01 11.23
5/10/2021 10:00:00 AM 7.75 45.95 0.112 7.65 8.02 11.24
5/10/2021 10:15:00 AM 7.78 46.004 0.112 7.66 7.56 11.23
5/10/2021 10:30:00 AM 7.81 46.058 0.112 7.67 7.42 11.24
5/10/2021 10:45:00 AM 7.84 46.112 0.113 7.67 7.11 11.25
5/10/2021 11:00:00 AM 7.88 46.184 0.113 7.69 7.16 11.27
5/10/2021 11:15:00 AM 7.95 46.31 0.113 7.7 6.61 11.3
5/10/2021 11:30:00 AM 8.03 46.454 0.113 7.73 6.43 11.33
5/10/2021 11:45:00 AM 8.12 46.616 0.114 7.74 6.22 11.32
5/10/2021 12:00:00 PM 8.21 46.778 0.114 7.76 6.67 11.31
5/10/2021 12:15:00 PM 8.33 46.994 0.114 7.76 7.11 11.27
5/10/2021 12:30:00 PM 8.5 47.3 0.114 7.79 6.6 11.28
5/10/2021 12:45:00 PM 8.52 47.336 0.115 7.78 7.92 11.25
5/10/2021 1:00:00 PM 8.55 47.39 0.115 7.77 7.97 11.2
5/10/2021 1:15:00 PM 8.58 47.444 0.115 7.77 8.7 11.17
5/10/2021 1:30:00 PM 8.59 47.462 0.116 7.78 8.42 11.15
5/10/2021 1:45:00 PM 8.65 47.57 0.116 7.79 7.7 11.17
5/10/2021 2:00:00 PM 8.81 47.858 0.116 7.81 11.52 11.17
5/10/2021 2:15:00 PM 8.93 48.074 0.117 7.82 13.3 11.16
5/10/2021 2:30:00 PM 9.12 48.416 0.117 7.84 15.27 11.13
5/10/2021 2:45:00 PM 9.34 48.812 0.118 7.87 16.44 11.1
5/10/2021 3:00:00 PM 9.71 49.478 0.119 7.9 18.64 11.05
5/10/2021 3:15:00 PM 9.92 49.856 0.118 7.93 14.55 10.99
5/10/2021 3:30:00 PM 9.97 49.946 0.118 7.94 9.85 10.93
5/10/2021 3:45:00 PM 9.95 49.91 0.118 7.93 10.06 10.88
5/10/2021 4:00:00 PM 9.9 49.82 0.118 7.91 11.43 10.85
5/10/2021 4:15:00 PM 9.87 49.766 0.118 7.9 13.24 10.84
5/10/2021 4:30:00 PM 9.83 49.694 0.119 7.88 33.34 10.78
5/10/2021 4:45:00 PM 9.77 49.586 0.12 7.85 28.56 10.75
5/10/2021 5:00:00 PM 9.75 49.55 0.119 7.86 22.42 10.8
5/10/2021 5:15:00 PM 9.74 49.532 0.12 7.87 14.89 10.84
5/10/2021 5:30:00 PM 9.76 49.568 0.119 7.9 12.56 10.86
5/10/2021 5:45:00 PM 9.77 49.586 0.12 7.9 13.93 10.84
5/10/2021 6:00:00 PM 9.81 49.658 0.121 7.9 17.56 10.8
5/10/2021 6:15:00 PM 9.82 49.676 0.121 7.91 16.2 10.79
5/10/2021 6:30:00 PM 9.79 49.622 0.121 7.89 18.62 10.75
5/10/2021 6:45:00 PM 9.74 49.532 0.121 7.89 14.7 10.75
5/10/2021 7:00:00 PM 9.7 49.46 0.12 7.87 10.29 10.76
5/10/2021 7:15:00 PM 9.64 49.352 0.121 7.85 8.22 10.74
5/10/2021 7:30:00 PM 9.58 49.244 0.121 7.83 7.41 10.72
5/10/2021 7:45:00 PM 9.5 49.1 0.121 7.81 7.11 10.7
5/10/2021 8:00:00 PM 9.43 48.974 0.121 7.81 6.96 10.68
5/10/2021 8:15:00 PM 9.35 48.83 0.121 7.79 6.58 10.67
5/10/2021 8:30:00 PM 9.27 48.686 0.121 7.77 6.51 10.66
5/10/2021 8:45:00 PM 9.18 48.524 0.122 7.75 6.66 10.65
5/10/2021 9:00:00 PM 9.09 48.362 0.122 7.74 6.37 10.66
5/10/2021 9:15:00 PM 9 48.2 0.122 7.72 6.09 10.67
5/10/2021 9:30:00 PM 8.91 48.038 0.122 7.68 6.36 10.68
5/10/2021 9:45:00 PM 8.81 47.858 0.123 7.66 6.15 10.71
5/10/2021 10:00:00 PM 8.72 47.696 0.122 7.63 6.18 10.73
5/10/2021 10:15:00 PM 8.62 47.516 0.123 7.6 5.8 10.76
5/10/2021 10:30:00 PM 8.52 47.336 0.123 7.59 5.76 10.78
5/10/2021 10:45:00 PM 8.43 47.174 0.123 7.6 5.65 10.81
5/10/2021 11:00:00 PM 8.34 47.012 0.123 7.58 5.79 10.83
5/10/2021 11:15:00 PM 8.25 46.85 0.124 7.57 5.56 10.85
5/10/2021 11:30:00 PM 8.16 46.688 0.124 7.57 5.41 10.87
5/10/2021 11:45:00 PM 8.07 46.526 0.124 7.56 5.49 10.91
5/11/2021 12:00:00 AM 7.99 46.382 0.124 7.58 5.52 10.92
5/11/2021 12:15:00 AM 7.9 46.22 0.124 7.58 5.49 10.95
5/11/2021 12:30:00 AM 7.82 46.076 0.124 7.58 5.36 10.97
5/11/2021 12:45:00 AM 7.74 45.932 0.124 7.59 5.15 10.99
5/11/2021 1:00:00 AM 7.67 45.806 0.124 7.57 5.23 11.02
5/11/2021 1:15:00 AM 7.61 45.698 0.124 7.56 5.07 11.04
5/11/2021 1:30:00 AM 7.54 45.572 0.124 7.58 5.1 11.06
5/11/2021 1:45:00 AM 7.49 45.482 0.125 7.58 5.18 11.08
5/11/2021 2:00:00 AM 7.44 45.392 0.125 7.58 5.05 11.1
5/11/2021 2:15:00 AM 7.39 45.302 0.125 7.57 4.91 11.12
5/11/2021 2:30:00 AM 7.33 45.194 0.125 7.57 4.73 11.13
5/11/2021 2:45:00 AM 7.28 45.104 0.125 7.57 4.89 11.14
5/11/2021 3:00:00 AM 7.23 45.014 0.125 7.57 4.84 11.16
5/11/2021 3:15:00 AM 7.17 44.906 0.125 7.57 4.78 11.17
5/11/2021 3:30:00 AM 7.11 44.798 0.125 7.58 4.68 11.19
5/11/2021 3:45:00 AM 7.05 44.69 0.126 7.56 4.87 11.21
5/11/2021 4:00:00 AM 6.98 44.564 0.126 7.57 4.76 11.23
5/11/2021 4:15:00 AM 6.92 44.456 0.126 7.57 4.67 11.24
5/11/2021 4:30:00 AM 6.85 44.33 0.126 7.57 4.88 11.26
5/11/2021 4:45:00 AM 6.79 44.222 0.126 7.55 4.75 11.28
5/11/2021 5:00:00 AM 6.72 44.096 0.126 7.55 4.73 11.3
5/11/2021 5:15:00 AM 6.66 43.988 0.126 7.55 4.76 11.32
5/11/2021 5:30:00 AM 6.6 43.88 0.126 7.55 4.68 11.34
5/11/2021 5:45:00 AM 6.54 43.772 0.126 7.56 4.61 11.36
5/11/2021 6:00:00 AM 6.49 43.682 0.126 7.55 4.56 11.39
5/11/2021 6:15:00 AM 6.43 43.574 0.126 7.56 4.48 11.43
5/11/2021 6:30:00 AM 6.39 43.502 0.127 7.57 4.56 11.47
5/11/2021 6:45:00 AM 6.35 43.43 0.127 7.58 4.46 11.51
5/11/2021 7:00:00 AM 6.33 43.394 0.127 7.59 4.35 11.57
5/11/2021 7:15:00 AM 6.32 43.376 0.127 7.61 4.06 11.61
5/11/2021 7:30:00 AM 6.34 43.412 0.127 7.63 4.11 11.65
5/11/2021 7:45:00 AM 6.38 43.484 0.127 7.66 3.95 11.68
5/11/2021 8:00:00 AM 6.44 43.592 0.127 7.69 4.04 11.7
5/11/2021 8:15:00 AM 6.53 43.754 0.127 7.71 4.04 11.72
5/11/2021 8:30:00 AM 6.63 43.934 0.127 7.74 4.2 11.73
5/11/2021 8:45:00 AM 6.75 44.15 0.127 7.77 4.17 11.73
5/11/2021 9:00:00 AM 6.9 44.42 0.127 7.78 4.31 11.72
5/11/2021 9:15:00 AM 7.06 44.708 0.127 7.8 3.96 11.7
5/11/2021 9:30:00 AM 7.25 45.05 0.127 7.82 4.14 11.68
5/11/2021 9:45:00 AM 7.43 45.374 0.127 7.83 3.89 11.64
5/11/2021 10:00:00 AM 7.63 45.734 0.127 7.86 3.92 11.6
5/11/2021 10:15:00 AM 7.78 46.004 0.127 7.88 4.07 11.55
5/11/2021 10:30:00 AM 8.04 46.472 0.127 7.89 4.03 11.52
5/11/2021 10:45:00 AM 8.28 46.904 0.127 7.91 4.29 11.48
5/11/2021 11:00:00 AM 8.49 47.282 0.127 7.94 5.28 11.43
5/11/2021 11:15:00 AM 8.71 47.678 0.127 7.96 7.34 11.38
5/11/2021 11:30:00 AM 8.86 47.948 0.128 7.98 11.88 11.31
5/11/2021 11:45:00 AM 9.12 48.416 0.128 7.99 12.82 11.26
5/11/2021 12:00:00 PM 9.24 48.632 0.128 7.99 13.88 11.21
5/11/2021 12:15:00 PM 9.39 48.902 0.128 8 12.75 11.18
5/11/2021 12:30:00 PM 9.54 49.172 0.128 8.02 10.21 11.17
5/11/2021 12:45:00 PM 9.73 49.514 0.128 8.05 10.26 11.14
5/11/2021 1:00:00 PM 9.9 49.82 0.129 8.05 11.02 11.11
5/11/2021 1:15:00 PM 10.06 50.108 0.129 8.05 17.67 11.03
5/11/2021 1:30:00 PM 9.98 49.964 0.13 8.03 20.61 10.92
5/11/2021 1:45:00 PM 10.11 50.198 0.13 8.04 19.6 10.94
5/11/2021 2:00:00 PM 10.15 50.27 0.13 8.05 14.62 10.96
5/11/2021 2:15:00 PM 10.25 50.45 0.13 8.06 17.55 10.92
5/11/2021 2:30:00 PM 10.41 50.738 0.13 8.07 14.92 10.89
5/11/2021 2:45:00 PM 10.53 50.954 0.13 8.1 12.76 10.87
5/11/2021 3:00:00 PM 10.65 51.17 0.13 8.1 11.75 10.84
5/11/2021 3:15:00 PM 10.67 51.206 0.13 8.09 11.42 10.83
5/11/2021 3:30:00 PM 10.65 51.17 0.129 8.09 13.08 10.81
5/11/2021 3:45:00 PM 10.73 51.314 0.129 8.09 12.43 10.8
5/11/2021 4:00:00 PM 10.87 51.566 0.129 8.09 10.65 10.81
5/11/2021 4:15:00 PM 10.9 51.62 0.13 8.08 12.66 10.79
5/11/2021 4:30:00 PM 10.96 51.728 0.131 8.09 11.72 10.78
5/11/2021 4:45:00 PM 10.94 51.692 0.131 8.08 10.57 10.75
5/11/2021 5:00:00 PM 10.87 51.566 0.131 8.09 11.46 10.71
5/11/2021 5:15:00 PM 10.83 51.494 0.131 8.07 17.21 10.68
5/11/2021 5:30:00 PM 10.74 51.332 0.131 8.05 19.01 10.68
5/11/2021 5:45:00 PM 10.67 51.206 0.131 8.05 19.26 10.69
5/11/2021 6:00:00 PM 10.56 51.008 0.131 8.01 22.09 10.66
5/11/2021 6:15:00 PM 10.46 50.828 0.131 7.99 24.04 10.65
5/11/2021 6:30:00 PM 10.28 50.504 0.13 7.97 22.62 10.61
5/11/2021 6:45:00 PM 10.13 50.234 0.131 7.94 20.28 10.6
5/11/2021 7:00:00 PM 10.01 50.018 0.131 7.92 14.54 10.65
5/11/2021 7:15:00 PM 9.87 49.766 0.131 7.9 12.46 10.67
5/11/2021 7:30:00 PM 9.74 49.532 0.131 7.89 10.68 10.68
5/11/2021 7:45:00 PM 9.6 49.28 0.131 7.83 9.62 10.67
5/11/2021 8:00:00 PM 9.48 49.064 0.131 7.79 9.03 10.66
5/11/2021 8:15:00 PM 9.35 48.83 0.131 7.77 8.01 10.66
5/11/2021 8:30:00 PM 9.23 48.614 0.131 7.75 7 10.66
5/11/2021 8:45:00 PM 9.12 48.416 0.131 7.72 6.69 10.66
5/11/2021 9:00:00 PM 9.01 48.218 0.131 7.72 6.34 10.67
5/11/2021 9:15:00 PM 8.93 48.074 0.131 7.71 6.2 10.69
5/11/2021 9:30:00 PM 8.85 47.93 0.131 7.7 6.29 10.71
5/11/2021 9:45:00 PM 8.77 47.786 0.131 7.71 6.15 10.73
5/11/2021 10:00:00 PM 8.69 47.642 0.131 7.71 5.69 10.75
5/11/2021 10:15:00 PM 8.63 47.534 0.131 7.71 5.66 10.77
5/11/2021 10:30:00 PM 8.56 47.408 0.131 7.7 5.63 10.79
5/11/2021 10:45:00 PM 8.49 47.282 0.131 7.7 5.48 10.81
5/11/2021 11:00:00 PM 8.41 47.138 0.131 7.7 5.46 10.83
5/11/2021 11:15:00 PM 8.34 47.012 0.131 7.7 5.35 10.85
5/11/2021 11:30:00 PM 8.25 46.85 0.131 7.7 5.22 10.87
5/11/2021 11:45:00 PM 8.17 46.706 0.131 7.69 5.33 10.89
5/12/2021 12:00:00 AM 8.1 46.58 0.131 7.71 5.33 10.91
5/12/2021 12:15:00 AM 8.03 46.454 0.131 7.71 5.12 10.93
5/12/2021 12:30:00 AM 7.96 46.328 0.132 7.7 5.19 10.95
5/12/2021 12:45:00 AM 7.88 46.184 0.132 7.69 5.07 10.98
5/12/2021 1:00:00 AM 7.81 46.058 0.132 7.68 5.02 10.99
5/12/2021 1:15:00 AM 7.74 45.932 0.132 7.68 0 11.02
5/12/2021 1:30:00 AM 7.68 45.824 0.132 7.68 0 11.04
5/12/2021 1:45:00 AM 7.61 45.698 0.132 7.68 0 11.06
5/12/2021 2:00:00 AM 7.56 45.608 0.132 7.67 0 11.07
5/12/2021 2:15:00 AM 7.52 45.536 0.132 7.68 0 11.09
5/12/2021 2:30:00 AM 7.47 45.446 0.132 7.67 0 11.11
5/12/2021 2:45:00 AM 7.44 45.392 0.132 7.66 0 11.12
5/12/2021 3:00:00 AM 7.4 45.32 0.132 7.65 0 11.13
5/12/2021 3:15:00 AM 7.36 45.248 0.132 7.65 0 11.14
5/12/2021 3:30:00 AM 7.33 45.194 0.132 7.66 0 11.15
5/12/2021 3:45:00 AM 7.3 45.14 0.132 7.67 0 11.16
5/12/2021 4:00:00 AM 7.28 45.104 0.132 7.66 0 11.17
5/12/2021 4:15:00 AM 7.26 45.068 0.132 7.66 0 11.18
5/12/2021 4:30:00 AM 7.24 45.032 0.132 7.66 0 11.19
5/12/2021 4:45:00 AM 7.21 44.978 0.132 7.67 0 11.2
5/12/2021 5:00:00 AM 7.19 44.942 0.132 7.68 0 11.21
5/12/2021 5:15:00 AM 7.16 44.888 0.132 7.67 0 11.22
5/12/2021 5:30:00 AM 7.14 44.852 0.133 7.68 0 11.23
5/12/2021 5:45:00 AM 7.12 44.816 0.133 7.67 0 11.23
5/12/2021 6:00:00 AM 7.11 44.798 0.133 7.68 0 11.25
5/12/2021 6:15:00 AM 7.09 44.762 0.133 7.68 0 11.27
5/12/2021 6:30:00 AM 7.08 44.744 0.133 7.69 0 11.29
5/12/2021 6:45:00 AM 7.08 44.744 0.133 7.71 0 11.32
5/12/2021 7:00:00 AM 7.08 44.744 0.133 7.74 0 11.36
5/12/2021 7:15:00 AM 7.09 44.762 0.133 7.74 0 11.4
5/12/2021 7:30:00 AM 7.1 44.78 0.133 7.75 0 11.45
5/12/2021 7:45:00 AM 7.12 44.816 0.133 7.77 0 11.49
5/12/2021 8:00:00 AM 7.15 44.87 0.133 7.78 0 11.53
5/12/2021 8:15:00 AM 7.18 44.924 0.133 7.81 0 11.57
5/12/2021 8:30:00 AM 7.22 44.996 0.133 7.81 0 11.58
5/12/2021 8:45:00 AM 7.28 45.104 0.133 7.83 0 11.6
5/12/2021 9:00:00 AM 7.35 45.23 0.132 7.85 0 11.62
5/12/2021 9:15:00 AM 7.43 45.374 0.132 7.86 0 11.64
5/12/2021 9:30:00 AM 7.56 45.608 0.132 7.89 0 11.65
5/12/2021 9:45:00 AM 7.64 45.752 0.132 7.91 0 11.64
5/12/2021 10:00:00 AM 7.82 46.076 0.132 7.93 0 11.64
5/12/2021 10:15:00 AM 8.08 46.544 0.132 7.96 0 11.6
5/12/2021 10:30:00 AM 8.24 46.832 0.132 7.99 0 11.57
5/12/2021 10:45:00 AM 8.42 47.156 0.132 8 0 11.54
5/12/2021 11:00:00 AM 8.71 47.678 0.132 8 0 11.5
5/12/2021 11:15:00 AM 9.05 48.29 0.132 8.04 0 11.43
5/12/2021 11:30:00 AM 9.38 48.884 0.131 8.07 0 11.36
5/12/2021 11:45:00 AM 9.69 49.442 0.131 8.1 0 11.28
5/12/2021 12:00:00 PM 9.99 49.982 0.131 8.13 0 11.21
5/12/2021 12:15:00 PM 10.34 50.612 0.132 8.16 0 11.15
5/12/2021 12:30:00 PM 10.58 51.044 0.133 8.19 0 11.06
5/12/2021 12:45:00 PM 11.01 51.818 0.134 8.22 0 10.98
5/12/2021 1:00:00 PM 11.38 52.484 0.136 8.23 0 10.92
5/12/2021 1:15:00 PM 11.63 52.934 0.137 8.26 0 10.84
5/12/2021 1:30:00 PM 11.83 53.294 0.137 8.26 0 10.77
5/12/2021 1:45:00 PM 11.97 53.546 0.137 8.28 0 10.72
5/12/2021 2:00:00 PM 11.84 53.312 0.137 8.25 0 10.68
5/12/2021 2:15:00 PM 11.7 53.06 0.136 8.24 0 10.66
5/12/2021 2:30:00 PM 11.68 53.024 0.136 8.23 0 10.65
5/12/2021 2:45:00 PM 12 53.6 0.136 8.24 0 10.64
5/12/2021 3:00:00 PM 12.23 54.014 0.136 8.28 0 10.64
5/12/2021 3:15:00 PM 12.42 54.356 0.136 8.31 0 10.62
5/12/2021 3:30:00 PM 12.58 54.644 0.135 8.32 0 10.59
5/12/2021 3:45:00 PM 12.72 54.896 0.135 8.32 0 10.53
5/12/2021 4:00:00 PM 12.9 55.22 0.135 8.33 0 10.49
5/12/2021 4:15:00 PM 12.95 55.31 0.135 8.35 0 10.42
5/12/2021 4:30:00 PM 12.83 55.094 0.135 8.32 0 10.36
5/12/2021 4:45:00 PM 12.89 55.202 0.135 8.31 0 10.4
5/12/2021 5:00:00 PM 12.93 55.274 0.135 8.32 0 10.39
5/12/2021 5:15:00 PM 13.02 55.436 0.135 8.33 0 10.38
5/12/2021 5:30:00 PM 12.99 55.382 0.135 8.33 0 10.37
5/12/2021 5:45:00 PM 12.91 55.238 0.135 8.32 0 10.36
5/12/2021 6:00:00 PM 12.8 55.04 0.135 8.31 0 10.34
5/12/2021 6:15:00 PM 12.67 54.806 0.135 8.28 0 10.31
5/12/2021 6:30:00 PM 12.51 54.518 0.135 8.26 0 10.3
5/12/2021 6:45:00 PM 12.32 54.176 0.135 8.19 0 10.27
5/12/2021 7:00:00 PM 12.11 53.798 0.135 8.13 0 10.25
5/12/2021 7:15:00 PM 11.9 53.42 0.135 8.09 0 10.23
5/12/2021 7:30:00 PM 11.71 53.078 0.135 8.05 0 10.23
5/12/2021 7:45:00 PM 11.53 52.754 0.135 7.98 0 10.22
5/12/2021 8:00:00 PM 11.34 52.412 0.135 7.93 0 10.22
5/12/2021 8:15:00 PM 11.16 52.088 0.136 7.87 0 10.23
5/12/2021 8:30:00 PM 11 51.8 0.136 7.82 0 10.23
5/12/2021 8:45:00 PM 10.83 51.494 0.136 7.79 0 10.24
5/12/2021 9:00:00 PM 10.67 51.206 0.136 7.76 0 10.25
5/12/2021 9:15:00 PM 10.51 50.918 0.136 7.75 0 10.28
5/12/2021 9:30:00 PM 10.36 50.648 0.136 7.74 0 10.31
5/12/2021 9:45:00 PM 10.21 50.378 0.136 7.72 0 10.35
5/12/2021 10:00:00 PM 10.06 50.108 0.136 7.71 0 10.38
5/12/2021 10:15:00 PM 9.92 49.856 0.136 7.7 0 10.42
5/12/2021 10:30:00 PM 9.79 49.622 0.136 7.71 0 10.45
5/12/2021 10:45:00 PM 9.65 49.37 0.136 7.71 0 10.49
5/12/2021 11:00:00 PM 9.52 49.136 0.136 7.71 0 10.52
5/12/2021 11:15:00 PM 9.39 48.902 0.137 7.7 0 10.55
5/12/2021 11:30:00 PM 9.27 48.686 0.137 7.7 0 10.58
5/12/2021 11:45:00 PM 9.15 48.47 0.137 7.7 0 10.62
5/13/2021 12:00:00 AM 9.03 48.254 0.137 7.69 0 10.65
5/13/2021 12:15:00 AM 8.91 48.038 0.137 7.69 0 10.69
5/13/2021 12:30:00 AM 8.8 47.84 0.137 7.68 0 10.72
5/13/2021 12:45:00 AM 8.68 47.624 0.137 7.68 0 10.75
5/13/2021 1:00:00 AM 8.57 47.426 0.137 7.68 0 10.79
5/13/2021 1:15:00 AM 8.46 47.228 0.137 7.68 0 10.81
5/13/2021 1:30:00 AM 8.36 47.048 0.137 7.67 0 10.84
5/13/2021 1:45:00 AM 8.26 46.868 0.137 7.67 0 10.87
5/13/2021 2:00:00 AM 8.16 46.688 0.137 7.67 0 10.9
5/13/2021 2:15:00 AM 8.07 46.526 0.137 7.67 0 10.93
5/13/2021 2:30:00 AM 7.97 46.346 0.138 7.67 0 10.95
5/13/2021 2:45:00 AM 7.88 46.184 0.137 7.67 0 10.97
5/13/2021 3:00:00 AM 7.8 46.04 0.138 7.67 0 11
5/13/2021 3:15:00 AM 7.71 45.878 0.137 7.67 0 11.03
5/13/2021 3:30:00 AM 7.63 45.734 0.137 7.67 0 11.06
5/13/2021 3:45:00 AM 7.55 45.59 0.138 7.68 0 11.08
5/13/2021 4:00:00 AM 7.47 45.446 0.138 7.68 0 11.11
5/13/2021 4:15:00 AM 7.39 45.302 0.138 7.68 0 11.13
5/13/2021 4:30:00 AM 7.32 45.176 0.138 7.68 0 11.15
5/13/2021 4:45:00 AM 7.25 45.05 0.138 7.69 0 11.17
5/13/2021 5:00:00 AM 7.18 44.924 0.138 7.7 0 11.2
5/13/2021 5:15:00 AM 7.11 44.798 0.138 7.7 0 11.22
5/13/2021 5:30:00 AM 7.04 44.672 0.138 7.69 0 11.24
5/13/2021 5:45:00 AM 6.98 44.564 0.139 7.69 0 11.26
5/13/2021 6:00:00 AM 6.92 44.456 0.138 7.69 0 11.3
5/13/2021 6:15:00 AM 6.86 44.348 0.139 7.71 0 11.35
5/13/2021 6:30:00 AM 6.82 44.276 0.139 7.71 0 11.4
5/13/2021 6:45:00 AM 6.78 44.204 0.139 7.73 0 11.46
5/13/2021 7:00:00 AM 6.76 44.168 0.139 7.74 0 11.52
5/13/2021 7:15:00 AM 6.76 44.168 0.139 7.76 0 11.58
5/13/2021 7:30:00 AM 6.78 44.204 0.139 7.78 0 11.63
5/13/2021 7:45:00 AM 6.82 44.276 0.139 7.81 0 11.67
5/13/2021 8:00:00 AM 6.9 44.42 0.139 7.82 0 11.71
5/13/2021 8:15:00 AM 7.01 44.618 0.139 7.85 0 11.73
5/13/2021 8:30:00 AM 7.15 44.87 0.139 7.88 0 11.74
5/13/2021 8:45:00 AM 7.31 45.158 0.138 7.91 0 11.73
5/13/2021 9:00:00 AM 7.5 45.5 0.138 7.94 0 11.72
5/13/2021 9:15:00 AM 7.71 45.878 0.138 7.97 0 11.69
5/13/2021 9:30:00 AM 7.95 46.31 0.138 8 0 11.65
5/13/2021 9:45:00 AM 8.21 46.778 0.138 8.03 0 11.61
5/13/2021 10:00:00 AM 8.48 47.264 0.138 8.05 0 11.57
5/13/2021 10:15:00 AM 8.77 47.786 0.138 8.08 0 11.52
5/13/2021 10:30:00 AM 9.06 48.308 0.137 8.1 0 11.46
5/13/2021 10:45:00 AM 9.36 48.848 0.137 8.13 0 11.4
5/13/2021 11:00:00 AM 9.67 49.406 0.137 8.15 0 11.33
5/13/2021 11:15:00 AM 10.02 50.036 0.138 8.19 0 11.28
5/13/2021 11:30:00 AM 10.32 50.576 0.137 8.22 0 11.2
5/13/2021 11:45:00 AM 10.56 51.008 0.137 8.23 0 11.12
5/13/2021 12:00:00 PM 10.61 51.098 0.137 8.25 0 11.07
5/13/2021 12:15:00 PM 10.83 51.494 0.137 8.27 0 11.05
5/13/2021 12:30:00 PM 11.04 51.872 0.137 8.29 0 11
5/13/2021 12:45:00 PM 11.04 51.872 0.137 8.28 0 10.97
5/13/2021 1:00:00 PM 11.06 51.908 0.137 8.28 0 10.94
5/13/2021 1:15:00 PM 11.12 52.016 0.137 8.27 0 10.9
5/13/2021 1:30:00 PM 11.16 52.088 0.137 8.28 0 10.89
5/13/2021 1:45:00 PM 11.12 52.016 0.137 8.27 0 10.9
5/13/2021 2:00:00 PM 11.26 52.268 0.137 8.27 0 10.88
5/13/2021 2:15:00 PM 11.24 52.232 0.137 8.26 0 10.87
5/13/2021 2:30:00 PM 11.27 52.286 0.137 8.27 0 10.87
5/13/2021 2:45:00 PM 11.32 52.376 0.137 8.27 0 10.87
5/13/2021 3:00:00 PM 11.52 52.736 0.137 8.27 0 10.86
5/13/2021 3:15:00 PM 11.85 53.33 0.138 8.31 0 10.82
5/13/2021 3:30:00 PM 11.97 53.546 0.138 8.33 0 10.75
5/13/2021 3:45:00 PM 12.29 54.122 0.138 8.34 0 10.73
5/13/2021 4:00:00 PM 12.08 53.744 0.138 8.31 0 10.61
5/13/2021 4:15:00 PM 12.02 53.636 0.138 8.27 0 10.58
5/13/2021 4:30:00 PM 12.1 53.78 0.138 8.28 0 10.6
5/13/2021 4:45:00 PM 12.19 53.942 0.138 8.29 0 10.63
5/13/2021 5:00:00 PM 12.27 54.086 0.139 8.29 0 10.63
5/13/2021 5:15:00 PM 12.32 54.176 0.139 8.3 0 10.6
5/13/2021 5:30:00 PM 12.34 54.212 0.139 8.29 0 10.57
5/13/2021 5:45:00 PM 12.35 54.23 0.139 8.29 0 10.54
5/13/2021 6:00:00 PM 12.32 54.176 0.139 8.27 0 10.5
5/13/2021 6:15:00 PM 12.25 54.05 0.139 8.27 0 10.47
5/13/2021 6:30:00 PM 12.13 53.834 0.139 8.24 0 10.44
5/13/2021 6:45:00 PM 12.01 53.618 0.14 8.2 0 10.4
5/13/2021 7:00:00 PM 11.86 53.348 0.14 8.15 0 10.36
5/13/2021 7:15:00 PM 11.7 53.06 0.14 8.1 0 10.31
5/13/2021 7:30:00 PM 11.56 52.808 0.14 8.07 0 10.29
5/13/2021 7:45:00 PM 11.42 52.556 0.14 8.05 0 10.27
5/13/2021 8:00:00 PM 11.28 52.304 0.141 8.02 0 10.26
5/13/2021 8:15:00 PM 11.14 52.052 0.141 7.97 0 10.24
5/13/2021 8:30:00 PM 11.01 51.818 0.141 7.94 0 10.22
5/13/2021 8:45:00 PM 10.86 51.548 0.141 7.88 0 10.22
5/13/2021 9:00:00 PM 10.73 51.314 0.141 7.83 0 10.23
5/13/2021 9:15:00 PM 10.59 51.062 0.141 7.8 0 10.25
5/13/2021 9:30:00 PM 10.45 50.81 0.142 7.8 0 10.28
5/13/2021 9:45:00 PM 10.32 50.576 0.142 7.78 0 10.3
5/13/2021 10:00:00 PM 10.19 50.342 0.142 7.78 0 10.33
5/13/2021 10:15:00 PM 10.07 50.126 0.142 7.76 0 10.36
5/13/2021 10:30:00 PM 9.95 49.91 0.142 7.76 0 10.39
5/13/2021 10:45:00 PM 9.83 49.694 0.142 7.76 0 10.43
5/13/2021 11:00:00 PM 9.71 49.478 0.142 7.75 0 10.46
5/13/2021 11:15:00 PM 9.6 49.28 0.143 7.75 0 10.48
5/13/2021 11:30:00 PM 9.49 49.082 0.143 7.76 0 10.51
5/13/2021 11:45:00 PM 9.38 48.884 0.143 7.75 0 10.55
5/14/2021 12:00:00 AM 9.27 48.686 0.143 7.74 0 10.57
5/14/2021 12:15:00 AM 9.17 48.506 0.143 7.74 0 10.61
5/14/2021 12:30:00 AM 9.06 48.308 0.143 7.73 0 10.64
5/14/2021 12:45:00 AM 8.96 48.128 0.143 7.72 0 10.66
5/14/2021 1:00:00 AM 8.86 47.948 0.143 7.73 0 10.69
5/14/2021 1:15:00 AM 8.76 47.768 0.143 7.73 0 10.72
5/14/2021 1:30:00 AM 8.66 47.588 0.144 7.72 0 10.75
5/14/2021 1:45:00 AM 8.56 47.408 0.144 7.72 0 10.78
5/14/2021 2:00:00 AM 8.46 47.228 0.144 7.72 0 10.8
5/14/2021 2:15:00 AM 8.38 47.084 0.144 7.72 0 10.83
5/14/2021 2:30:00 AM 8.29 46.922 0.144 7.71 0 10.86
5/14/2021 2:45:00 AM 8.2 46.76 0.144 7.71 0 10.87
5/14/2021 3:00:00 AM 8.12 46.616 0.144 7.71 0 10.9
5/14/2021 3:15:00 AM 8.04 46.472 0.144 7.71 0 10.93
5/14/2021 3:30:00 AM 7.96 46.328 0.144 7.7 0 10.94
5/14/2021 3:45:00 AM 7.88 46.184 0.144 7.7 0 10.98
5/14/2021 4:00:00 AM 7.8 46.04 0.146 7.71 0 10.99
5/14/2021 4:15:00 AM 7.73 45.914 0.145 7.7 0 11.01
5/14/2021 4:30:00 AM 7.66 45.788 0.146 7.71 0 11.03
5/14/2021 4:45:00 AM 7.6 45.68 0.146 7.7 0 11.06
5/14/2021 5:00:00 AM 7.53 45.554 0.146 7.71 0 11.08
5/14/2021 5:15:00 AM 7.47 45.446 0.147 7.7 0 11.1
5/14/2021 5:30:00 AM 7.4 45.32 0.148 7.7 0 11.12
5/14/2021 5:45:00 AM 7.34 45.212 0.147 7.7 0 11.15
5/14/2021 6:00:00 AM 7.29 45.122 0.146 7.71 0 11.18
5/14/2021 6:15:00 AM 7.23 45.014 0.146 7.72 0 11.24
5/14/2021 6:30:00 AM 7.19 44.942 0.147 7.74 0 11.3
5/14/2021 6:45:00 AM 7.16 44.888 0.147 7.75 0 11.36
5/14/2021 7:00:00 AM 7.15 44.87 0.147 7.76 0 11.43
5/14/2021 7:15:00 AM 7.16 44.888 0.148 7.78 0 11.49
5/14/2021 7:30:00 AM 7.19 44.942 0.148 7.8 0 11.54
5/14/2021 7:45:00 AM 7.25 45.05 0.148 7.83 0 11.59
5/14/2021 8:00:00 AM 7.33 45.194 0.149 7.86 0 11.63
5/14/2021 8:15:00 AM 7.46 45.428 0.148 7.89 0 11.65
5/14/2021 8:30:00 AM 7.61 45.698 0.147 7.93 0 11.66
5/14/2021 8:45:00 AM 7.79 46.022 0.148 7.96 0 11.65
5/14/2021 9:00:00 AM 7.99 46.382 0.148 7.99 0 11.64
5/14/2021 9:15:00 AM 8.23 46.814 0.147 8.03 0 11.61
5/14/2021 9:30:00 AM 8.49 47.282 0.147 8.06 0 11.58
5/14/2021 9:45:00 AM 8.77 47.786 0.147 8.09 0 11.54
5/14/2021 10:00:00 AM 9.07 48.326 0.147 8.13 0 11.49
5/14/2021 10:15:00 AM 9.37 48.866 0.146 8.17 0 11.43
5/14/2021 10:30:00 AM 9.69 49.442 0.146 8.2 0 11.38
5/14/2021 10:45:00 AM 10.01 50.018 0.146 8.23 0 11.32
5/14/2021 11:00:00 AM 10.33 50.594 0.146 8.27 0 11.26
5/14/2021 11:15:00 AM 10.67 51.206 0.146 8.3 0 11.19
5/14/2021 11:30:00 AM 11.01 51.818 0.146 8.32 0 11.12
5/14/2021 11:45:00 AM 11.34 52.412 0.146 8.33 0 11.06
5/14/2021 12:00:00 PM 11.68 53.024 0.146 8.36 0 10.99
5/14/2021 12:15:00 PM 12.01 53.618 0.146 8.38 0 10.92
5/14/2021 12:30:00 PM 12.33 54.194 0.146 8.41 0 10.85
5/14/2021 12:45:00 PM 12.65 54.77 0.147 8.44 0 10.79
5/14/2021 1:00:00 PM 12.96 55.328 0.148 8.48 0 10.72
5/14/2021 1:15:00 PM 13.26 55.868 0.149 8.5 0 10.66
5/14/2021 1:30:00 PM 13.56 56.408 0.149 8.53 0 10.61
5/14/2021 1:45:00 PM 13.84 56.912 0.145 8.56 0 10.55
5/14/2021 2:00:00 PM 14.14 57.452 0.144 8.58 0 10.49
5/14/2021 2:15:00 PM 14.39 57.902 0.144 8.61 0 10.42
5/14/2021 2:30:00 PM 14.53 58.154 0.144 8.6 0 10.33
5/14/2021 2:45:00 PM 14.7 58.46 0.144 8.61 0 10.29
5/14/2021 3:00:00 PM 14.73 58.514 0.144 8.58 0 10.19
5/14/2021 3:15:00 PM 15.04 59.072 0.145 8.62 0 10.21
5/14/2021 3:30:00 PM 15.12 59.216 0.145 8.63 0 10.16
5/14/2021 3:45:00 PM 15.06 59.108 0.145 8.64 0 10.15
5/14/2021 4:00:00 PM 15.11 59.198 0.145 8.62 0 10.14
5/14/2021 4:15:00 PM 15.05 59.09 0.145 8.6 0 10.11
5/14/2021 4:30:00 PM 14.89 58.802 0.145 8.58 0 10.05
5/14/2021 4:45:00 PM 14.99 58.982 0.146 8.57 0 10.08
5/14/2021 5:00:00 PM 14.95 58.91 0.146 8.57 0 10.09
5/14/2021 5:15:00 PM 14.92 58.856 0.146 8.57 0 10.09
5/14/2021 5:30:00 PM 14.84 58.712 0.146 8.56 0 10.07
5/14/2021 5:45:00 PM 14.75 58.55 0.146 8.53 0 10.05
5/14/2021 6:00:00 PM 14.62 58.316 0.147 8.5 0 10.01
5/14/2021 6:15:00 PM 14.49 58.082 0.147 8.47 0 10
5/14/2021 6:30:00 PM 14.35 57.83 0.147 8.42 0 9.97
5/14/2021 6:45:00 PM 14.17 57.506 0.147 8.38 0 9.93
5/14/2021 7:00:00 PM 13.99 57.182 0.147 8.33 0 9.87
5/14/2021 7:15:00 PM 13.81 56.858 0.147 8.26 0 9.82
5/14/2021 7:30:00 PM 13.65 56.57 0.148 8.2 0 9.79
5/14/2021 7:45:00 PM 13.48 56.264 0.148 8.14 0 9.77
5/14/2021 8:00:00 PM 13.31 55.958 0.148 8.1 0 9.75
5/14/2021 8:15:00 PM 13.14 55.652 0.148 8.08 0 9.72
5/14/2021 8:30:00 PM 12.99 55.382 0.148 8.04 0 9.7
5/14/2021 8:45:00 PM 12.83 55.094 0.149 8.01 0 9.69
5/14/2021 9:00:00 PM 12.67 54.806 0.149 7.99 0 9.7
5/14/2021 9:15:00 PM 12.51 54.518 0.149 7.99 0 9.72
5/14/2021 9:30:00 PM 12.35 54.23 0.149 7.97 0 9.75
5/14/2021 9:45:00 PM 12.19 53.942 0.15 7.96 0 9.78
5/14/2021 10:00:00 PM 12.04 53.672 0.15 7.96 0 9.81
5/14/2021 10:15:00 PM 11.88 53.384 0.15 7.95 0 9.85
5/14/2021 10:30:00 PM 11.73 53.114 0.15 7.93 0 9.88
5/14/2021 10:45:00 PM 11.59 52.862 0.15 7.93 0 9.91
5/14/2021 11:00:00 PM 11.45 52.61 0.15 7.92 0 9.95
5/14/2021 11:15:00 PM 11.31 52.358 0.151 7.92 0 9.99
5/14/2021 11:30:00 PM 11.17 52.106 0.151 7.91 0 10.02
5/14/2021 11:45:00 PM 11.04 51.872 0.151 7.9 0 10.06
5/15/2021 12:00:00 AM 10.9 51.62 0.151 7.9 0 10.09
5/15/2021 12:15:00 AM 10.77 51.386 0.151 7.89 0 10.12
5/15/2021 12:30:00 AM 10.64 51.152 0.151 7.89 0 10.16
5/15/2021 12:45:00 AM 10.51 50.918 0.151 7.89 0 10.19
5/15/2021 1:00:00 AM 10.38 50.684 0.151 7.89 0 10.23
5/15/2021 1:15:00 AM 10.26 50.468 0.151 7.89 0 10.26
5/15/2021 1:30:00 AM 10.14 50.252 0.151 7.89 0 10.29
5/15/2021 1:45:00 AM 10.02 50.036 0.152 7.89 0 10.32
5/15/2021 2:00:00 AM 9.91 49.838 0.151 7.88 0 10.35
5/15/2021 2:15:00 AM 9.79 49.622 0.151 7.88 0 10.39
5/15/2021 2:30:00 AM 9.68 49.424 0.151 7.88 0 10.42
5/15/2021 2:45:00 AM 9.57 49.226 0.151 7.88 0 10.45
5/15/2021 3:00:00 AM 9.46 49.028 0.152 7.87 0 10.48
5/15/2021 3:15:00 AM 9.36 48.848 0.152 7.86 0 10.5
5/15/2021 3:30:00 AM 9.27 48.686 0.152 7.86 0 10.53
5/15/2021 3:45:00 AM 9.17 48.506 0.152 7.85 0 10.56
5/15/2021 4:00:00 AM 9.08 48.344 0.152 7.85 0 10.59
5/15/2021 4:15:00 AM 8.98 48.164 0.152 7.85 0 10.62
5/15/2021 4:30:00 AM 8.89 48.002 0.152 7.84 0 10.64
5/15/2021 4:45:00 AM 8.81 47.858 0.152 7.83 0 10.68
5/15/2021 5:00:00 AM 8.73 47.714 0.152 7.82 0 10.7
5/15/2021 5:15:00 AM 8.65 47.57 0.152 7.82 0 10.72
5/15/2021 5:30:00 AM 8.58 47.444 0.152 7.82 0 10.75
5/15/2021 5:45:00 AM 8.51 47.318 0.152 7.81 0 10.78
5/15/2021 6:00:00 AM 8.45 47.21 0.152 7.82 0 10.83
5/15/2021 6:15:00 AM 8.39 47.102 0.152 7.82 0 10.89
5/15/2021 6:30:00 AM 8.34 47.012 0.152 7.85 0 10.96
5/15/2021 6:45:00 AM 8.3 46.94 0.152 7.87 0 11.04
5/15/2021 7:00:00 AM 8.29 46.922 0.152 7.89 0 11.12
5/15/2021 7:15:00 AM 8.29 46.922 0.152 7.9 0 11.19
5/15/2021 7:30:00 AM 8.32 46.976 0.152 7.94 0 11.26
5/15/2021 7:45:00 AM 8.37 47.066 0.152 7.96 0 11.31
5/15/2021 8:00:00 AM 8.44 47.192 0.152 8 0 11.36
5/15/2021 8:15:00 AM 8.54 47.372 0.152 8.03 0 11.39
5/15/2021 8:30:00 AM 8.68 47.624 0.152 8.06 0 11.42
5/15/2021 8:45:00 AM 8.86 47.948 0.152 8.1 0 11.42
5/15/2021 9:00:00 AM 9.06 48.308 0.152 8.14 0 11.42
5/15/2021 9:15:00 AM 9.28 48.704 0.152 8.19 0 11.4
5/15/2021 9:30:00 AM 9.53 49.154 0.151 8.24 0 11.38
5/15/2021 9:45:00 AM 9.81 49.658 0.152 8.27 0 11.35
5/15/2021 10:00:00 AM 10.1 50.18 0.152 8.3 0 11.3
5/15/2021 10:15:00 AM 10.39 50.702 0.152 8.34 0 11.26
5/15/2021 10:30:00 AM 10.69 51.242 0.152 8.37 0 11.21
5/15/2021 10:45:00 AM 11.01 51.818 0.152 8.4 0 11.16
5/15/2021 11:00:00 AM 11.32 52.376 0.152 8.44 0 11.1
5/15/2021 11:15:00 AM 11.64 52.952 0.152 8.48 0 11.04
5/15/2021 11:30:00 AM 11.95 53.51 0.152 8.49 0 10.98
5/15/2021 11:45:00 AM 12.27 54.086 0.152 8.52 0 10.93
5/15/2021 12:00:00 PM 12.62 54.716 0.152 8.56 0 10.87
5/15/2021 12:15:00 PM 12.94 55.292 0.151 8.59 0 10.81
5/15/2021 12:30:00 PM 13.25 55.85 0.152 8.63 0 10.75
5/15/2021 12:45:00 PM 13.53 56.354 0.151 8.66 0 10.69
5/15/2021 1:00:00 PM 13.83 56.894 0.151 8.69 0 10.64
5/15/2021 1:15:00 PM 14.07 57.326 0.151 8.71 0 10.58
5/15/2021 1:30:00 PM 14.34 57.812 0.151 8.75 0 10.52
5/15/2021 1:45:00 PM 14.44 57.992 0.151 8.74 0 10.46
5/15/2021 2:00:00 PM 14.64 58.352 0.151 8.79 0 10.46
5/15/2021 2:15:00 PM 14.67 58.406 0.151 8.8 0 10.43
5/15/2021 2:30:00 PM 14.97 58.946 0.152 8.83 0 10.42
5/15/2021 2:45:00 PM 15.05 59.09 0.152 8.85 0 10.39
5/15/2021 3:00:00 PM 15.19 59.342 0.152 8.87 0 10.38
5/15/2021 3:15:00 PM 15.29 59.522 0.152 8.9 0 10.36
5/15/2021 3:30:00 PM 15.36 59.648 0.152 8.91 0 10.32
5/15/2021 3:45:00 PM 15.23 59.414 0.152 8.87 0 10.24
5/15/2021 4:00:00 PM 15.2 59.36 0.152 8.85 0 10.23
5/15/2021 4:15:00 PM 15.31 59.558 0.152 8.87 0 10.24
5/15/2021 4:30:00 PM 15.18 59.324 0.152 8.85 0 10.22
5/15/2021 4:45:00 PM 15.15 59.27 0.153 8.84 0 10.24
5/15/2021 5:00:00 PM 15.06 59.108 0.153 8.81 0 10.19
5/15/2021 5:15:00 PM 14.95 58.91 0.153 8.78 0 10.17
5/15/2021 5:30:00 PM 14.8 58.64 0.153 8.74 0 10.17
5/15/2021 5:45:00 PM 14.68 58.424 0.153 8.69 0 10.14
5/15/2021 6:00:00 PM 14.54 58.172 0.154 8.64 0 10.1
5/15/2021 6:15:00 PM 14.42 57.956 0.154 8.59 0 10.06
5/15/2021 6:30:00 PM 14.31 57.758 0.154 8.56 0 10.05
5/15/2021 6:45:00 PM 14.17 57.506 0.154 8.5 0 10.02
5/15/2021 7:00:00 PM 14.02 57.236 0.154 8.45 0 9.95
5/15/2021 7:15:00 PM 13.9 57.02 0.155 8.39 0 9.91
5/15/2021 7:30:00 PM 13.78 56.804 0.155 8.34 0 9.87
5/15/2021 7:45:00 PM 13.65 56.57 0.155 8.3 0 9.83
5/15/2021 8:00:00 PM 13.5 56.3 0.155 8.25 0 9.78
5/15/2021 8:15:00 PM 13.36 56.048 0.156 8.21 0 9.71
5/15/2021 8:30:00 PM 13.21 55.778 0.156 8.17 0 9.67
5/15/2021 8:45:00 PM 13.05 55.49 0.156 8.13 0 9.64
5/15/2021 9:00:00 PM 12.89 55.202 0.156 8.09 0 9.64
5/15/2021 9:15:00 PM 12.74 54.932 0.156 8.08 0 9.66
5/15/2021 9:30:00 PM 12.58 54.644 0.157 8.06 0 9.68
5/15/2021 9:45:00 PM 12.43 54.374 0.157 8.04 0 9.71
5/15/2021 10:00:00 PM 12.28 54.104 0.157 8.02 0 9.74
5/15/2021 10:15:00 PM 12.13 53.834 0.157 8 0 9.77
5/15/2021 10:30:00 PM 11.98 53.564 0.157 7.98 0 9.8
5/15/2021 10:45:00 PM 11.84 53.312 0.157 7.96 0 9.83
5/15/2021 11:00:00 PM 11.71 53.078 0.158 7.95 0 9.87
5/15/2021 11:15:00 PM 11.57 52.826 0.158 7.93 0 9.9
5/15/2021 11:30:00 PM 11.44 52.592 0.158 7.92 0 9.93
5/15/2021 11:45:00 PM 11.32 52.376 0.158 7.91 0 9.97
5/16/2021 12:00:00 AM 11.19 52.142 0.158 7.92 0 9.99
5/16/2021 12:15:00 AM 11.07 51.926 0.158 7.91 0 10.03
5/16/2021 12:30:00 AM 10.94 51.692 0.158 7.91 0 10.06
5/16/2021 12:45:00 AM 10.82 51.476 0.158 7.92 0 10.09
5/16/2021 1:00:00 AM 10.7 51.26 0.159 7.91 0 10.12
5/16/2021 1:15:00 AM 10.59 51.062 0.159 7.9 0 10.15
5/16/2021 1:30:00 AM 10.5 50.9 0.159 7.9 0 10.18
5/16/2021 1:45:00 AM 10.41 50.738 0.159 7.9 0 10.21
5/16/2021 2:00:00 AM 10.32 50.576 0.159 7.9 0 10.23
5/16/2021 2:15:00 AM 10.23 50.414 0.159 7.9 0 10.26
5/16/2021 2:30:00 AM 10.15 50.27 0.159 7.9 0 10.28
5/16/2021 2:45:00 AM 10.06 50.108 0.159 7.9 0 10.3
5/16/2021 3:00:00 AM 9.98 49.964 0.16 7.9 0 10.32
5/16/2021 3:15:00 AM 9.9 49.82 0.16 7.9 0 10.34
5/16/2021 3:30:00 AM 9.82 49.676 0.16 7.89 0 10.37
5/16/2021 3:45:00 AM 9.74 49.532 0.16 7.89 0 10.39
5/16/2021 4:00:00 AM 9.67 49.406 0.16 7.89 0 10.41
5/16/2021 4:15:00 AM 9.59 49.262 0.16 7.9 0 10.44
5/16/2021 4:30:00 AM 9.51 49.118 0.16 7.9 0 10.45
5/16/2021 4:45:00 AM 9.43 48.974 0.16 7.89 0 10.48
5/16/2021 5:00:00 AM 9.36 48.848 0.16 7.89 0 10.5
5/16/2021 5:15:00 AM 9.29 48.722 0.16 7.89 0 10.51
5/16/2021 5:30:00 AM 9.21 48.578 0.16 7.89 0 10.53
5/16/2021 5:45:00 AM 9.13 48.434 0.16 7.89 0 10.57
5/16/2021 6:00:00 AM 9.07 48.326 0.16 7.9 0 10.63
5/16/2021 6:15:00 AM 9.01 48.218 0.16 7.91 0 10.72
5/16/2021 6:30:00 AM 8.97 48.146 0.16 7.93 0 10.83
5/16/2021 6:45:00 AM 8.93 48.074 0.16 7.96 0 10.92
5/16/2021 7:00:00 AM 8.91 48.038 0.16 7.98 0 11
5/16/2021 7:15:00 AM 8.91 48.038 0.16 8 0 11.08
5/16/2021 7:30:00 AM 8.94 48.092 0.16 8.03 0 11.15
5/16/2021 7:45:00 AM 9.01 48.218 0.16 8.06 0 11.22
5/16/2021 8:00:00 AM 9.09 48.362 0.16 8.09 0 11.27
5/16/2021 8:15:00 AM 9.2 48.56 0.16 8.13 0 11.31
5/16/2021 8:30:00 AM 9.34 48.812 0.159 8.18 0 11.34
5/16/2021 8:45:00 AM 9.53 49.154 0.159 8.22 0 11.35
5/16/2021 9:00:00 AM 9.74 49.532 0.159 8.27 0 11.36
5/16/2021 9:15:00 AM 9.97 49.946 0.159 8.31 0 11.34
5/16/2021 9:30:00 AM 10.23 50.414 0.159 8.35 0 11.32
5/16/2021 9:45:00 AM 10.55 50.99 0.159 8.39 0 11.3
5/16/2021 10:00:00 AM 10.85 51.53 0.159 8.44 0 11.26
5/16/2021 10:15:00 AM 11.15 52.07 0.159 8.49 0 11.22
5/16/2021 10:30:00 AM 11.47 52.646 0.159 8.53 0 11.17
5/16/2021 10:45:00 AM 11.74 53.132 0.159 8.57 0 11.13
5/16/2021 11:00:00 AM 11.99 53.582 0.159 8.61 0 11.09
5/16/2021 11:15:00 AM 12.23 54.014 0.159 8.65 0 11.06
5/16/2021 11:30:00 AM 12.52 54.536 0.159 8.69 0 11.04
5/16/2021 11:45:00 AM 12.81 55.058 0.159 8.73 0 11
5/16/2021 12:00:00 PM 12.94 55.292 0.159 8.74 0 10.92
5/16/2021 12:15:00 PM 12.85 55.13 0.159 8.72 0 10.82
5/16/2021 12:30:00 PM 13.05 55.49 0.159 8.73 0 10.8
5/16/2021 12:45:00 PM 13.08 55.544 0.159 8.74 0 10.79
5/16/2021 1:00:00 PM 13.1 55.58 0.159 8.74 0 10.8
5/16/2021 1:15:00 PM 13.24 55.832 0.16 8.77 0 10.81
5/16/2021 1:30:00 PM 13.15 55.67 0.16 8.76 0 10.8
5/16/2021 1:45:00 PM 13.34 56.012 0.159 8.78 0 10.82
5/16/2021 2:00:00 PM 13.44 56.192 0.159 8.82 0 10.84
5/16/2021 2:15:00 PM 13.41 56.138 0.159 8.82 0 10.81
5/16/2021 2:30:00 PM 13.47 56.246 0.159 8.83 0 10.79
5/16/2021 2:45:00 PM 13.52 56.336 0.159 8.83 0 10.78
5/16/2021 3:00:00 PM 13.64 56.552 0.159 8.85 0 10.78
5/16/2021 3:15:00 PM 13.72 56.696 0.159 8.86 0 10.75
5/16/2021 3:30:00 PM 13.69 56.642 0.159 8.83 0 10.64
5/16/2021 3:45:00 PM 13.64 56.552 0.16 8.76 0 10.51
5/16/2021 4:00:00 PM 13.61 56.498 0.16 8.71 0 10.45
5/16/2021 4:15:00 PM 13.62 56.516 0.16 8.71 0 10.49
5/16/2021 4:30:00 PM 13.78 56.804 0.16 8.75 0 10.57
5/16/2021 4:45:00 PM 13.8 56.84 0.16 8.77 0 10.59
5/16/2021 5:00:00 PM 13.75 56.75 0.16 8.75 0 10.54
5/16/2021 5:15:00 PM 13.79 56.822 0.16 8.75 0 10.53
5/16/2021 5:30:00 PM 13.82 56.876 0.16 8.75 0 10.5
5/16/2021 5:45:00 PM 13.7 56.66 0.16 8.67 0 10.33
5/16/2021 6:00:00 PM 13.61 56.498 0.161 8.59 0 10.21
5/16/2021 6:15:00 PM 13.52 56.336 0.161 8.52 0 10.09
5/16/2021 6:30:00 PM 13.44 56.192 0.161 8.43 0 9.96
5/16/2021 6:45:00 PM 13.37 56.066 0.161 8.38 0 9.95
5/16/2021 7:00:00 PM 13.3 55.94 0.162 8.37 0 9.95
5/16/2021 7:15:00 PM 13.2 55.76 0.162 8.33 0 9.92
5/16/2021 7:30:00 PM 13.09 55.562 0.162 8.3 0 9.88
5/16/2021 7:45:00 PM 12.99 55.382 0.162 8.26 0 9.86
5/16/2021 8:00:00 PM 12.91 55.238 0.163 8.23 0 9.81
5/16/2021 8:15:00 PM 12.82 55.076 0.163 8.21 0 9.77
5/16/2021 8:30:00 PM 12.73 54.914 0.163 8.16 0 9.74
5/16/2021 8:45:00 PM 12.64 54.752 0.163 8.13 0 9.71
5/16/2021 9:00:00 PM 12.53 54.554 0.163 8.11 0 9.71
5/16/2021 9:15:00 PM 12.43 54.374 0.163 8.08 0 9.72
5/16/2021 9:30:00 PM 12.33 54.194 0.164 8.06 0 9.73
5/16/2021 9:45:00 PM 12.25 54.05 0.164 8.06 0 9.75
5/16/2021 10:00:00 PM 12.17 53.906 0.164 8.04 0 9.76
5/16/2021 10:15:00 PM 12.09 53.762 0.164 8.04 0 9.78
5/16/2021 10:30:00 PM 12.01 53.618 0.164 8.03 0 9.79
5/16/2021 10:45:00 PM 11.94 53.492 0.164 8.02 0 9.8
5/16/2021 11:00:00 PM 11.88 53.384 0.164 8.02 0 9.82
5/16/2021 11:15:00 PM 11.81 53.258 0.164 8.03 0 9.84
5/16/2021 11:30:00 PM 11.75 53.15 0.165 8.01 0 9.85
5/16/2021 11:45:00 PM 11.68 53.024 0.165 8.01 0 9.87
5/17/2021 12:00:00 AM 11.61 52.898 0.165 8 0 9.89
5/17/2021 12:15:00 AM 11.52 52.736 0.165 7.99 0 9.9
5/17/2021 12:30:00 AM 11.44 52.592 0.165 7.97 0 9.92
5/17/2021 12:45:00 AM 11.36 52.448 0.165 7.97 0 9.95
5/17/2021 1:00:00 AM 11.27 52.286 0.165 7.97 0 9.97
5/17/2021 1:15:00 AM 11.19 52.142 0.165 7.97 0 9.99
5/17/2021 1:30:00 AM 11.12 52.016 0.166 7.96 0 10.01
5/17/2021 1:45:00 AM 11.05 51.89 0.166 7.96 0 10.04
5/17/2021 2:00:00 AM 10.97 51.746 0.166 7.96 0 10.06
5/17/2021 2:15:00 AM 10.91 51.638 0.166 7.96 0 10.08
5/17/2021 2:30:00 AM 10.85 51.53 0.166 7.97 0 10.09
5/17/2021 2:45:00 AM 10.79 51.422 0.166 7.98 0 10.11
5/17/2021 3:00:00 AM 10.74 51.332 0.167 7.97 0 10.12
5/17/2021 3:15:00 AM 10.68 51.224 0.167 7.96 0 10.14
5/17/2021 3:30:00 AM 10.63 51.134 0.167 7.96 0 10.15
5/17/2021 3:45:00 AM 10.57 51.026 0.167 7.97 0 10.16
5/17/2021 4:00:00 AM 10.52 50.936 0.167 7.96 0 10.18
5/17/2021 4:15:00 AM 10.45 50.81 0.167 7.95 0 10.19
5/17/2021 4:30:00 AM 10.38 50.684 0.167 7.95 0 10.21
5/17/2021 4:45:00 AM 10.3 50.54 0.167 7.95 0 10.23
5/17/2021 5:00:00 AM 10.23 50.414 0.167 7.94 0 10.24
5/17/2021 5:15:00 AM 10.15 50.27 0.167 7.94 0 10.27
5/17/2021 5:30:00 AM 10.08 50.144 0.167 7.94 0 10.29
5/17/2021 5:45:00 AM 10 50 0.167 7.93 0 10.33
5/17/2021 6:00:00 AM 9.92 49.856 0.167 7.94 0 10.39
5/17/2021 6:15:00 AM 9.84 49.712 0.167 7.95 0 10.47
5/17/2021 6:30:00 AM 9.78 49.604 0.167 7.97 0 10.57
5/17/2021 6:45:00 AM 9.73 49.514 0.167 7.99 0 10.67
5/17/2021 7:00:00 AM 9.7 49.46 0.167 8.01 0 10.78
5/17/2021 7:15:00 AM 9.7 49.46 0.167 8.04 0 10.88
5/17/2021 7:30:00 AM 9.72 49.496 0.167 8.09 0 10.99
5/17/2021 7:45:00 AM 9.77 49.586 0.167 8.13 0 11.07
5/17/2021 8:00:00 AM 9.85 49.73 0.166 8.18 0 11.14
5/17/2021 8:15:00 AM 9.95 49.91 0.166 8.22 0 11.19
5/17/2021 8:30:00 AM 10.09 50.162 0.166 8.27 0 11.24
5/17/2021 8:45:00 AM 10.26 50.468 0.166 8.31 0 11.26
5/17/2021 9:00:00 AM 10.46 50.828 0.166 8.37 0 11.27
5/17/2021 9:15:00 AM 10.68 51.224 0.166 8.41 0 11.27
5/17/2021 9:30:00 AM 10.93 51.674 0.166 8.46 0 11.25
5/17/2021 9:45:00 AM 11.21 52.178 0.166 8.51 0 11.23
5/17/2021 10:00:00 AM 11.52 52.736 0.166 8.55 0 11.2
5/17/2021 10:15:00 AM 11.83 53.294 0.166 8.59 0 11.16
5/17/2021 10:30:00 AM 12.14 53.852 0.166 8.64 0 11.12
5/17/2021 10:45:00 AM 12.46 54.428 0.166 8.69 0 11.08
5/17/2021 11:00:00 AM 12.79 55.022 0.166 8.74 0 11.05
5/17/2021 11:15:00 AM 13.09 55.562 0.166 8.78 0 10.98
5/17/2021 11:30:00 AM 13.11 55.598 0.166 8.77 0 10.86
5/17/2021 11:45:00 AM 13.27 55.886 0.166 8.77 0 10.78
5/17/2021 12:00:00 PM 13.52 56.336 0.166 8.8 0 10.82
5/17/2021 12:15:00 PM 14.18 57.524 0.166 8.91 0 10.86
5/17/2021 12:30:00 PM 14.46 58.028 0.166 8.98 0 10.78
5/17/2021 12:45:00 PM 14.77 58.586 0.166 8.99 0 10.68
5/17/2021 1:00:00 PM 15.3 59.54 0.166 9.06 0 10.65
5/17/2021 1:15:00 PM 15.68 60.224 0.166 9.11 0 10.61
5/17/2021 1:30:00 PM 16.01 60.818 0.166 9.15 0 10.57
5/17/2021 1:45:00 PM 16.29 61.322 0.166 9.17 0 10.53
5/17/2021 2:00:00 PM 16.59 61.862 0.166 9.23 0 10.49
5/17/2021 2:15:00 PM 16.6 61.88 0.166 9.23 0 10.43
5/17/2021 2:30:00 PM 16.78 62.204 0.167 9.24 0 10.41
5/17/2021 2:45:00 PM 17.14 62.852 0.167 9.3 0 10.4
5/17/2021 3:00:00 PM 17.37 63.266 0.167 9.32 0 10.37
5/17/2021 3:15:00 PM 17.44 63.392 0.167 9.35 0 10.29
5/17/2021 3:30:00 PM 17.43 63.374 0.167 9.32 0 10.22
5/17/2021 3:45:00 PM 17.56 63.608 0.167 9.34 0 10.24
5/17/2021 4:00:00 PM 17.7 63.86 0.167 9.36 0 10.22
5/17/2021 4:15:00 PM 17.71 63.878 0.167 9.36 0 10.18
5/17/2021 4:30:00 PM 17.4 63.32 0.168 9.27 0 10.02
5/17/2021 4:45:00 PM 17.11 62.798 0.168 9.17 0 9.89
5/17/2021 5:00:00 PM 17.16 62.888 0.168 9.15 0 9.95
5/17/2021 5:15:00 PM 17.13 62.834 0.168 9.16 0 9.99
5/17/2021 5:30:00 PM 17.15 62.87 0.168 9.18 0 10.05
5/17/2021 5:45:00 PM 16.87 62.366 0.168 9.11 0 9.92
5/17/2021 6:00:00 PM 16.65 61.97 0.169 8.99 0 9.75
5/17/2021 6:15:00 PM 16.5 61.7 0.169 8.93 0 9.7
5/17/2021 6:30:00 PM 16.4 61.52 0.169 8.88 0 9.71
5/17/2021 6:45:00 PM 16.21 61.178 0.169 8.83 0 9.68
5/17/2021 7:00:00 PM 15.97 60.746 0.17 8.74 0 9.61
5/17/2021 7:15:00 PM 15.76 60.368 0.17 8.64 0 9.52
5/17/2021 7:30:00 PM 15.58 60.044 0.171 8.56 0 9.45
5/17/2021 7:45:00 PM 15.41 59.738 0.171 8.49 0 9.4
5/17/2021 8:00:00 PM 15.24 59.432 0.171 8.44 0 9.35
5/17/2021 8:15:00 PM 15.06 59.108 0.171 8.38 0 9.3
5/17/2021 8:30:00 PM 14.88 58.784 0.171 8.31 0 9.25
5/17/2021 8:45:00 PM 14.71 58.478 0.171 8.27 0 9.22
5/17/2021 9:00:00 PM 14.53 58.154 0.172 8.23 0 9.22
5/17/2021 9:15:00 PM 14.35 57.83 0.172 8.22 0 9.23
5/17/2021 9:30:00 PM 14.2 57.56 0.172 8.21 0 9.25
5/17/2021 9:45:00 PM 14.03 57.254 0.172 8.19 0 9.28
5/17/2021 10:00:00 PM 13.88 56.984 0.172 8.17 0 9.31
5/17/2021 10:15:00 PM 13.72 56.696 0.173 8.15 0 9.35
5/17/2021 10:30:00 PM 13.57 56.426 0.173 8.14 0 9.38
5/17/2021 10:45:00 PM 13.42 56.156 0.173 8.13 0 9.41
5/17/2021 11:00:00 PM 13.28 55.904 0.173 8.12 0 9.44
5/17/2021 11:15:00 PM 13.14 55.652 0.173 8.09 0 9.47
5/17/2021 11:30:00 PM 13.02 55.436 0.173 8.09 0 9.5
5/17/2021 11:45:00 PM 12.89 55.202 0.174 8.08 0 9.53
5/18/2021 12:00:00 AM 12.77 54.986 0.174 8.09 0 9.56
5/18/2021 12:15:00 AM 12.65 54.77 0.174 8.08 0 9.59
5/18/2021 12:30:00 AM 12.53 54.554 0.174 8.07 0 9.62
5/18/2021 12:45:00 AM 12.41 54.338 0.174 8.08 0 9.65
5/18/2021 1:00:00 AM 12.3 54.14 0.174 8.06 0 9.68
5/18/2021 1:15:00 AM 12.19 53.942 0.174 8.07 0 9.7
5/18/2021 1:30:00 AM 12.07 53.726 0.174 8.07 0 9.74
5/18/2021 1:45:00 AM 11.96 53.528 0.174 8.06 0 9.76
5/18/2021 2:00:00 AM 11.85 53.33 0.175 8.06 0 9.79
5/18/2021 2:15:00 AM 11.74 53.132 0.175 8.04 0 9.82
5/18/2021 2:30:00 AM 11.64 52.952 0.175 8.06 0 9.85
5/18/2021 2:45:00 AM 11.53 52.754 0.175 8.07 0 9.87
5/18/2021 3:00:00 AM 11.43 52.574 0.175 8.07 0 9.9
5/18/2021 3:15:00 AM 11.33 52.394 0.175 8.06 0 9.93
5/18/2021 3:30:00 AM 11.23 52.214 0.175 8.06 0 9.96
5/18/2021 3:45:00 AM 11.13 52.034 0.175 8.06 0 9.98
5/18/2021 4:00:00 AM 11.04 51.872 0.175 8.05 0 10
5/18/2021 4:15:00 AM 10.94 51.692 0.175 8.05 0 10.03
5/18/2021 4:30:00 AM 10.86 51.548 0.175 8.05 0 10.06
5/18/2021 4:45:00 AM 10.78 51.404 0.175 8.05 0 10.08
5/18/2021 5:00:00 AM 10.7 51.26 0.175 8.05 0 10.1
5/18/2021 5:15:00 AM 10.61 51.098 0.175 8.04 0 10.13
5/18/2021 5:30:00 AM 10.53 50.954 0.176 8.04 0 10.15
5/18/2021 5:45:00 AM 10.46 50.828 0.176 8.04 0 10.19
5/18/2021 6:00:00 AM 10.39 50.702 0.176 8.04 0 10.26
5/18/2021 6:15:00 AM 10.32 50.576 0.175 8.06 0 10.35
5/18/2021 6:30:00 AM 10.28 50.504 0.175 8.08 0 10.47
5/18/2021 6:45:00 AM 10.23 50.414 0.175 8.11 0 10.59
5/18/2021 7:00:00 AM 10.21 50.378 0.175 8.13 0 10.71
5/18/2021 7:15:00 AM 10.22 50.396 0.175 8.17 0 10.82
5/18/2021 7:30:00 AM 10.26 50.468 0.175 8.22 0 10.93
5/18/2021 7:45:00 AM 10.32 50.576 0.175 8.27 0 11.02
5/18/2021 8:00:00 AM 10.41 50.738 0.175 8.33 0 11.1
5/18/2021 8:15:00 AM 10.52 50.936 0.175 8.38 0 11.17
5/18/2021 8:30:00 AM 10.66 51.188 0.175 8.44 0 11.23
5/18/2021 8:45:00 AM 10.83 51.494 0.174 8.48 0 11.27
5/18/2021 9:00:00 AM 11.03 51.854 0.174 8.54 0 11.3
5/18/2021 9:15:00 AM 11.25 52.25 0.174 8.6 0 11.31
5/18/2021 9:30:00 AM 11.5 52.7 0.174 8.66 0 11.31
5/18/2021 9:45:00 AM 11.8 53.24 0.174 8.72 0 11.3
5/18/2021 10:00:00 AM 12.11 53.798 0.174 8.77 0 11.26
5/18/2021 10:15:00 AM 12.44 54.392 0.174 8.83 0 11.23
5/18/2021 10:30:00 AM 12.77 54.986 0.174 8.88 0 11.19
5/18/2021 10:45:00 AM 13.11 55.598 0.174 8.93 0 11.14
5/18/2021 11:00:00 AM 13.45 56.21 0.174 8.98 0 11.1
5/18/2021 11:15:00 AM 13.79 56.822 0.174 9.04 0 11.06
5/18/2021 11:30:00 AM 14.14 57.452 0.174 9.08 0 11.01
5/18/2021 11:45:00 AM 14.48 58.064 0.174 9.13 0 10.96
5/18/2021 12:00:00 PM 14.83 58.694 0.174 9.17 0 10.92
5/18/2021 12:15:00 PM 15.17 59.306 0.174 9.21 0 10.89
5/18/2021 12:30:00 PM 15.26 59.468 0.174 9.2 0 10.75
5/18/2021 12:45:00 PM 15.66 60.188 0.174 9.26 0 10.78
5/18/2021 1:00:00 PM 15.97 60.746 0.174 9.31 0 10.76
5/18/2021 1:15:00 PM 16.25 61.25 0.174 9.34 0 10.71
5/18/2021 1:30:00 PM 16.57 61.826 0.174 9.37 0 10.66
5/18/2021 1:45:00 PM 16.82 62.276 0.174 9.39 0 10.6
5/18/2021 2:00:00 PM 17.05 62.69 0.174 9.41 0 10.56
5/18/2021 2:15:00 PM 17.28 63.104 0.174 9.44 0 10.53
5/18/2021 2:30:00 PM 17.49 63.482 0.174 9.47 0 10.5
5/18/2021 2:45:00 PM 17.59 63.662 0.174 9.49 0 10.47
5/18/2021 3:00:00 PM 17.78 64.004 0.174 9.51 0 10.43
5/18/2021 3:15:00 PM 17.94 64.292 0.174 9.52 0 10.39
5/18/2021 3:30:00 PM 18.07 64.526 0.174 9.53 0 10.34
5/18/2021 3:45:00 PM 18.17 64.706 0.175 9.53 0 10.31
5/18/2021 4:00:00 PM 18.24 64.832 0.175 9.52 0 10.26
5/18/2021 4:15:00 PM 18.26 64.868 0.175 9.52 0 10.23
5/18/2021 4:30:00 PM 18.26 64.868 0.175 9.5 0 10.18
5/18/2021 4:45:00 PM 18.25 64.85 0.176 9.48 0 10.15
5/18/2021 5:00:00 PM 18.15 64.67 0.176 9.46 0 10.09
5/18/2021 5:15:00 PM 18.1 64.58 0.176 9.42 0 10.05
5/18/2021 5:30:00 PM 17.99 64.382 0.176 9.38 0 10.02
5/18/2021 5:45:00 PM 17.87 64.166 0.176 9.34 0 9.95
5/18/2021 6:00:00 PM 17.71 63.878 0.176 9.28 0 9.9
5/18/2021 6:15:00 PM 17.55 63.59 0.177 9.21 0 9.83
5/18/2021 6:30:00 PM 17.37 63.266 0.177 9.13 0 9.75
5/18/2021 6:45:00 PM 17.18 62.924 0.177 9.02 0 9.64
5/18/2021 7:00:00 PM 16.95 62.51 0.178 8.9 0 9.5
5/18/2021 7:15:00 PM 16.75 62.15 0.178 8.75 0 9.38
5/18/2021 7:30:00 PM 16.57 61.826 0.178 8.64 0 9.3
5/18/2021 7:45:00 PM 16.39 61.502 0.179 8.56 0 9.23
5/18/2021 8:00:00 PM 16.21 61.178 0.179 8.5 0 9.15
5/18/2021 8:15:00 PM 16.02 60.836 0.18 8.44 0 9.09
5/18/2021 8:30:00 PM 15.83 60.494 0.18 8.38 0 9.02
5/18/2021 8:45:00 PM 15.64 60.152 0.18 8.33 0 8.98
5/18/2021 9:00:00 PM 15.45 59.81 0.181 8.29 0 8.97
5/18/2021 9:15:00 PM 15.26 59.468 0.181 8.25 0 8.99
5/18/2021 9:30:00 PM 15.08 59.144 0.181 8.23 0 9.01
5/18/2021 9:45:00 PM 14.91 58.838 0.181 8.22 0 9.03
5/18/2021 10:00:00 PM 14.74 58.532 0.182 8.21 0 9.07
5/18/2021 10:15:00 PM 14.58 58.244 0.182 8.18 0 9.1
5/18/2021 10:30:00 PM 14.43 57.974 0.182 8.17 0 9.13
5/18/2021 10:45:00 PM 14.28 57.704 0.182 8.16 0 9.16
5/18/2021 11:00:00 PM 14.13 57.434 0.183 8.17 0 9.2
5/18/2021 11:15:00 PM 13.99 57.182 0.183 8.18 0 9.22
5/18/2021 11:30:00 PM 13.85 56.93 0.183 8.14 0 9.25
5/18/2021 11:45:00 PM 13.72 56.696 0.183 8.13 0 9.29
5/19/2021 12:00:00 AM 13.6 56.48 0.183 8.14 0 9.32
5/19/2021 12:15:00 AM 13.48 56.264 0.183 8.15 0 9.34
5/19/2021 12:30:00 AM 13.36 56.048 0.183 8.15 0 9.38
5/19/2021 12:45:00 AM 13.24 55.832 0.184 8.14 0 9.4
5/19/2021 1:00:00 AM 13.13 55.634 0.184 8.13 0 9.43
5/19/2021 1:15:00 AM 13.02 55.436 0.184 8.13 0 9.46
5/19/2021 1:30:00 AM 12.91 55.238 0.184 8.12 0 9.48
5/19/2021 1:45:00 AM 12.81 55.058 0.184 8.12 0 9.51
5/19/2021 2:00:00 AM 12.7 54.86 0.184 8.11 0 9.53
5/19/2021 2:15:00 AM 12.6 54.68 0.184 8.1 0 9.56
5/19/2021 2:30:00 AM 12.5 54.5 0.184 8.1 0 9.59
5/19/2021 2:45:00 AM 12.41 54.338 0.185 8.11 0 9.61
5/19/2021 3:00:00 AM 12.31 54.158 0.185 8.1 0 9.64
5/19/2021 3:15:00 AM 12.22 53.996 0.185 8.1 0 9.66
5/19/2021 3:30:00 AM 12.13 53.834 0.185 8.09 0 9.68
5/19/2021 3:45:00 AM 12.04 53.672 0.185 8.09 0 9.71
5/19/2021 4:00:00 AM 11.95 53.51 0.186 8.08 0 9.73
5/19/2021 4:15:00 AM 11.86 53.348 0.186 8.08 0 9.75
5/19/2021 4:30:00 AM 11.77 53.186 0.186 8.07 0 9.77
5/19/2021 4:45:00 AM 11.69 53.042 0.185 8.07 0 9.8
5/19/2021 5:00:00 AM 11.61 52.898 0.185 8.07 0 9.82
5/19/2021 5:15:00 AM 11.52 52.736 0.185 8.06 0 9.85
5/19/2021 5:30:00 AM 11.44 52.592 0.186 8.07 0 9.87
5/19/2021 5:45:00 AM 11.37 52.466 0.186 8.07 0 9.91
5/19/2021 6:00:00 AM 11.29 52.322 0.185 8.07 0 10
5/19/2021 6:15:00 AM 11.23 52.214 0.186 8.09 0 10.1
5/19/2021 6:30:00 AM 11.17 52.106 0.186 8.12 0 10.23
5/19/2021 6:45:00 AM 11.13 52.034 0.186 8.14 0 10.36
5/19/2021 7:00:00 AM 11.11 51.998 0.185 8.18 0 10.5
5/19/2021 7:15:00 AM 11.13 52.034 0.185 8.22 0 10.64
5/19/2021 7:30:00 AM 11.16 52.088 0.185 8.28 0 10.78
5/19/2021 7:45:00 AM 11.23 52.214 0.185 8.34 0 10.89
5/19/2021 8:00:00 AM 11.32 52.376 0.185 8.4 0 10.99
5/19/2021 8:15:00 AM 11.44 52.592 0.185 8.48 0 11.07
5/19/2021 8:30:00 AM 11.59 52.862 0.185 8.55 0 11.15
5/19/2021 8:45:00 AM 11.77 53.186 0.185 8.62 0 11.2
5/19/2021 9:00:00 AM 11.98 53.564 0.184 8.67 0 11.23
5/19/2021 9:15:00 AM 12.21 53.978 0.184 8.74 0 11.26
5/19/2021 9:30:00 AM 12.47 54.446 0.184 8.83 0 11.26
5/19/2021 9:45:00 AM 12.76 54.968 0.184 8.88 0 11.26
5/19/2021 10:00:00 AM 13.07 55.526 0.184 8.95 0 11.24
5/19/2021 10:15:00 AM 13.4 56.12 0.184 9.01 0 11.21
5/19/2021 10:30:00 AM 13.75 56.75 0.184 9.06 0 11.18
5/19/2021 10:45:00 AM 14.1 57.38 0.184 9.12 0 11.15
5/19/2021 11:00:00 AM 14.46 58.028 0.184 9.17 0 11.11
5/19/2021 11:15:00 AM 14.82 58.676 0.184 9.22 0 11.07
5/19/2021 11:30:00 AM 15.18 59.324 0.184 9.26 0 11.02
5/19/2021 11:45:00 AM 15.54 59.972 0.184 9.31 0 10.98
5/19/2021 12:00:00 PM 15.9 60.62 0.183 9.35 0 10.94
5/19/2021 12:15:00 PM 16.25 61.25 0.184 9.39 0 10.9
5/19/2021 12:30:00 PM 16.6 61.88 0.183 9.43 0 10.85
5/19/2021 12:45:00 PM 16.94 62.492 0.183 9.47 0 10.8
5/19/2021 1:00:00 PM 17.26 63.068 0.183 9.51 0 10.76
5/19/2021 1:15:00 PM 17.57 63.626 0.183 9.53 0 10.71
5/19/2021 1:30:00 PM 17.87 64.166 0.183 9.57 0 10.66
5/19/2021 1:45:00 PM 18.15 64.67 0.184 9.6 0 10.62
5/19/2021 2:00:00 PM 18.42 65.156 0.183 9.63 0 10.58
5/19/2021 2:15:00 PM 18.67 65.606 0.184 9.64 0 10.54
5/19/2021 2:30:00 PM 18.88 65.984 0.184 9.66 0 10.5
5/19/2021 2:45:00 PM 19.07 66.326 0.184 9.69 0 10.47
5/19/2021 3:00:00 PM 19.29 66.722 0.184 9.72 0 10.45
5/19/2021 3:15:00 PM 19.3 66.74 0.184 9.74 0 10.43
5/19/2021 3:30:00 PM 19.34 66.812 0.184 9.75 0 10.41
5/19/2021 3:45:00 PM 19.51 67.118 0.184 9.76 0 10.43
5/19/2021 4:00:00 PM 19.59 67.262 0.184 9.77 0 10.4
5/19/2021 4:15:00 PM 19.59 67.262 0.184 9.77 0 10.35
5/19/2021 4:30:00 PM 19.65 67.37 0.184 9.77 0 10.31
5/19/2021 4:45:00 PM 19.57 67.226 0.184 9.74 0 10.24
5/19/2021 5:00:00 PM 19.39 66.902 0.185 9.68 0 10.07
5/19/2021 5:15:00 PM 19.3 66.74 0.185 9.63 0 10.02
5/19/2021 5:30:00 PM 19.07 66.326 0.185 9.55 0 9.88
5/19/2021 5:45:00 PM 18.92 66.056 0.185 9.47 0 9.82
5/19/2021 6:00:00 PM 18.72 65.696 0.186 9.41 0 9.76
5/19/2021 6:15:00 PM 18.56 65.408 0.186 9.35 0 9.75
5/19/2021 6:30:00 PM 18.51 65.318 0.186 9.35 0 9.84
5/19/2021 6:45:00 PM 18.4 65.12 0.186 9.33 0 9.86
5/19/2021 7:00:00 PM 18.21 64.778 0.187 9.22 0 9.65
5/19/2021 7:15:00 PM 18.01 64.418 0.187 9.04 0 9.44
5/19/2021 7:30:00 PM 17.82 64.076 0.188 8.89 0 9.32
5/19/2021 7:45:00 PM 17.65 63.77 0.188 8.77 0 9.17
5/19/2021 8:00:00 PM 17.46 63.428 0.189 8.64 0 8.97
5/19/2021 8:15:00 PM 17.27 63.086 0.189 8.54 0 8.85
5/19/2021 8:30:00 PM 17.08 62.744 0.19 8.46 0 8.75
5/19/2021 8:45:00 PM 16.9 62.42 0.19 8.4 0 8.69
5/19/2021 9:00:00 PM 16.73 62.114 0.191 8.37 0 8.67
5/19/2021 9:15:00 PM 16.55 61.79 0.191 8.34 0 8.67
5/19/2021 9:30:00 PM 16.38 61.484 0.191 8.3 0 8.69
5/19/2021 9:45:00 PM 16.21 61.178 0.191 8.28 0 8.71
5/19/2021 10:00:00 PM 16.04 60.872 0.192 8.27 0 8.74
5/19/2021 10:15:00 PM 15.87 60.566 0.192 8.25 0 8.77
5/19/2021 10:30:00 PM 15.72 60.296 0.192 8.24 0 8.79
5/19/2021 10:45:00 PM 15.56 60.008 0.192 8.23 0 8.83
5/19/2021 11:00:00 PM 15.42 59.756 0.193 8.23 0 8.86
5/19/2021 11:15:00 PM 15.27 59.486 0.193 8.21 0 8.9
5/19/2021 11:30:00 PM 15.13 59.234 0.193 8.21 0 8.92
5/19/2021 11:45:00 PM 14.99 58.982 0.193 8.2 0 8.96
5/20/2021 12:00:00 AM 14.86 58.748 0.193 8.2 0 8.98
5/20/2021 12:15:00 AM 14.73 58.514 0.193 8.19 0 9.02
5/20/2021 12:30:00 AM 14.6 58.28 0.194 8.18 0 9.04
5/20/2021 12:45:00 AM 14.48 58.064 0.194 8.18 0 9.07
5/20/2021 1:00:00 AM 14.36 57.848 0.194 8.18 0 9.1
5/20/2021 1:15:00 AM 14.25 57.65 0.194 8.17 0 9.13
5/20/2021 1:30:00 AM 14.14 57.452 0.194 8.17 0 9.15
5/20/2021 1:45:00 AM 14.03 57.254 0.194 8.17 1.88 9.18
5/20/2021 2:00:00 AM 13.92 57.056 0.194 8.15 1.94 9.2
5/20/2021 2:15:00 AM 13.81 56.858 0.195 8.15 1.86 9.23
5/20/2021 2:30:00 AM 13.72 56.696 0.195 8.14 0 9.26
5/20/2021 2:45:00 AM 13.62 56.516 0.195 8.14 0 9.28
5/20/2021 3:00:00 AM 13.53 56.354 0.195 8.14 0 9.3
5/20/2021 3:15:00 AM 13.46 56.228 0.195 8.14 0 9.33
5/20/2021 3:30:00 AM 13.37 56.066 0.195 8.14 0 9.35
5/20/2021 3:45:00 AM 13.3 55.94 0.195 8.14 0 9.37
5/20/2021 4:00:00 AM 13.23 55.814 0.196 8.13 0 9.39
5/20/2021 4:15:00 AM 13.16 55.688 0.196 8.13 0 9.41
5/20/2021 4:30:00 AM 13.1 55.58 0.196 8.13 0 9.43
5/20/2021 4:45:00 AM 13.04 55.472 0.196 8.13 0 9.44
5/20/2021 5:00:00 AM 12.98 55.364 0.196 8.13 0 9.46
5/20/2021 5:15:00 AM 12.93 55.274 0.196 8.13 0 9.47
5/20/2021 5:30:00 AM 12.88 55.184 0.196 8.13 0 9.48
5/20/2021 5:45:00 AM 12.84 55.112 0.196 8.13 0 9.52
5/20/2021 6:00:00 AM 12.79 55.022 0.196 8.14 0 9.59
5/20/2021 6:15:00 AM 12.75 54.95 0.196 8.16 0 9.71
5/20/2021 6:30:00 AM 12.73 54.914 0.196 8.19 0 9.89
5/20/2021 6:45:00 AM 12.72 54.896 0.196 8.24 0 10.09
5/20/2021 7:00:00 AM 12.73 54.914 0.196 8.3 0 10.29
5/20/2021 7:15:00 AM 12.74 54.932 0.195 8.35 0 10.43
5/20/2021 7:30:00 AM 12.76 54.968 0.195 8.41 0 10.58
5/20/2021 7:45:00 AM 12.83 55.094 0.195 8.5 0 10.76
5/20/2021 8:00:00 AM 12.96 55.328 0.195 8.6 0 10.93
5/20/2021 8:15:00 AM 13.09 55.562 0.195 8.7 0 11.03
5/20/2021 8:30:00 AM 13.25 55.85 0.195 8.8 0 11.13
5/20/2021 8:45:00 AM 13.49 56.282 0.194 8.91 0 11.23
5/20/2021 9:00:00 AM 13.69 56.642 0.194 9 0 11.3
5/20/2021 9:15:00 AM 13.87 56.966 0.194 9.07 0 11.32
5/20/2021 9:30:00 AM 14.05 57.29 0.194 9.12 0 11.31
5/20/2021 9:45:00 AM 14.33 57.794 0.193 9.17 0 11.31
5/20/2021 10:00:00 AM 14.66 58.388 0.193 9.24 0 11.31
5/20/2021 10:15:00 AM 14.93 58.874 0.193 9.28 0 11.28
5/20/2021 10:30:00 AM 15.28 59.504 0.193 9.33 0 11.23
5/20/2021 10:45:00 AM 15.57 60.026 0.193 9.37 0 11.19
5/20/2021 11:00:00 AM 15.88 60.584 0.193 9.42 0 11.18
5/20/2021 11:15:00 AM 16.18 61.124 0.193 9.46 0 11.17
5/20/2021 11:30:00 AM 16.58 61.844 0.193 9.51 0 11.15
5/20/2021 11:45:00 AM 16.89 62.402 0.193 9.55 0 11.1
5/20/2021 12:00:00 PM 17.3 63.14 0.193 9.6 0 11.09
5/20/2021 12:15:00 PM 17.53 63.554 0.193 9.63 0 11.04
5/20/2021 12:30:00 PM 17.94 64.292 0.193 9.67 0 11
5/20/2021 12:45:00 PM 18.25 64.85 0.193 9.7 0 10.95
5/20/2021 1:00:00 PM 18.05 64.49 0.193 9.66 0 10.62
5/20/2021 1:15:00 PM 17.99 64.382 0.193 9.59 0 10.45
5/20/2021 1:30:00 PM 18.31 64.958 0.193 9.6 0 10.51
5/20/2021 1:45:00 PM 18.28 64.904 0.193 9.58 0 10.49
5/20/2021 2:00:00 PM 18.76 65.768 0.193 9.66 0 10.67
5/20/2021 2:15:00 PM 18.99 66.182 0.193 9.71 0 10.77
5/20/2021 2:30:00 PM 19.2 66.56 0.193 9.74 0 10.81
5/20/2021 2:45:00 PM 19.42 66.956 0.193 9.78 0 10.8
5/20/2021 3:00:00 PM 19.62 67.316 0.193 9.81 0 10.79
5/20/2021 3:15:00 PM 19.86 67.748 0.193 9.85 0 10.77
5/20/2021 3:30:00 PM 19.75 67.55 0.193 9.85 0 10.59
5/20/2021 3:45:00 PM 19.93 67.874 0.193 9.8 0 10.47
5/20/2021 4:00:00 PM 20.13 68.234 0.193 9.84 0 10.55
5/20/2021 4:15:00 PM 20.29 68.522 0.193 9.87 0 10.58
5/20/2021 4:30:00 PM 20.24 68.432 0.194 9.86 0 10.44
5/20/2021 4:45:00 PM 19.99 67.982 0.194 9.79 0 10.25
5/20/2021 5:00:00 PM 19.99 67.982 0.194 9.77 0 10.29
5/20/2021 5:15:00 PM 19.79 67.622 0.194 9.7 0 10.05
5/20/2021 5:30:00 PM 19.69 67.442 0.195 9.63 0 9.89
5/20/2021 5:45:00 PM 19.45 67.01 0.195 9.52 0 9.64
5/20/2021 6:00:00 PM 19.33 66.794 0.196 9.42 0 9.57
5/20/2021 6:15:00 PM 19.26 66.668 0.196 9.39 0 9.62
5/20/2021 6:30:00 PM 19.15 66.47 0.196 9.35 0 9.62
5/20/2021 6:45:00 PM 19 66.2 0.197 9.27 0 9.51
5/20/2021 7:00:00 PM 18.78 65.804 0.197 9.09 0 9.29
5/20/2021 7:15:00 PM 18.59 65.462 0.198 8.93 0 9.17
5/20/2021 7:30:00 PM 18.42 65.156 0.198 8.83 0 9.06
5/20/2021 7:45:00 PM 18.26 64.868 0.199 8.73 0 8.95
5/20/2021 8:00:00 PM 18.08 64.544 0.199 8.64 0 8.85
5/20/2021 8:15:00 PM 17.88 64.184 0.2 8.55 0 8.73
5/20/2021 8:30:00 PM 17.68 63.824 0.2 8.47 0 8.61
5/20/2021 8:45:00 PM 17.49 63.482 0.201 8.41 0 8.54
5/20/2021 9:00:00 PM 17.3 63.14 0.201 8.37 0 8.51
5/20/2021 9:15:00 PM 17.13 62.834 0.201 8.34 0 8.51
5/20/2021 9:30:00 PM 16.95 62.51 0.201 8.32 0 8.52
5/20/2021 9:45:00 PM 16.79 62.222 0.202 8.3 0 8.55
5/20/2021 10:00:00 PM 16.63 61.934 0.202 8.29 0 8.57
5/20/2021 10:15:00 PM 16.46 61.628 0.203 8.27 0 8.61
5/20/2021 10:30:00 PM 16.3 61.34 0.203 8.26 0 8.64
5/20/2021 10:45:00 PM 16.15 61.07 0.203 8.26 0 8.68
5/20/2021 11:00:00 PM 16.01 60.818 0.204 8.25 0 8.71
5/20/2021 11:15:00 PM 15.87 60.566 0.204 8.24 0 8.74
5/20/2021 11:30:00 PM 15.73 60.314 0.204 8.24 0 8.76
5/20/2021 11:45:00 PM 15.6 60.08 0.204 8.23 0 8.79
5/21/2021 12:00:00 AM 15.48 59.864 0.204 8.23 0 8.83
5/21/2021 12:15:00 AM 15.35 59.63 0.205 8.22 0 8.85
5/21/2021 12:30:00 AM 15.24 59.432 0.205 8.21 0 8.88
5/21/2021 12:45:00 AM 15.12 59.216 0.205 8.21 0 8.91
5/21/2021 1:00:00 AM 15.01 59.018 0.205 8.2 0 8.94
5/21/2021 1:15:00 AM 14.9 58.82 0.206 8.2 0 8.96
5/21/2021 1:30:00 AM 14.81 58.658 0.206 8.19 0 8.98
5/21/2021 1:45:00 AM 14.71 58.478 0.206 8.19 0 9
5/21/2021 2:00:00 AM 14.62 58.316 0.206 8.19 0 9.03
5/21/2021 2:15:00 AM 14.53 58.154 0.206 8.19 0 9.05
5/21/2021 2:30:00 AM 14.44 57.992 0.206 8.18 0 9.07
5/21/2021 2:45:00 AM 14.35 57.83 0.206 8.18 0 9.09
5/21/2021 3:00:00 AM 14.27 57.686 0.207 8.18 0 9.11
5/21/2021 3:15:00 AM 14.2 57.56 0.207 8.17 0 9.13
5/21/2021 3:30:00 AM 14.12 57.416 0.207 8.17 0 9.15
5/21/2021 3:45:00 AM 14.05 57.29 0.207 8.17 0 9.17
5/21/2021 4:00:00 AM 13.98 57.164 0.207 8.16 0 9.18
5/21/2021 4:15:00 AM 13.92 57.056 0.207 8.16 0 9.2
5/21/2021 4:30:00 AM 14.01 57.218 0.206 8.16 0 9.16
5/21/2021 4:45:00 AM 13.93 57.074 0.206 8.15 0 9.18
5/21/2021 5:00:00 AM 13.86 56.948 0.206 8.15 0 9.2
5/21/2021 5:15:00 AM 13.79 56.822 0.207 8.14 0 9.22
5/21/2021 5:30:00 AM 13.72 56.696 0.207 8.14 0 9.24
5/21/2021 5:45:00 AM 13.65 56.57 0.207 8.14 0 9.29
5/21/2021 6:00:00 AM 13.58 56.444 0.207 8.15 0 9.38
5/21/2021 6:15:00 AM 13.52 56.336 0.207 8.17 0 9.51
5/21/2021 6:30:00 AM 13.46 56.228 0.207 8.19 0 9.66
5/21/2021 6:45:00 AM 13.43 56.174 0.207 8.24 0 9.86
5/21/2021 7:00:00 AM 13.45 56.21 0.207 8.31 0 10.13
5/21/2021 7:15:00 AM 13.5 56.3 0.206 8.42 0 10.4
5/21/2021 7:30:00 AM 13.52 56.336 0.206 8.51 0 10.59
5/21/2021 7:45:00 AM 13.53 56.354 0.206 8.57 0 10.67
5/21/2021 8:00:00 AM 13.57 56.426 0.206 8.64 0 10.79
5/21/2021 8:15:00 AM 13.81 56.858 0.206 8.81 0 11.05
5/21/2021 8:30:00 AM 13.98 57.164 0.205 8.92 0 11.16
5/21/2021 8:45:00 AM 14.18 57.524 0.205 9.01 0 11.23
5/21/2021 9:00:00 AM 14.4 57.92 0.205 9.08 0 11.27
5/21/2021 9:15:00 AM 14.62 58.316 0.204 9.15 0 11.32
5/21/2021 9:30:00 AM 14.86 58.748 0.204 9.21 0 11.35
5/21/2021 9:45:00 AM 15.12 59.216 0.204 9.26 0 11.37
5/21/2021 10:00:00 AM 15.42 59.756 0.204 9.32 0 11.38
5/21/2021 10:15:00 AM 15.72 60.296 0.204 9.38 0 11.4
5/21/2021 10:30:00 AM 16.04 60.872 0.203 9.43 0 11.39
5/21/2021 10:45:00 AM 16.37 61.466 0.203 9.49 0 11.38
5/21/2021 11:00:00 AM 16.72 62.096 0.203 9.57 0 11.35
5/21/2021 11:15:00 AM 17.07 62.726 0.203 9.62 0 11.34
5/21/2021 11:30:00 AM 17.42 63.356 0.203 9.67 0 11.32
5/21/2021 11:45:00 AM 17.79 64.022 0.203 9.72 0 11.29
5/21/2021 12:00:00 PM 18.11 64.598 0.203 9.76 0 11.26
5/21/2021 12:15:00 PM 18.43 65.174 0.202 9.8 0 11.25
5/21/2021 12:30:00 PM 18.76 65.768 0.202 9.84 0 11.23
5/21/2021 12:45:00 PM 19.05 66.29 0.202 9.88 0 11.2
5/21/2021 1:00:00 PM 19.37 66.866 0.202 9.91 0 11.18
5/21/2021 1:15:00 PM 19.65 67.37 0.202 9.94 0 11.16
5/21/2021 1:30:00 PM 19.92 67.856 0.202 9.97 0 11.13
5/21/2021 1:45:00 PM 20.15 68.27 0.202 10 0 11.1
5/21/2021 2:00:00 PM 20.33 68.594 0.202 10.03 0 11.08
5/21/2021 2:15:00 PM 20.51 68.918 0.202 10.06 0 11.06
5/21/2021 2:30:00 PM 20.59 69.062 0.202 10.07 0 11.01
5/21/2021 2:45:00 PM 20.78 69.404 0.202 10.08 0 11.01
5/21/2021 3:00:00 PM 20.89 69.602 0.202 10.1 0 10.96
5/21/2021 3:15:00 PM 21.02 69.836 0.202 10.11 0 10.94
5/21/2021 3:30:00 PM 21.13 70.034 0.202 10.12 0 10.89
5/21/2021 3:45:00 PM 21.2 70.16 0.202 10.12 0 10.85
5/21/2021 4:00:00 PM 21.18 70.124 0.202 10.11 0 10.73
5/21/2021 4:15:00 PM 21.16 70.088 0.202 10.08 0 10.59
5/21/2021 4:30:00 PM 21.21 70.17799 0.202 10.07 0 10.58
5/21/2021 4:45:00 PM 21.16 70.088 0.203 10.05 0 10.5
5/21/2021 5:00:00 PM 21.17 70.106 0.203 10.04 0 10.52
5/21/2021 5:15:00 PM 21.08 69.944 0.203 10.02 0 10.47
5/21/2021 5:30:00 PM 20.99 69.782 0.203 9.99 0 10.41
5/21/2021 5:45:00 PM 20.82 69.476 0.204 9.93 0 10.26
5/21/2021 6:00:00 PM 20.65 69.17 0.204 9.86 0 10.11
5/21/2021 6:15:00 PM 20.49 68.882 0.205 9.8 0 10
5/21/2021 6:30:00 PM 20.36 68.648 0.205 9.74 0 9.92
5/21/2021 6:45:00 PM 20.2 68.36 0.206 9.67 0 9.82
5/21/2021 7:00:00 PM 20.03 68.054 0.206 9.58 0 9.66
5/21/2021 7:15:00 PM 19.83 67.694 0.207 9.42 0 9.41
5/21/2021 7:30:00 PM 19.62 67.316 0.208 9.23 0 9.14
5/21/2021 7:45:00 PM 19.45 67.01 0.208 9.02 0 8.9
5/21/2021 8:00:00 PM 19.27 66.686 0.209 8.85 0 8.7
5/21/2021 8:15:00 PM 19.1 66.38 0.21 8.69 0 8.49
5/21/2021 8:30:00 PM 18.91 66.038 0.21 8.57 0 8.32
5/21/2021 8:45:00 PM 18.73 65.714 0.211 8.47 0 8.21
5/21/2021 9:00:00 PM 18.54 65.372 0.211 8.41 0 8.16
5/21/2021 9:15:00 PM 18.36 65.048 0.212 8.36 0 8.15
5/21/2021 9:30:00 PM 18.18 64.724 0.212 8.34 0 8.16
5/21/2021 9:45:00 PM 18.01 64.418 0.213 8.33 0 8.18
5/21/2021 10:00:00 PM 17.85 64.13 0.213 8.31 0 8.2
5/21/2021 10:15:00 PM 17.7 63.86 0.213 8.29 0 8.23
5/21/2021 10:30:00 PM 17.54 63.572 0.214 8.28 0 8.26
5/21/2021 10:45:00 PM 17.38 63.284 0.214 8.28 0 8.29
5/21/2021 11:00:00 PM 17.22 62.996 0.215 8.27 0 8.32
5/21/2021 11:15:00 PM 17.07 62.726 0.215 8.27 0 8.34
5/21/2021 11:30:00 PM 16.92 62.456 0.215 8.26 0 8.37
5/21/2021 11:45:00 PM 16.78 62.204 0.215 8.25 0 8.4
5/22/2021 12:00:00 AM 16.64 61.952 0.216 8.24 0 8.42
5/22/2021 12:15:00 AM 16.51 61.718 0.216 8.24 0 8.46
5/22/2021 12:30:00 AM 16.38 61.484 0.216 8.23 0 8.48
5/22/2021 12:45:00 AM 16.24 61.232 0.216 8.23 0 8.51
5/22/2021 1:00:00 AM 16.12 61.016 0.217 8.23 0 8.54
5/22/2021 1:15:00 AM 15.99 60.782 0.217 8.21 0 8.57
5/22/2021 1:30:00 AM 15.87 60.566 0.217 8.2 0 8.59
5/22/2021 1:45:00 AM 15.76 60.368 0.217 8.19 0 8.62
5/22/2021 2:00:00 AM 15.64 60.152 0.217 8.19 0 8.65
5/22/2021 2:15:00 AM 15.53 59.954 0.217 8.18 0 8.67
5/22/2021 2:30:00 AM 15.41 59.738 0.218 8.19 0 8.7
5/22/2021 2:45:00 AM 15.3 59.54 0.218 8.18 0 8.72
5/22/2021 3:00:00 AM 15.19 59.342 0.218 8.18 0 8.75
5/22/2021 3:15:00 AM 15.09 59.162 0.218 8.18 0 8.78
5/22/2021 3:30:00 AM 14.99 58.982 0.218 8.18 0 8.8
5/22/2021 3:45:00 AM 14.89 58.802 0.218 8.18 0 8.82
5/22/2021 4:00:00 AM 14.8 58.64 0.218 8.17 0 8.85
5/22/2021 4:15:00 AM 14.71 58.478 0.218 8.17 0 8.87
5/22/2021 4:30:00 AM 14.62 58.316 0.219 8.17 0 8.89
5/22/2021 4:45:00 AM 14.54 58.172 0.219 8.16 0 8.91
5/22/2021 5:00:00 AM 14.46 58.028 0.219 8.16 0 8.93
5/22/2021 5:15:00 AM 14.38 57.884 0.219 8.16 0 8.95
5/22/2021 5:30:00 AM 14.32 57.776 0.219 8.16 0 8.97
5/22/2021 5:45:00 AM 14.25 57.65 0.219 8.17 0 9.01
5/22/2021 6:00:00 AM 14.19 57.542 0.219 8.18 0 9.11
5/22/2021 6:15:00 AM 14.15 57.47 0.219 8.21 0 9.31
5/22/2021 6:30:00 AM 14.13 57.434 0.219 8.27 0 9.6
5/22/2021 6:45:00 AM 14.11 57.398 0.219 8.34 0 9.85
5/22/2021 7:00:00 AM 14.11 57.398 0.218 8.4 0 10.08
5/22/2021 7:15:00 AM 14.13 57.434 0.218 8.48 0 10.31
5/22/2021 7:30:00 AM 14.14 57.452 0.218 8.57 0 10.49
5/22/2021 7:45:00 AM 14.17 57.506 0.218 8.65 0 10.62
5/22/2021 8:00:00 AM 14.2 57.56 0.217 8.74 0 10.79
5/22/2021 8:15:00 AM 14.27 57.686 0.217 8.85 0 10.97
5/22/2021 8:30:00 AM 14.41 57.938 0.216 9 0 11.25
5/22/2021 8:45:00 AM 14.54 58.172 0.216 9.13 0 11.49
5/22/2021 9:00:00 AM 14.69 58.442 0.216 9.23 0 11.63
5/22/2021 9:15:00 AM 14.75 58.55 0.215 9.28 0 11.61
5/22/2021 9:30:00 AM 14.83 58.694 0.215 9.31 0 11.53
5/22/2021 9:45:00 AM 15.15 59.27 0.215 9.37 0 11.62
5/22/2021 10:00:00 AM 15.35 59.63 0.214 9.44 0 11.74
5/22/2021 10:15:00 AM 15.85 60.53 0.213 9.51 0 11.8
5/22/2021 10:30:00 AM 16.2 61.16 0.213 9.59 0 11.86
5/22/2021 10:45:00 AM 16.38 61.484 0.212 9.64 0 11.87
5/22/2021 11:00:00 AM 16.81 62.258 0.212 9.69 0 11.89
5/22/2021 11:15:00 AM 16.97 62.546 0.212 9.74 0 11.88
5/22/2021 11:30:00 AM 16.93 62.474 0.211 9.75 0 11.74
5/22/2021 11:45:00 AM 17.22 62.996 0.211 9.76 0 11.72
5/22/2021 12:00:00 PM 17.52 63.536 0.211 9.82 0 11.79
5/22/2021 12:15:00 PM 17.6 63.68 0.21 9.84 0 11.79
5/22/2021 12:30:00 PM 17.84 64.112 0.21 9.86 0 11.78
5/22/2021 12:45:00 PM 18.02 64.436 0.21 9.89 0 11.76
5/22/2021 1:00:00 PM 18.18 64.724 0.21 9.91 0 11.73
5/22/2021 1:15:00 PM 18.47 65.246 0.21 9.94 0 11.73
5/22/2021 1:30:00 PM 18.83 65.894 0.21 9.98 0 11.73
5/22/2021 1:45:00 PM 19.07 66.326 0.21 10 0 11.69
5/22/2021 2:00:00 PM 19.1 66.38 0.21 10.01 0 11.56
5/22/2021 2:15:00 PM 19.11 66.398 0.21 10 0 11.44
5/22/2021 2:30:00 PM 19.14 66.452 0.21 9.99 0 11.33
5/22/2021 2:45:00 PM 19.13 66.434 0.21 9.97 0 11.21
5/22/2021 3:00:00 PM 19.2 66.56 0.21 9.95 1.61 11.16
5/22/2021 3:15:00 PM 19.38 66.884 0.21 9.97 1.53 11.27
5/22/2021 3:30:00 PM 19.43 66.974 0.21 9.99 1.54 11.32
5/22/2021 3:45:00 PM 19.43 66.974 0.21 9.98 1.6 11.26
5/22/2021 4:00:00 PM 19.47 67.046 0.21 9.98 2.06 11.27
5/22/2021 4:15:00 PM 19.5 67.1 0.21 9.98 1.54 11.25
5/22/2021 4:30:00 PM 19.31 66.758 0.21 9.92 1.54 10.81
5/22/2021 4:45:00 PM 19.22 66.596 0.211 9.85 1.52 10.55
5/22/2021 5:00:00 PM 19.14 66.452 0.211 9.81 1.55 10.51
5/22/2021 5:15:00 PM 19.09 66.362 0.211 9.8 1.44 10.61
5/22/2021 5:30:00 PM 18.97 66.146 0.211 9.74 1.53 10.42
5/22/2021 5:45:00 PM 18.79 65.82201 0.213 9.58 1.48 9.76
5/22/2021 6:00:00 PM 18.61 65.498 0.214 9.35 1.49 9.18
5/22/2021 6:15:00 PM 18.46 65.228 0.215 9.12 1.46 8.84
5/22/2021 6:30:00 PM 18.35 65.03 0.215 8.99 1.49 8.86
5/22/2021 6:45:00 PM 18.22 64.796 0.216 8.83 1.49 8.74
5/22/2021 7:00:00 PM 18.09 64.562 0.217 8.69 1.53 8.62
5/22/2021 7:15:00 PM 17.97 64.346 0.217 8.6 1.53 8.58
5/22/2021 7:30:00 PM 17.83 64.094 0.218 8.51 1.54 8.46
5/22/2021 7:45:00 PM 17.7 63.86 0.218 8.43 1.43 8.39
5/22/2021 8:00:00 PM 17.58 63.644 0.219 8.39 1.4 8.34
5/22/2021 8:15:00 PM 17.46 63.428 0.219 8.36 1.42 8.32
5/22/2021 8:30:00 PM 17.35 63.23 0.22 8.33 1.41 8.29
5/22/2021 8:45:00 PM 17.25 63.05 0.22 8.3 1.42 8.27
5/22/2021 9:00:00 PM 17.14 62.852 0.221 8.27 1.47 8.25
5/22/2021 9:15:00 PM 17.03 62.654 0.221 8.26 1.39 8.26
5/22/2021 9:30:00 PM 16.94 62.492 0.222 8.26 1.46 8.27
5/22/2021 9:45:00 PM 16.84 62.312 0.222 8.25 1.55 8.28
5/22/2021 10:00:00 PM 16.75 62.15 0.222 8.23 1.41 8.3
5/22/2021 10:15:00 PM 16.67 62.006 0.223 8.21 1.43 8.32
5/22/2021 10:30:00 PM 16.6 61.88 0.223 8.21 1.41 8.33
5/22/2021 10:45:00 PM 16.52 61.736 0.223 8.22 1.43 8.35
5/22/2021 11:00:00 PM 16.45 61.61 0.224 8.21 1.47 8.36
5/22/2021 11:15:00 PM 16.38 61.484 0.224 8.21 1.39 8.38
5/22/2021 11:30:00 PM 16.31 61.358 0.224 8.19 1.46 8.39
5/22/2021 11:45:00 PM 16.25 61.25 0.224 8.19 1.44 8.4
5/23/2021 12:00:00 AM 16.2 61.16 0.224 8.18 1.43 8.42
5/23/2021 12:15:00 AM 16.14 61.052 0.224 8.18 1.48 8.41
5/23/2021 12:30:00 AM 16.09 60.962 0.225 8.18 1.44 8.42
5/23/2021 12:45:00 AM 16.04 60.872 0.225 8.18 1.45 8.44
5/23/2021 1:00:00 AM 15.98 60.764 0.225 8.17 1.43 8.46
5/23/2021 1:15:00 AM 15.94 60.692 0.225 8.18 1.49 8.46
5/23/2021 1:30:00 AM 15.89 60.602 0.225 8.18 1.38 8.47
5/23/2021 1:45:00 AM 15.85 60.53 0.225 8.18 1.48 8.49
5/23/2021 2:00:00 AM 15.8 60.44 0.225 8.18 1.42 8.5
5/23/2021 2:15:00 AM 15.77 60.386 0.225 8.18 1.45 8.51
5/23/2021 2:30:00 AM 15.73 60.314 0.225 8.18 1.43 8.52
5/23/2021 2:45:00 AM 15.69 60.242 0.226 8.19 1.5 8.52
5/23/2021 3:00:00 AM 15.65 60.17 0.226 8.18 1.48 8.53
5/23/2021 3:15:00 AM 15.61 60.098 0.226 8.18 1.49 8.54
5/23/2021 3:30:00 AM 15.55 59.99 0.226 8.16 1.51 8.55
5/23/2021 3:45:00 AM 15.5 59.9 0.226 8.16 1.46 8.57
5/23/2021 4:00:00 AM 15.46 59.828 0.226 8.16 1.57 8.57
5/23/2021 4:15:00 AM 15.42 59.756 0.226 8.16 1.51 8.59
5/23/2021 4:30:00 AM 15.39 59.702 0.227 8.15 1.47 8.59
5/23/2021 4:45:00 AM 15.36 59.648 0.227 8.15 1.51 8.6
5/23/2021 5:00:00 AM 15.33 59.594 0.227 8.15 1.61 8.61
5/23/2021 5:15:00 AM 15.28 59.504 0.227 8.15 1.54 8.61
5/23/2021 5:30:00 AM 15.25 59.45 0.227 8.14 1.55 8.62
5/23/2021 5:45:00 AM 15.22 59.396 0.227 8.15 1.49 8.65
5/23/2021 6:00:00 AM 15.18 59.324 0.227 8.16 1.54 8.74
5/23/2021 6:15:00 AM 15.17 59.306 0.227 8.19 1.44 8.89
5/23/2021 6:30:00 AM 15.13 59.234 0.227 8.24 1.47 9.13
5/23/2021 6:45:00 AM 15.14 59.252 0.226 8.32 1.49 9.5
5/23/2021 7:00:00 AM 15.17 59.306 0.226 8.41 1.55 9.76
5/23/2021 7:15:00 AM 15.18 59.324 0.226 8.48 1.51 9.92
5/23/2021 7:30:00 AM 15.23 59.414 0.225 8.59 1.56 10.17
5/23/2021 7:45:00 AM 15.33 59.594 0.225 8.77 1.51 10.56
5/23/2021 8:00:00 AM 15.39 59.702 0.224 8.89 1.42 10.68
5/23/2021 8:15:00 AM 15.48 59.864 0.224 9 1.46 10.88
5/23/2021 8:30:00 AM 15.62 60.116 0.223 9.13 1.43 11.09
5/23/2021 8:45:00 AM 15.79 60.422 0.223 9.23 1.44 11.27
5/23/2021 9:00:00 AM 15.97 60.746 0.222 9.33 1.5 11.43
5/23/2021 9:15:00 AM 16.15 61.07 0.222 9.41 1.46 11.57
5/23/2021 9:30:00 AM 16.26 61.268 0.221 9.46 1.46 11.56
5/23/2021 9:45:00 AM 16.38 61.484 0.221 9.5 1.46 11.6
5/23/2021 10:00:00 AM 16.53 61.754 0.22 9.55 1.92 11.65
5/23/2021 10:15:00 AM 16.74 62.132 0.22 9.58 1.56 11.62
5/23/2021 10:30:00 AM 16.93 62.474 0.219 9.64 1.49 11.73
5/23/2021 10:45:00 AM 16.92 62.456 0.219 9.64 1.51 11.51
5/23/2021 11:00:00 AM 17.05 62.69 0.219 9.65 1.73 11.52
5/23/2021 11:15:00 AM 17.21 62.978 0.219 9.67 1.54 11.54
5/23/2021 11:30:00 AM 17.24 63.032 0.218 9.68 1.43 11.46
5/23/2021 11:45:00 AM 17.47 63.446 0.218 9.72 1.5 11.57
5/23/2021 12:00:00 PM 17.57 63.626 0.218 9.72 1.48 11.54
5/23/2021 12:15:00 PM 17.39 63.302 0.219 9.63 1.47 10.85
5/23/2021 12:30:00 PM 17.74 63.932 0.219 9.6 1.46 10.94
5/23/2021 12:45:00 PM 17.81 64.058 0.218 9.65 1.49 11.05
5/23/2021 1:00:00 PM 17.75 63.95 0.218 9.66 1.47 11.15
5/23/2021 1:15:00 PM 17.72 63.896 0.218 9.62 1.45 10.84
5/23/2021 1:30:00 PM 17.65 63.77 0.219 9.52 1.46 10.47
5/23/2021 1:45:00 PM 17.65 63.77 0.219 9.51 1.47 10.57
5/23/2021 2:00:00 PM 17.64 63.752 0.219 9.52 1.47 10.73
5/23/2021 2:15:00 PM 17.79 64.022 0.218 9.6 1.51 11.11
5/23/2021 2:30:00 PM 17.94 64.292 0.218 9.66 1.41 11.38
5/23/2021 2:45:00 PM 18.09 64.562 0.218 9.72 1.45 11.59
5/23/2021 3:00:00 PM 18.29 64.922 0.217 9.8 1.46 11.74
5/23/2021 3:15:00 PM 18.2 64.76 0.217 9.8 1.55 11.36
5/23/2021 3:30:00 PM 18.03 64.454 0.219 9.64 1.49 10.44
5/23/2021 3:45:00 PM 17.94 64.292 0.219 9.56 1.47 10.24
5/23/2021 4:00:00 PM 17.84 64.112 0.219 9.46 1.43 10.03
5/23/2021 4:15:00 PM 17.76 63.968 0.219 9.4 1.39 9.96
5/23/2021 4:30:00 PM 17.7 63.86 0.22 9.38 1.39 10.11
5/23/2021 4:45:00 PM 17.66 63.788 0.219 9.43 1.41 10.44
5/23/2021 5:00:00 PM 17.54 63.572 0.22 9.42 1.46 10.38
5/23/2021 5:15:00 PM 17.42 63.356 0.22 9.37 1.41 10.25
5/23/2021 5:30:00 PM 17.36 63.248 0.22 9.38 1.46 10.41
5/23/2021 5:45:00 PM 17.28 63.104 0.22 9.37 1.37 10.46
5/23/2021 6:00:00 PM 17.19 62.942 0.22 9.38 1.4 10.45
5/23/2021 6:15:00 PM 17.05 62.69 0.221 9.26 1.39 10.11
5/23/2021 6:30:00 PM 16.92 62.456 0.222 9.19 1.39 10.04
5/23/2021 6:45:00 PM 16.8 62.24 0.222 9.13 1.34 9.99
5/23/2021 7:00:00 PM 16.68 62.024 0.222 9.08 1.39 9.95
5/23/2021 7:15:00 PM 16.54 61.772 0.223 8.99 1.38 9.79
5/23/2021 7:30:00 PM 16.38 61.484 0.223 8.88 1.35 9.66
5/23/2021 7:45:00 PM 16.23 61.214 0.224 8.75 1.36 9.48
5/23/2021 8:00:00 PM 16.11 60.998 0.224 8.62 1.39 9.29
5/23/2021 8:15:00 PM 15.97 60.746 0.225 8.51 1.4 9.12
5/23/2021 8:30:00 PM 15.84 60.512 0.225 8.41 1.39 8.93
5/23/2021 8:45:00 PM 15.7 60.26 0.226 8.33 1.36 8.8
5/23/2021 9:00:00 PM 15.56 60.008 0.226 8.27 1.74 8.73
5/23/2021 9:15:00 PM 15.43 59.774 0.227 8.23 1.46 8.7
5/23/2021 9:30:00 PM 15.29 59.522 0.227 8.2 1.45 8.69
5/23/2021 9:45:00 PM 15.16 59.288 0.228 8.17 1.44 8.71
5/23/2021 10:00:00 PM 15.03 59.054 0.228 8.16 1.42 8.72
5/23/2021 10:15:00 PM 14.9 58.82 0.228 8.14 1.42 8.75
5/23/2021 10:30:00 PM 14.78 58.604 0.228 8.13 1.59 8.77
5/23/2021 10:45:00 PM 14.66 58.388 0.229 8.12 1.58 8.8
5/23/2021 11:00:00 PM 14.55 58.19 0.229 8.12 1.44 8.83
5/23/2021 11:15:00 PM 14.43 57.974 0.229 8.11 1.48 8.85
5/23/2021 11:30:00 PM 14.33 57.794 0.229 8.11 1.53 8.87
5/23/2021 11:45:00 PM 14.23 57.614 0.229 8.1 1.45 8.9
5/24/2021 12:00:00 AM 14.13 57.434 0.229 8.11 1.51 8.92
5/24/2021 12:15:00 AM 14.03 57.254 0.23 8.09 1.46 8.94
5/24/2021 12:30:00 AM 13.94 57.092 0.23 8.1 1.46 8.96
5/24/2021 12:45:00 AM 14.01 57.218 0.229 8.09 0 8.93
5/24/2021 1:00:00 AM 13.92 57.056 0.229 8.06 0 8.95
5/24/2021 1:15:00 AM 13.81 56.858 0.229 8.05 0 8.98
5/24/2021 1:30:00 AM 13.7 56.66 0.229 8.03 0 9
5/24/2021 1:45:00 AM 13.6 56.48 0.229 8.02 0 9.03
5/24/2021 2:00:00 AM 13.51 56.318 0.229 8.02 0 9.05
5/24/2021 2:15:00 AM 13.41 56.138 0.23 8.01 0 9.07
5/24/2021 2:30:00 AM 13.3 55.94 0.23 8.01 0 9.09
5/24/2021 2:45:00 AM 13.2 55.76 0.23 8 0 9.12
5/24/2021 3:00:00 AM 13.1 55.58 0.23 7.99 0 9.15
5/24/2021 3:15:00 AM 13 55.4 0.229 7.99 0 9.17
5/24/2021 3:30:00 AM 12.89 55.202 0.23 7.98 0 9.2
5/24/2021 3:45:00 AM 12.79 55.022 0.23 7.99 0 9.23
5/24/2021 4:00:00 AM 12.69 54.842 0.23 7.99 0 9.25
5/24/2021 4:15:00 AM 12.6 54.68 0.229 7.98 0 9.28
5/24/2021 4:30:00 AM 12.5 54.5 0.23 7.98 0 9.31
5/24/2021 4:45:00 AM 12.41 54.338 0.23 7.98 0 9.33
5/24/2021 5:00:00 AM 12.32 54.176 0.229 7.97 0 9.36
5/24/2021 5:15:00 AM 12.23 54.014 0.229 7.97 0 9.38
5/24/2021 5:30:00 AM 12.14 53.852 0.23 7.97 1.62 9.41
5/24/2021 5:45:00 AM 12.06 53.708 0.23 7.98 1.48 9.48
5/24/2021 6:00:00 AM 11.99 53.582 0.23 8 1.48 9.61
5/24/2021 6:15:00 AM 11.93 53.474 0.23 8.04 1.51 9.84
5/24/2021 6:30:00 AM 11.89 53.402 0.229 8.11 1.44 10.14
5/24/2021 6:45:00 AM 11.88 53.384 0.229 8.21 1.46 10.49
5/24/2021 7:00:00 AM 11.89 53.402 0.229 8.33 1.48 10.79
5/24/2021 7:15:00 AM 11.91 53.438 0.228 8.46 1.43 11.07
5/24/2021 7:30:00 AM 11.95 53.51 0.228 8.6 1.44 11.34
5/24/2021 7:45:00 AM 12.08 53.744 0.227 8.78 1.51 11.66
5/24/2021 8:00:00 AM 12.15 53.87 0.227 8.9 1.41 11.83
5/24/2021 8:15:00 AM 12.3 54.14 0.227 9 1.45 11.99
5/24/2021 8:30:00 AM 12.48 54.464 0.226 9.09 1.48 12.08
5/24/2021 8:45:00 AM 12.67 54.806 0.226 9.17 1.44 12.15
5/24/2021 9:00:00 AM 12.91 55.238 0.225 9.24 1.48 12.19
5/24/2021 9:15:00 AM 13.18 55.724 0.225 9.3 1.47 12.21
5/24/2021 9:30:00 AM 13.48 56.264 0.225 9.35 1.49 12.24
5/24/2021 9:45:00 AM 13.75 56.75 0.224 9.41 1.52 12.28
5/24/2021 10:00:00 AM 14.06 57.308 0.224 9.45 1.5 12.29
5/24/2021 10:15:00 AM 14.35 57.83 0.223 9.49 1.51 12.28
5/24/2021 10:30:00 AM 14.64 58.352 0.223 9.53 1.49 12.3
5/24/2021 10:45:00 AM 14.91 58.838 0.223 9.56 1.5 12.25
5/24/2021 11:00:00 AM 15.25 59.45 0.223 9.6 1.43 12.25
5/24/2021 11:15:00 AM 15.6 60.08 0.222 9.64 1.46 12.21
5/24/2021 11:30:00 AM 15.94 60.692 0.222 9.67 1.48 12.18
5/24/2021 11:45:00 AM 16.25 61.25 0.222 9.69 1.42 12.1
5/24/2021 12:00:00 PM 16.64 61.952 0.222 9.73 1.44 12.11
5/24/2021 12:15:00 PM 17.01 62.618 0.222 9.77 1.46 12.06
5/24/2021 12:30:00 PM 17.37 63.266 0.222 9.8 1.43 12.04
5/24/2021 12:45:00 PM 17.68 63.824 0.221 9.83 1.42 12.01
5/24/2021 1:00:00 PM 17.91 64.238 0.221 9.85 1.44 11.96
5/24/2021 1:15:00 PM 18.14 64.652 0.221 9.86 1.42 11.95
5/24/2021 1:30:00 PM 18.42 65.156 0.221 9.89 1.43 11.95
5/24/2021 1:45:00 PM 18.65 65.57 0.221 9.92 1.39 11.94
5/24/2021 2:00:00 PM 18.74 65.732 0.221 9.92 1.4 11.78
5/24/2021 2:15:00 PM 18.78 65.804 0.221 9.91 1.41 11.63
5/24/2021 2:30:00 PM 19.04 66.272 0.221 9.93 1.38 11.62
5/24/2021 2:45:00 PM 19.31 66.758 0.221 9.96 1.32 11.65
5/24/2021 3:00:00 PM 19.53 67.154 0.221 9.99 1.54 11.69
5/24/2021 3:15:00 PM 19.68 67.424 0.221 10.01 1.41 11.68
5/24/2021 3:30:00 PM 19.87 67.766 0.221 10.03 1.45 11.64
5/24/2021 3:45:00 PM 19.98 67.964 0.221 10.03 1.45 11.57
5/24/2021 4:00:00 PM 20.04 68.07201 0.221 10.03 1.36 11.49
5/24/2021 4:15:00 PM 20.03 68.054 0.221 10.03 1.59 11.43
5/24/2021 4:30:00 PM 20.01 68.018 0.221 10.01 1.47 11.38
5/24/2021 4:45:00 PM 19.99 67.982 0.221 10 1.44 11.33
5/24/2021 5:00:00 PM 19.93 67.874 0.222 9.99 1.4 11.28
5/24/2021 5:15:00 PM 19.84 67.712 0.222 9.96 1.42 11.2
5/24/2021 5:30:00 PM 19.63 67.334 0.222 9.92 1.37 10.89
5/24/2021 5:45:00 PM 19.42 66.956 0.223 9.83 1.4 10.56
5/24/2021 6:00:00 PM 19.18 66.524 0.223 9.75 1.41 10.34
5/24/2021 6:15:00 PM 19.05 66.29 0.224 9.71 1.46 10.39
5/24/2021 6:30:00 PM 18.88 65.984 0.224 9.65 1.37 10.23
5/24/2021 6:45:00 PM 18.69 65.642 0.225 9.57 1.44 10.07
5/24/2021 7:00:00 PM 18.48 65.264 0.226 9.45 1.39 9.78
5/24/2021 7:15:00 PM 18.27 64.886 0.227 9.29 1.38 9.46
5/24/2021 7:30:00 PM 18.04 64.472 0.228 9.11 1.38 9.2
5/24/2021 7:45:00 PM 17.82 64.076 0.228 8.92 1.33 9.01
5/24/2021 8:00:00 PM 17.6 63.68 0.229 8.74 1.35 8.84
5/24/2021 8:15:00 PM 17.41 63.338 0.23 8.59 1.32 8.67
5/24/2021 8:30:00 PM 17.2 62.96 0.231 8.46 1.31 8.51
5/24/2021 8:45:00 PM 17.04 62.672 0.231 8.36 1.34 8.38
5/24/2021 9:00:00 PM 16.85 62.33 0.232 8.3 1.4 8.31
5/24/2021 9:15:00 PM 16.67 62.006 0.232 8.24 1.4 8.29
5/24/2021 9:30:00 PM 16.51 61.718 0.232 8.2 1.36 8.29
5/24/2021 9:45:00 PM 16.34 61.412 0.233 8.18 1.39 8.3
5/24/2021 10:00:00 PM 16.19 61.142 0.234 8.16 1.37 8.33
5/24/2021 10:15:00 PM 16.04 60.872 0.234 8.14 1.36 8.36
5/24/2021 10:30:00 PM 15.92 60.656 0.234 8.13 1.42 8.38
5/24/2021 10:45:00 PM 15.78 60.404 0.235 8.12 1.35 8.41
5/24/2021 11:00:00 PM 15.68 60.224 0.235 8.12 1.39 8.44
5/24/2021 11:15:00 PM 15.58 60.044 0.236 8.12 1.35 8.46
5/24/2021 11:30:00 PM 15.49 59.882 0.236 8.12 1.35 8.48
5/24/2021 11:45:00 PM 15.41 59.738 0.237 8.13 1.4 8.5
5/25/2021 12:00:00 AM 15.32 59.576 0.237 8.12 1.42 8.52
5/25/2021 12:15:00 AM 15.24 59.432 0.237 8.12 1.39 8.54
5/25/2021 12:30:00 AM 15.16 59.288 0.238 8.11 1.32 8.55
5/25/2021 12:45:00 AM 15.09 59.162 0.238 8.12 2.45 8.57
5/25/2021 1:00:00 AM 15.03 59.054 0.238 8.11 1.42 8.58
5/25/2021 1:15:00 AM 14.96 58.928 0.239 8.11 1.45 8.6
5/25/2021 1:30:00 AM 14.89 58.802 0.239 8.11 1.47 8.62
5/25/2021 1:45:00 AM 14.83 58.694 0.239 8.11 1.41 8.63
5/25/2021 2:00:00 AM 14.77 58.586 0.239 8.11 1.42 8.64
5/25/2021 2:15:00 AM 14.71 58.478 0.239 8.12 1.4 8.66
5/25/2021 2:30:00 AM 14.65 58.37 0.239 8.12 1.42 8.68
5/25/2021 2:45:00 AM 14.59 58.262 0.24 8.11 1.4 8.69
5/25/2021 3:00:00 AM 14.53 58.154 0.24 8.11 1.38 8.7
5/25/2021 3:15:00 AM 14.48 58.064 0.24 8.11 1.44 8.71
5/25/2021 3:30:00 AM 14.43 57.974 0.24 8.11 1.38 8.72
5/25/2021 3:45:00 AM 14.38 57.884 0.24 8.11 1.4 8.74
5/25/2021 4:00:00 AM 14.34 57.812 0.241 8.11 1.47 8.75
5/25/2021 4:15:00 AM 14.3 57.74 0.241 8.1 1.44 8.76
5/25/2021 4:30:00 AM 14.26 57.668 0.241 8.1 1.39 8.77
5/25/2021 4:45:00 AM 14.22 57.596 0.241 8.1 1.4 8.78
5/25/2021 5:00:00 AM 14.18 57.524 0.241 8.09 1.43 8.79
5/25/2021 5:15:00 AM 14.14 57.452 0.241 8.08 1.39 8.79
5/25/2021 5:30:00 AM 14.11 57.398 0.241 8.08 1.47 8.8
5/25/2021 5:45:00 AM 14.08 57.344 0.241 8.08 1.41 8.83
5/25/2021 6:00:00 AM 14.05 57.29 0.241 8.09 1.43 8.9
5/25/2021 6:15:00 AM 14.03 57.254 0.241 8.11 1.43 9.01
5/25/2021 6:30:00 AM 14.01 57.218 0.241 8.14 1.42 9.15
5/25/2021 6:45:00 AM 14 57.2 0.241 8.18 1.4 9.34
5/25/2021 7:00:00 AM 13.99 57.182 0.241 8.24 1.4 9.6
5/25/2021 7:15:00 AM 13.99 57.182 0.24 8.3 1.37 9.75
5/25/2021 7:30:00 AM 13.99 57.182 0.24 8.36 1.44 9.99
5/25/2021 7:45:00 AM 14.02 57.236 0.24 8.47 1.42 10.27
5/25/2021 8:00:00 AM 14.06 57.308 0.239 8.64 1.44 10.68
5/25/2021 8:15:00 AM 14.1 57.38 0.239 8.78 1.46 10.95
5/25/2021 8:30:00 AM 14.12 57.416 0.238 8.85 1.39 11.03
5/25/2021 8:45:00 AM 14.22 57.596 0.237 9 1.42 11.4
5/25/2021 9:00:00 AM 14.31 57.758 0.237 9.11 1.38 11.62
5/25/2021 9:15:00 AM 14.46 58.028 0.236 9.23 1.39 11.91
5/25/2021 9:30:00 AM 14.68 58.424 0.235 9.34 1.44 12.14
5/25/2021 9:45:00 AM 15.02 59.036 0.234 9.44 1.46 12.26
5/25/2021 10:00:00 AM 15.32 59.576 0.233 9.54 1.53 12.4
5/25/2021 10:15:00 AM 15.49 59.882 0.233 9.59 1.48 12.38
5/25/2021 10:30:00 AM 15.82 60.476 0.232 9.63 1.44 12.42
5/25/2021 10:45:00 AM 16.09 60.962 0.231 9.69 1.41 12.39
5/25/2021 11:00:00 AM 16.05 60.89 0.231 9.71 1.4 12.28
5/25/2021 11:15:00 AM 16.18 61.124 0.231 9.72 1.35 12.25
5/25/2021 11:30:00 AM 16.84 62.312 0.23 9.79 1.38 12.37
5/25/2021 11:45:00 AM 17.04 62.672 0.229 9.83 1.41 12.3
5/25/2021 12:00:00 PM 17.58 63.644 0.229 9.87 1.43 12.31
5/25/2021 12:15:00 PM 18.21 64.778 0.228 9.93 1.41 12.25
5/25/2021 12:30:00 PM 18.65 65.57 0.228 9.97 1.36 12.17
5/25/2021 12:45:00 PM 18.85 65.93 0.228 9.98 1.4 12.06
5/25/2021 1:00:00 PM 19.07 66.326 0.228 9.99 1.4 12.03
5/25/2021 1:15:00 PM 19.34 66.812 0.228 10.01 1.47 11.98
5/25/2021 1:30:00 PM 19.7 67.46 0.227 10.04 1.38 11.93
5/25/2021 1:45:00 PM 20.09 68.162 0.227 10.06 1.43 11.88
5/25/2021 2:00:00 PM 20.46 68.828 0.227 10.1 1.42 11.86
5/25/2021 2:15:00 PM 20.44 68.792 0.227 10.1 1.35 11.71
5/25/2021 2:30:00 PM 20.75 69.35 0.227 10.12 1.44 11.74
5/25/2021 2:45:00 PM 21.07 69.926 0.227 10.15 1.43 11.75
5/25/2021 3:00:00 PM 21.25 70.25 0.227 10.17 1.42 11.72
5/25/2021 3:15:00 PM 21.47 70.646 0.227 10.18 1.42 11.68
5/25/2021 3:30:00 PM 21.7 71.06 0.227 10.2 1.47 11.63
5/25/2021 3:45:00 PM 21.79 71.222 0.227 10.21 1.44 11.54
5/25/2021 4:00:00 PM 21.88 71.384 0.227 10.21 1.4 11.45
5/25/2021 4:15:00 PM 21.95 71.51 0.227 10.21 1.48 11.34
5/25/2021 4:30:00 PM 21.94 71.492 0.227 10.2 1.43 11.2
5/25/2021 4:45:00 PM 21.85 71.33 0.227 10.18 1.42 11.06
5/25/2021 5:00:00 PM 21.6 70.88 0.228 10.12 1.68 10.83
5/25/2021 5:15:00 PM 21.49 70.682 0.228 10.09 1.43 10.78
5/25/2021 5:30:00 PM 21.25 70.25 0.228 10.03 1.44 10.59
5/25/2021 5:45:00 PM 21.05 69.89 0.229 9.98 1.37 10.39
5/25/2021 6:00:00 PM 20.73 69.314 0.23 9.84 1.39 9.78
5/25/2021 6:15:00 PM 20.55 68.99 0.231 9.73 1.38 9.6
5/25/2021 6:30:00 PM 20.32 68.576 0.232 9.59 1.34 9.3
5/25/2021 6:45:00 PM 20.1 68.18 0.233 9.39 1.34 8.85
5/25/2021 7:00:00 PM 19.93 67.874 0.234 9.25 1.3 8.81
5/25/2021 7:15:00 PM 19.79 67.622 0.235 9.15 1.34 8.83
5/25/2021 7:30:00 PM 19.64 67.352 0.236 8.99 1.3 8.6
5/25/2021 7:45:00 PM 19.47 67.046 0.237 8.82 1.35 8.42
5/25/2021 8:00:00 PM 19.31 66.758 0.238 8.71 1.35 8.33
5/25/2021 8:15:00 PM 19.16 66.488 0.238 8.57 1.26 8.1
5/25/2021 8:30:00 PM 19.01 66.218 0.239 8.45 1.28 7.92
5/25/2021 8:45:00 PM 18.85 65.93 0.24 8.38 1.3 7.81
5/25/2021 9:00:00 PM 18.7 65.66 0.24 8.32 1.32 7.74
5/25/2021 9:15:00 PM 18.57 65.426 0.241 8.28 1.3 7.72
5/25/2021 9:30:00 PM 18.43 65.174 0.241 8.26 1.29 7.71
5/25/2021 9:45:00 PM 18.29 64.922 0.242 8.24 1.3 7.73
5/25/2021 10:00:00 PM 18.16 64.688 0.242 8.22 1.33 7.75
5/25/2021 10:15:00 PM 18.03 64.454 0.243 8.22 1.33 7.78
5/25/2021 10:30:00 PM 17.91 64.238 0.243 8.21 1.31 7.8
5/25/2021 10:45:00 PM 17.78 64.004 0.244 8.18 1.28 7.83
5/25/2021 11:00:00 PM 17.67 63.806 0.244 8.18 1.32 7.86
5/25/2021 11:15:00 PM 17.56 63.608 0.244 8.17 1.29 7.88
5/25/2021 11:30:00 PM 17.44 63.392 0.245 8.16 1.27 7.9
5/25/2021 11:45:00 PM 17.34 63.212 0.245 8.16 1.31 7.93
5/26/2021 12:00:00 AM 17.24 63.032 0.246 8.16 1.3 7.95
5/26/2021 12:15:00 AM 17.14 62.852 0.246 8.16 1.32 7.96
5/26/2021 12:30:00 AM 17.03 62.654 0.246 8.16 1.29 7.99
5/26/2021 12:45:00 AM 16.92 62.456 0.247 8.15 1.31 8.01
5/26/2021 1:00:00 AM 16.82 62.276 0.247 8.14 1.34 8.03
5/26/2021 1:15:00 AM 16.71 62.078 0.247 8.13 1.37 8.06
5/26/2021 1:30:00 AM 16.63 61.934 0.247 8.13 1.34 8.08
5/26/2021 1:45:00 AM 16.54 61.772 0.247 8.13 1.35 8.1
5/26/2021 2:00:00 AM 16.46 61.628 0.247 8.13 1.44 8.12
5/26/2021 2:15:00 AM 16.38 61.484 0.247 8.13 1.43 8.14
5/26/2021 2:30:00 AM 16.29 61.322 0.248 8.12 1.41 8.15
5/26/2021 2:45:00 AM 16.2 61.16 0.248 8.12 1.38 8.18
5/26/2021 3:00:00 AM 16.11 60.998 0.248 8.12 1.4 8.2
5/26/2021 3:15:00 AM 16.02 60.836 0.248 8.11 1.33 8.22
5/26/2021 3:30:00 AM 15.94 60.692 0.248 8.11 1.36 8.24
5/26/2021 3:45:00 AM 15.86 60.548 0.249 8.11 1.58 8.25
5/26/2021 4:00:00 AM 15.77 60.386 0.249 8.1 1.34 8.27
5/26/2021 4:15:00 AM 15.7 60.26 0.249 8.1 1.35 8.29
5/26/2021 4:30:00 AM 15.65 60.17 0.249 8.1 1.37 8.31
5/26/2021 4:45:00 AM 15.58 60.044 0.249 8.1 1.4 8.32
5/26/2021 5:00:00 AM 15.55 59.99 0.249 8.09 1.42 8.33
5/26/2021 5:15:00 AM 15.48 59.864 0.25 8.08 1.42 8.34
5/26/2021 5:30:00 AM 15.44 59.792 0.25 8.08 1.42 8.36
5/26/2021 5:45:00 AM 15.41 59.738 0.25 8.09 1.41 8.41
5/26/2021 6:00:00 AM 15.36 59.648 0.25 8.11 1.38 8.55
5/26/2021 6:15:00 AM 15.33 59.594 0.25 8.16 1.42 8.8
5/26/2021 6:30:00 AM 15.33 59.594 0.249 8.24 1.37 9.15
5/26/2021 6:45:00 AM 15.34 59.612 0.249 8.33 1.45 9.5
5/26/2021 7:00:00 AM 15.4 59.72 0.248 8.48 1.42 9.94
5/26/2021 7:15:00 AM 15.48 59.864 0.247 8.64 1.41 10.31
5/26/2021 7:30:00 AM 15.5 59.9 0.247 8.73 1.39 10.45
5/26/2021 7:45:00 AM 15.61 60.098 0.247 8.87 1.38 10.73
5/26/2021 8:00:00 AM 15.73 60.314 0.246 8.98 1.45 10.91
5/26/2021 8:15:00 AM 15.89 60.602 0.245 9.09 1.35 11.12
5/26/2021 8:30:00 AM 16.04 60.872 0.245 9.19 1.4 11.28
5/26/2021 8:45:00 AM 16.26 61.268 0.244 9.28 1.42 11.43
5/26/2021 9:00:00 AM 16.51 61.718 0.243 9.36 1.37 11.56
5/26/2021 9:15:00 AM 16.84 62.312 0.242 9.46 1.41 11.74
5/26/2021 9:30:00 AM 17.21 62.978 0.241 9.55 1.48 11.94
5/26/2021 9:45:00 AM 17.34 63.212 0.241 9.62 1.41 12.03
5/26/2021 10:00:00 AM 17.51 63.518 0.24 9.66 1.61 12.1
5/26/2021 10:15:00 AM 17.61 63.698 0.24 9.7 1.42 12.09
5/26/2021 10:30:00 AM 17.67 63.806 0.239 9.71 2.5 12.02
5/26/2021 10:45:00 AM 17.99 64.382 0.238 9.74 1.38 12
5/26/2021 11:00:00 AM 18.44 65.192 0.238 9.79 1.45 11.97
5/26/2021 11:15:00 AM 18.86 65.948 0.237 9.84 1.51 11.95
5/26/2021 11:30:00 AM 19.28 66.704 0.236 9.89 1.4 11.93
5/26/2021 11:45:00 AM 19.67 67.406 0.236 9.93 1.48 11.86
5/26/2021 12:00:00 PM 20.05 68.09 0.236 9.96 1.37 11.83
5/26/2021 12:15:00 PM 20.36 68.648 0.235 10 1.51 11.79
5/26/2021 12:30:00 PM 20.54 68.972 0.235 10.01 1.49 11.74
5/26/2021 12:45:00 PM 20.93 69.674 0.235 10.05 1.47 11.75
5/26/2021 1:00:00 PM 21.18 70.124 0.235 10.07 1.44 11.67
5/26/2021 1:15:00 PM 21.47 70.646 0.234 10.1 1.42 11.66
5/26/2021 1:30:00 PM 21.8 71.24 0.234 10.13 1.42 11.66
5/26/2021 1:45:00 PM 21.67 71.006 0.234 10.13 1.5 11.31
5/26/2021 2:00:00 PM 21.05 69.89 0.235 9.96 1.78 9.94
5/26/2021 2:15:00 PM 20.65 69.17 0.232 9.76 1.91 9.11
5/26/2021 2:30:00 PM 20.41 68.738 0.232 9.54 1.69 8.61
5/26/2021 2:45:00 PM 20.22 68.396 0.232 9.41 1.8 8.71
5/26/2021 3:00:00 PM 20.21 68.378 0.232 9.46 2.05 9.42
5/26/2021 3:15:00 PM 20.15 68.27 0.244 9.36 7.25 9.37
5/26/2021 3:30:00 PM 20.09 68.162 0.243 9.3 6.77 9.4
5/26/2021 3:45:00 PM 20.25 68.45 0.238 9.42 4.85 10.08
5/26/2021 4:00:00 PM 20.18 68.324 0.236 9.51 3.49 10.4
5/26/2021 4:15:00 PM 20.11 68.198 0.236 9.56 2.69 10.63
5/26/2021 4:30:00 PM 20.17 68.306 0.235 9.61 2.19 10.73
5/26/2021 4:45:00 PM 19.95 67.91 0.235 9.56 1.91 10.33
5/26/2021 5:00:00 PM 19.77 67.586 0.236 9.42 2.01 9.73
5/26/2021 5:15:00 PM 19.85 67.73 0.236 9.4 2.18 9.97
5/26/2021 5:30:00 PM 19.92 67.856 0.236 9.46 2.02 10.12
5/26/2021 5:45:00 PM 19.69 67.442 0.237 9.38 1.91 9.74
5/26/2021 6:00:00 PM 19.54 67.172 0.237 9.13 1.94 8.92
5/26/2021 6:15:00 PM 19.37 66.866 0.237 8.89 1.68 8.54
5/26/2021 6:30:00 PM 19.26 66.668 0.236 8.89 1.59 8.87
5/26/2021 6:45:00 PM 19.21 66.578 0.235 8.95 1.61 9.17
5/26/2021 7:00:00 PM 19.17 66.506 0.235 9.01 1.76 9.42
5/26/2021 7:15:00 PM 19.12 66.416 0.236 8.98 2.05 9.32
5/26/2021 7:30:00 PM 19.02 66.236 0.236 8.85 2.01 9
5/26/2021 7:45:00 PM 18.89 66.002 0.237 8.65 1.87 8.54
5/26/2021 8:00:00 PM 18.77 65.786 0.236 8.5 1.71 8.23
5/26/2021 8:15:00 PM 18.66 65.588 0.236 8.39 1.71 8
5/26/2021 8:30:00 PM 18.56 65.408 0.235 8.32 1.68 7.87
5/26/2021 8:45:00 PM 18.46 65.228 0.235 8.27 1.66 7.8
5/26/2021 9:00:00 PM 18.36 65.048 0.235 8.23 1.63 7.77
5/26/2021 9:15:00 PM 18.25 64.85 0.234 8.21 1.58 7.77
5/26/2021 9:30:00 PM 18.14 64.652 0.234 8.19 1.51 7.77
5/26/2021 9:45:00 PM 18.05 64.49 0.234 8.18 1.54 7.79
5/26/2021 10:00:00 PM 17.94 64.292 0.233 8.17 1.57 7.81
5/26/2021 10:15:00 PM 17.84 64.112 0.233 8.16 1.57 7.83
5/26/2021 10:30:00 PM 17.74 63.932 0.233 8.16 1.56 7.86
5/26/2021 10:45:00 PM 17.63 63.734 0.233 8.15 1.51 7.89
5/26/2021 11:00:00 PM 17.52 63.536 0.233 8.14 1.57 7.92
5/26/2021 11:15:00 PM 17.39 63.302 0.233 8.14 1.6 7.94
5/26/2021 11:30:00 PM 17.28 63.104 0.233 8.13 1.55 7.97
5/26/2021 11:45:00 PM 17.18 62.924 0.232 8.12 1.56 8
5/27/2021 12:00:00 AM 17.11 62.798 0.232 8.12 1.57 8.02
5/27/2021 12:15:00 AM 17.04 62.672 0.232 8.12 1.55 8.03
5/27/2021 12:30:00 AM 16.95 62.51 0.232 8.12 1.64 8.06
5/27/2021 12:45:00 AM 16.84 62.312 0.231 8.11 1.59 8.08
5/27/2021 1:00:00 AM 16.74 62.132 0.231 8.11 1.6 8.1
5/27/2021 1:15:00 AM 16.68 62.024 0.231 8.11 1.54 8.12
5/27/2021 1:30:00 AM 16.63 61.934 0.231 8.11 1.65 8.13
5/27/2021 1:45:00 AM 16.58 61.844 0.231 8.11 1.66 8.15
5/27/2021 2:00:00 AM 16.51 61.718 0.231 8.1 1.66 8.17
5/27/2021 2:15:00 AM 16.44 61.592 0.231 8.1 1.61 8.18
5/27/2021 2:30:00 AM 16.36 61.448 0.231 8.1 1.64 8.2
5/27/2021 2:45:00 AM 16.28 61.304 0.231 8.09 1.63 8.22
5/27/2021 3:00:00 AM 16.19 61.142 0.231 8.09 1.54 8.23
5/27/2021 3:15:00 AM 16.12 61.016 0.231 8.09 1.67 8.24
5/27/2021 3:30:00 AM 16.07 60.926 0.231 8.09 1.7 8.26
5/27/2021 3:45:00 AM 15.96 60.728 0.232 8.08 1.63 8.28
5/27/2021 4:00:00 AM 15.88 60.584 0.232 8.08 1.69 8.3
5/27/2021 4:15:00 AM 15.78 60.404 0.232 8.07 1.58 8.33
5/27/2021 4:30:00 AM 15.67 60.206 0.232 8.07 1.59 8.35
5/27/2021 4:45:00 AM 15.56 60.008 0.232 8.06 1.62 8.38
5/27/2021 5:00:00 AM 15.44 59.792 0.232 8.06 1.55 8.4
5/27/2021 5:15:00 AM 15.33 59.594 0.233 8.05 1.65 8.42
5/27/2021 5:30:00 AM 15.22 59.396 0.233 8.04 1.58 8.46
5/27/2021 5:45:00 AM 15.11 59.198 0.233 8.05 1.58 8.55
5/27/2021 6:00:00 AM 15 59 0.233 8.06 1.56 8.7
5/27/2021 6:15:00 AM 14.92 58.856 0.233 8.1 1.58 8.9
5/27/2021 6:30:00 AM 14.82 58.676 0.233 8.13 1.61 9.08
5/27/2021 6:45:00 AM 14.75 58.55 0.232 8.18 1.57 9.3
5/27/2021 7:00:00 AM 14.7 58.46 0.232 8.25 1.55 9.56
5/27/2021 7:15:00 AM 14.66 58.388 0.232 8.34 1.54 9.83
5/27/2021 7:30:00 AM 14.65 58.37 0.232 8.47 1.6 10.19
5/27/2021 7:45:00 AM 14.7 58.46 0.231 8.64 1.53 10.62
5/27/2021 8:00:00 AM 14.65 58.37 0.231 8.74 1.63 10.72
5/27/2021 8:15:00 AM 14.63 58.334 0.231 8.8 1.51 10.9
5/27/2021 8:30:00 AM 14.84 58.712 0.231 8.97 1.57 11.32
5/27/2021 8:45:00 AM 15.05 59.09 0.23 9.13 1.58 11.56
5/27/2021 9:00:00 AM 14.98 58.964 0.23 9.17 1.59 11.52
5/27/2021 9:15:00 AM 14.93 58.874 0.23 9.15 1.52 11.38
5/27/2021 9:30:00 AM 14.84 58.712 0.23 9.15 1.53 11.41
5/27/2021 9:45:00 AM 14.81 58.658 0.23 9.18 1.62 11.52
5/27/2021 10:00:00 AM 14.75 58.55 0.23 9.17 1.57 11.42
5/27/2021 10:15:00 AM 14.75 58.55 0.23 9.18 1.57 11.42
5/27/2021 10:30:00 AM 14.86 58.748 0.229 9.27 1.5 11.64
5/27/2021 10:45:00 AM 14.93 58.874 0.229 9.34 1.55 11.78
5/27/2021 11:00:00 AM 15 59 0.228 9.4 1.46 11.93
5/27/2021 11:15:00 AM 15.02 59.036 0.228 9.43 1.51 11.91
5/27/2021 11:30:00 AM 15.14 59.252 0.228 9.45 1.46 11.98
5/27/2021 11:45:00 AM 15.28 59.504 0.228 9.5 1.47 12.1
5/27/2021 12:00:00 PM 15.24 59.432 0.228 9.52 1.58 12.06
5/27/2021 12:15:00 PM 15.13 59.234 0.228 9.49 1.46 11.81
5/27/2021 12:30:00 PM 15.17 59.306 0.228 9.48 1.46 11.82
5/27/2021 12:45:00 PM 15.45 59.81 0.228 9.53 1.45 11.97
5/27/2021 1:00:00 PM 15.67 60.206 0.227 9.6 1.51 12.1
5/27/2021 1:15:00 PM 15.65 60.17 0.227 9.62 1.46 11.99
5/27/2021 1:30:00 PM 15.91 60.638 0.227 9.62 1.52 11.93
5/27/2021 1:45:00 PM 16.1 60.98 0.227 9.65 1.5 11.98
5/27/2021 2:00:00 PM 16.16 61.088 0.227 9.67 1.5 11.93
5/27/2021 2:15:00 PM 16.24 61.232 0.227 9.68 1.46 11.94
5/27/2021 2:30:00 PM 16.67 62.006 0.226 9.71 1.55 11.93
5/27/2021 2:45:00 PM 16.64 61.952 0.226 9.72 1.48 11.88
5/27/2021 3:00:00 PM 17.08 62.744 0.226 9.75 1.47 11.97
5/27/2021 3:15:00 PM 17.55 63.59 0.226 9.81 1.46 12.01
5/27/2021 3:30:00 PM 17.58 63.644 0.226 9.83 1.48 11.85
5/27/2021 3:45:00 PM 17.47 63.446 0.226 9.79 1.52 11.6
5/27/2021 4:00:00 PM 17.72 63.896 0.226 9.77 1.63 11.61
5/27/2021 4:15:00 PM 18.02 64.436 0.226 9.8 1.48 11.63
5/27/2021 4:30:00 PM 18.22 64.796 0.226 9.83 1.49 11.68
5/27/2021 4:45:00 PM 18.13 64.634 0.226 9.82 1.52 11.49
5/27/2021 5:00:00 PM 18.11 64.598 0.226 9.79 1.46 11.39
5/27/2021 5:15:00 PM 18.19 64.742 0.226 9.79 1.47 11.41
5/27/2021 5:30:00 PM 18.07 64.526 0.227 9.77 1.48 11.24
5/27/2021 5:45:00 PM 17.93 64.274 0.227 9.72 1.48 11.05
5/27/2021 6:00:00 PM 17.7 63.86 0.227 9.66 1.51 10.85
5/27/2021 6:15:00 PM 17.46 63.428 0.228 9.58 1.46 10.66
5/27/2021 6:30:00 PM 17.21 62.978 0.229 9.49 1.38 10.43
5/27/2021 6:45:00 PM 16.98 62.564 0.23 9.39 1.42 10.35
5/27/2021 7:00:00 PM 16.72 62.096 0.23 9.27 1.41 10.23
5/27/2021 7:15:00 PM 16.51 61.718 0.231 9.15 1.41 10.11
5/27/2021 7:30:00 PM 16.27 61.286 0.232 9.04 1.41 9.9
5/27/2021 7:45:00 PM 16.04 60.872 0.234 8.84 1.43 9.52
5/27/2021 8:00:00 PM 15.87 60.566 0.234 8.68 1.44 9.32
5/27/2021 8:15:00 PM 15.66 60.188 0.235 8.5 1.37 9.09
5/27/2021 8:30:00 PM 15.47 59.846 0.236 8.33 1.4 8.9
5/27/2021 8:45:00 PM 15.27 59.486 0.237 8.22 1.33 8.75
5/27/2021 9:00:00 PM 15.08 59.144 0.238 8.13 1.42 8.65
5/27/2021 9:15:00 PM 14.9 58.82 0.238 8.08 1.4 8.61
5/27/2021 9:30:00 PM 14.74 58.532 0.239 8.04 1.42 8.6
5/27/2021 9:45:00 PM 14.58 58.244 0.239 8.02 1.38 8.61
5/27/2021 10:00:00 PM 14.41 57.938 0.24 8.01 1.36 8.63
5/27/2021 10:15:00 PM 14.26 57.668 0.24 8 1.47 8.66
5/27/2021 10:30:00 PM 14.1 57.38 0.241 7.98 1.36 8.7
5/27/2021 10:45:00 PM 13.96 57.128 0.241 7.97 1.4 8.72
5/27/2021 11:00:00 PM 13.98 57.164 0.241 7.95 1.38 8.71
5/27/2021 11:15:00 PM 13.83 56.894 0.241 7.95 1.42 8.74
5/27/2021 11:30:00 PM 13.71 56.678 0.242 7.95 1.39 8.77
5/27/2021 11:45:00 PM 13.6 56.48 0.242 7.95 1.44 8.8
5/28/2021 12:00:00 AM 13.5 56.3 0.242 7.94 1.43 8.82
5/28/2021 12:15:00 AM 13.4 56.12 0.243 7.94 1.4 8.85
5/28/2021 12:30:00 AM 13.31 55.958 0.243 7.94 1.38 8.87
5/28/2021 12:45:00 AM 13.22 55.796 0.243 7.94 1.41 8.9
5/28/2021 1:00:00 AM 13.13 55.634 0.244 7.94 1.38 8.92
5/28/2021 1:15:00 AM 13.02 55.436 0.244 7.93 1.43 8.94
5/28/2021 1:30:00 AM 12.92 55.256 0.244 7.93 1.39 8.97
5/28/2021 1:45:00 AM 12.87 55.166 0.244 7.93 1.38 8.99
5/28/2021 2:00:00 AM 12.8 55.04 0.245 7.93 1.4 9
5/28/2021 2:15:00 AM 12.71 54.878 0.245 7.92 1.36 9.02
5/28/2021 2:30:00 AM 12.66 54.788 0.245 7.93 1.42 9.04
5/28/2021 2:45:00 AM 12.6 54.68 0.245 7.93 1.4 9.05
5/28/2021 3:00:00 AM 12.55 54.59 0.245 7.93 1.43 9.07
5/28/2021 3:15:00 AM 12.5 54.5 0.245 7.94 1.35 9.08
5/28/2021 3:30:00 AM 12.45 54.41 0.245 7.94 1.45 9.09
5/28/2021 3:45:00 AM 12.41 54.338 0.245 7.94 1.39 9.11
5/28/2021 4:00:00 AM 12.37 54.266 0.245 7.94 1.38 9.12
5/28/2021 4:15:00 AM 12.33 54.194 0.245 7.95 1.4 9.14
5/28/2021 4:30:00 AM 12.29 54.122 0.245 7.95 1.41 9.14
5/28/2021 4:45:00 AM 12.25 54.05 0.246 7.94 1.42 9.16
5/28/2021 5:00:00 AM 12.21 53.978 0.246 7.93 1.39 9.16
5/28/2021 5:15:00 AM 12.18 53.924 0.246 7.92 1.39 9.16
5/28/2021 5:30:00 AM 12.15 53.87 0.246 7.92 1.41 9.18
5/28/2021 5:45:00 AM 12.13 53.834 0.246 7.92 1.42 9.2
5/28/2021 6:00:00 AM 12.1 53.78 0.247 7.93 1.35 9.26
5/28/2021 6:15:00 AM 12.08 53.744 0.247 7.95 1.34 9.36
5/28/2021 6:30:00 AM 12.07 53.726 0.247 7.97 1.34 9.48
5/28/2021 6:45:00 AM 12.06 53.708 0.247 8.01 1.32 9.66
5/28/2021 7:00:00 AM 12.05 53.69 0.247 8.03 1.33 9.72
5/28/2021 7:15:00 AM 12.04 53.672 0.247 8.03 1.33 9.72
5/28/2021 7:30:00 AM 12.03 53.654 0.247 8.07 1.36 9.83
5/28/2021 7:45:00 AM 12.04 53.672 0.247 8.1 1.32 9.99
5/28/2021 8:00:00 AM 12.05 53.69 0.246 8.17 1.38 10.23
5/28/2021 8:15:00 AM 12.07 53.726 0.246 8.27 1.34 10.53
5/28/2021 8:30:00 AM 12.12 53.816 0.245 8.43 1.37 10.92
5/28/2021 8:45:00 AM 12.15 53.87 0.245 8.56 1.4 11.17
5/28/2021 9:00:00 AM 12.17 53.906 0.245 8.65 1.45 11.3
5/28/2021 9:15:00 AM 12.16 53.888 0.245 8.67 1.41 11.22
5/28/2021 9:30:00 AM 12.18 53.924 0.244 8.71 1.36 11.31
5/28/2021 9:45:00 AM 12.22 53.996 0.244 8.79 1.38 11.46
5/28/2021 10:00:00 AM 12.24 54.032 0.244 8.85 1.35 11.55
5/28/2021 10:15:00 AM 12.29 54.122 0.243 8.91 1.35 11.68
5/28/2021 10:30:00 AM 12.35 54.23 0.243 8.99 1.36 11.86
5/28/2021 10:45:00 AM 12.4 54.32 0.242 9.05 1.37 11.95
5/28/2021 11:00:00 AM 12.42 54.356 0.242 9.08 1.38 11.94
5/28/2021 11:15:00 AM 12.46 54.428 0.242 9.12 1.4 12.02
5/28/2021 11:30:00 AM 12.54 54.572 0.241 9.17 1.42 12.18
5/28/2021 11:45:00 AM 12.64 54.752 0.24 9.23 1.38 12.35
5/28/2021 12:00:00 PM 12.67 54.806 0.24 9.28 1.35 12.4
5/28/2021 12:15:00 PM 12.72 54.896 0.239 9.32 1.37 12.42
5/28/2021 12:30:00 PM 12.71 54.878 0.239 9.32 1.35 12.24
5/28/2021 12:45:00 PM 12.72 54.896 0.239 9.32 1.4 12.19
5/28/2021 1:00:00 PM 12.77 54.986 0.239 9.34 1.36 12.24
5/28/2021 1:15:00 PM 12.81 55.058 0.238 9.36 1.37 12.28
5/28/2021 1:30:00 PM 12.81 55.058 0.238 9.37 1.35 12.22
5/28/2021 1:45:00 PM 12.78 55.004 0.238 9.36 1.35 12.1
5/28/2021 2:00:00 PM 12.76 54.968 0.238 9.34 1.35 11.94
5/28/2021 2:15:00 PM 12.73 54.914 0.237 9.32 1.36 11.86
5/28/2021 2:30:00 PM 12.68 54.824 0.237 9.29 1.43 11.76
5/28/2021 2:45:00 PM 12.64 54.752 0.236 9.25 1.42 11.66
5/28/2021 3:00:00 PM 12.58 54.644 0.236 9.21 1.36 11.54
5/28/2021 3:15:00 PM 12.53 54.554 0.236 9.18 1.4 11.48
5/28/2021 3:30:00 PM 12.47 54.446 0.236 9.14 1.4 11.42
5/28/2021 3:45:00 PM 12.42 54.356 0.237 9.11 1.66 11.41
5/28/2021 4:00:00 PM 12.38 54.284 0.237 9.07 1.82 11.31
5/28/2021 4:15:00 PM 12.31 54.158 0.237 9.01 1.85 11.17
5/28/2021 4:30:00 PM 12.24 54.032 0.236 8.96 1.81 11.13
5/28/2021 4:45:00 PM 12.17 53.906 0.236 8.9 1.85 10.99
5/28/2021 5:00:00 PM 12.1 53.78 0.236 8.82 2 10.91
5/28/2021 5:15:00 PM 12.05 53.69 0.235 8.79 2.13 10.93
5/28/2021 5:30:00 PM 11.99 53.582 0.234 8.71 2.33 10.78
5/28/2021 5:45:00 PM 11.91 53.438 0.233 8.61 2.4 10.6
5/28/2021 6:00:00 PM 11.82 53.276 0.232 8.49 2.59 10.44
5/28/2021 6:15:00 PM 11.76 53.168 0.23 8.38 2.8 10.28
5/28/2021 6:30:00 PM 11.66 52.988 0.228 8.3 2.72 10.19
5/28/2021 6:45:00 PM 11.59 52.862 0.227 8.24 2.98 10.15
5/28/2021 7:00:00 PM 11.53 52.754 0.225 8.18 3.59 10.09
5/28/2021 7:15:00 PM 11.45 52.61 0.223 8.13 3.61 10.03
5/28/2021 7:30:00 PM 11.39 52.502 0.221 8.08 3.49 9.93
5/28/2021 7:45:00 PM 11.32 52.376 0.222 8.03 3.21 9.86
5/28/2021 8:00:00 PM 11.26 52.268 0.222 8 3.22 9.8
5/28/2021 8:15:00 PM 11.22 52.196 0.223 7.97 3.07 9.74
5/28/2021 8:30:00 PM 11.18 52.124 0.224 7.95 2.86 9.69
5/28/2021 8:45:00 PM 11.14 52.052 0.225 7.94 2.94 9.65
5/28/2021 9:00:00 PM 11.1 51.98 0.225 7.93 2.86 9.64
5/28/2021 9:15:00 PM 11.07 51.926 0.226 7.92 2.96 9.64
5/28/2021 9:30:00 PM 11.03 51.854 0.226 7.92 0 9.66
5/28/2021 9:45:00 PM 10.99 51.782 0.226 7.92 0 9.68
5/28/2021 10:00:00 PM 10.94 51.692 0.225